<?xml version="1.0" encoding="UTF-8" standalone="no" ?>
<gpx xmlns="http://www.topografix.com/GPX/1/1" xmlns:xsi="http://www.w3.org/2001/XMLSchema-instance" xsi:schemaLocation="http://www.topografix.com/GPX/1/1 http://www.topografix.com/GPX/1/1/gpx.xsd" version="1.1" creator="VisuGPX - https://www.visugpx.com">
  <metadata>
    <name>Cartagena</name>
  </metadata>
  <trk>
    <name><![CDATA[Cartagena]]></name>
    <extensions>
      <line xmlns="http://www.topografix.com/GPX/gpx_style/0/2">
        <color>0000FF</color>
        <width>4</width>
      </line>
    </extensions>
    <trkseg>
      <trkpt lat="37.63577" lon="-0.70799">
        <ele>6.915571</ele>
        <time>2022-04-27T09:23:44.000Z</time>
      </trkpt>
      <trkpt lat="37.63578" lon="-0.70804">
        <ele>6.915571</ele>
        <time>2022-04-27T09:23:49.000Z</time>
      </trkpt>
      <trkpt lat="37.63581" lon="-0.70809">
        <ele>6.915571</ele>
        <time>2022-04-27T09:23:51.000Z</time>
      </trkpt>
      <trkpt lat="37.63595" lon="-0.70819">
        <ele>6.915571</ele>
        <time>2022-04-27T09:23:56.000Z</time>
      </trkpt>
      <trkpt lat="37.6362" lon="-0.70831">
        <ele>6.915571</ele>
        <time>2022-04-27T09:24:03.000Z</time>
      </trkpt>
      <trkpt lat="37.6365" lon="-0.70847">
        <ele>6.915571</ele>
        <time>2022-04-27T09:24:11.000Z</time>
      </trkpt>
      <trkpt lat="37.63657" lon="-0.7085">
        <ele>6.92422</ele>
        <time>2022-04-27T09:24:13.000Z</time>
      </trkpt>
      <trkpt lat="37.63661" lon="-0.70852">
        <ele>6.940574</ele>
        <time>2022-04-27T09:24:14.000Z</time>
      </trkpt>
      <trkpt lat="37.6367" lon="-0.70855">
        <ele>6.978101</ele>
        <time>2022-04-27T09:24:16.000Z</time>
      </trkpt>
      <trkpt lat="37.63685" lon="-0.70862">
        <ele>7.043594</ele>
        <time>2022-04-27T09:24:20.000Z</time>
      </trkpt>
      <trkpt lat="37.63697" lon="-0.70869">
        <ele>7.09628</ele>
        <time>2022-04-27T09:24:23.000Z</time>
      </trkpt>
      <trkpt lat="37.63713" lon="-0.7088">
        <ele>7.167288</ele>
        <time>2022-04-27T09:24:27.000Z</time>
      </trkpt>
      <trkpt lat="37.63734" lon="-0.70893">
        <ele>7.25991</ele>
        <time>2022-04-27T09:24:33.000Z</time>
      </trkpt>
      <trkpt lat="37.63756" lon="-0.70909">
        <ele>7.359206</ele>
        <time>2022-04-27T09:24:40.000Z</time>
      </trkpt>
      <trkpt lat="37.6376" lon="-0.70911">
        <ele>7.375205</ele>
        <time>2022-04-27T09:24:41.000Z</time>
      </trkpt>
      <trkpt lat="37.63768" lon="-0.70917">
        <ele>7.41317</ele>
        <time>2022-04-27T09:24:43.000Z</time>
      </trkpt>
      <trkpt lat="37.63792" lon="-0.70933">
        <ele>7.519392</ele>
        <time>2022-04-27T09:24:49.000Z</time>
      </trkpt>
      <trkpt lat="37.63815" lon="-0.7095">
        <ele>7.627325</ele>
        <time>2022-04-27T09:24:55.000Z</time>
      </trkpt>
      <trkpt lat="37.63832" lon="-0.70961">
        <ele>7.542369</ele>
        <time>2022-04-27T09:24:59.000Z</time>
      </trkpt>
      <trkpt lat="37.63839" lon="-0.70967">
        <ele>7.503009</ele>
        <time>2022-04-27T09:25:01.000Z</time>
      </trkpt>
      <trkpt lat="37.63858" lon="-0.70986">
        <ele>7.391452</ele>
        <time>2022-04-27T09:25:06.000Z</time>
      </trkpt>
      <trkpt lat="37.63869" lon="-0.70999">
        <ele>7.321279</ele>
        <time>2022-04-27T09:25:09.000Z</time>
      </trkpt>
      <trkpt lat="37.63894" lon="-0.71035">
        <ele>7.142741</ele>
        <time>2022-04-27T09:25:17.000Z</time>
      </trkpt>
      <trkpt lat="37.63898" lon="-0.7104">
        <ele>7.117623</ele>
        <time>2022-04-27T09:25:18.000Z</time>
      </trkpt>
      <trkpt lat="37.63911" lon="-0.71062">
        <ele>7.015765</ele>
        <time>2022-04-27T09:25:22.000Z</time>
      </trkpt>
      <trkpt lat="37.6393" lon="-0.7109">
        <ele>6.880993</ele>
        <time>2022-04-27T09:25:27.000Z</time>
      </trkpt>
      <trkpt lat="37.63949" lon="-0.71122">
        <ele>6.809274</ele>
        <time>2022-04-27T09:25:33.000Z</time>
      </trkpt>
      <trkpt lat="37.63956" lon="-0.71134">
        <ele>6.824286</ele>
        <time>2022-04-27T09:25:35.000Z</time>
      </trkpt>
      <trkpt lat="37.63962" lon="-0.71145">
        <ele>6.838159</ele>
        <time>2022-04-27T09:25:37.000Z</time>
      </trkpt>
      <trkpt lat="37.63969" lon="-0.71156">
        <ele>6.851783</ele>
        <time>2022-04-27T09:25:39.000Z</time>
      </trkpt>
      <trkpt lat="37.63993" lon="-0.71189">
        <ele>6.896496</ele>
        <time>2022-04-27T09:25:46.000Z</time>
      </trkpt>
      <trkpt lat="37.64024" lon="-0.71228">
        <ele>6.952237</ele>
        <time>2022-04-27T09:25:55.000Z</time>
      </trkpt>
      <trkpt lat="37.64057" lon="-0.71262">
        <ele>7.007752</ele>
        <time>2022-04-27T09:26:04.000Z</time>
      </trkpt>
      <trkpt lat="37.6407" lon="-0.71273">
        <ele>7.032832</ele>
        <time>2022-04-27T09:26:07.000Z</time>
      </trkpt>
      <trkpt lat="37.64078" lon="-0.71279">
        <ele>7.062096</ele>
        <time>2022-04-27T09:26:09.000Z</time>
      </trkpt>
      <trkpt lat="37.6409" lon="-0.71288">
        <ele>7.106077</ele>
        <time>2022-04-27T09:26:12.000Z</time>
      </trkpt>
      <trkpt lat="37.64111" lon="-0.71302">
        <ele>7.181387</ele>
        <time>2022-04-27T09:26:17.000Z</time>
      </trkpt>
      <trkpt lat="37.64128" lon="-0.71312">
        <ele>7.239317</ele>
        <time>2022-04-27T09:26:21.000Z</time>
      </trkpt>
      <trkpt lat="37.64132" lon="-0.71315">
        <ele>7.253005</ele>
        <time>2022-04-27T09:26:22.000Z</time>
      </trkpt>
      <trkpt lat="37.64166" lon="-0.71336">
        <ele>7.370146</ele>
        <time>2022-04-27T09:26:30.000Z</time>
      </trkpt>
      <trkpt lat="37.6417" lon="-0.71338">
        <ele>7.384874</ele>
        <time>2022-04-27T09:26:31.000Z</time>
      </trkpt>
      <trkpt lat="37.64179" lon="-0.71341">
        <ele>7.41202</ele>
        <time>2022-04-27T09:26:33.000Z</time>
      </trkpt>
      <trkpt lat="37.64186" lon="-0.71345">
        <ele>7.4379</ele>
        <time>2022-04-27T09:26:35.000Z</time>
      </trkpt>
      <trkpt lat="37.64197" lon="-0.71352">
        <ele>7.475636</ele>
        <time>2022-04-27T09:26:38.000Z</time>
      </trkpt>
      <trkpt lat="37.64201" lon="-0.71355">
        <ele>7.488389</ele>
        <time>2022-04-27T09:26:39.000Z</time>
      </trkpt>
      <trkpt lat="37.64204" lon="-0.71357">
        <ele>7.50087</ele>
        <time>2022-04-27T09:26:40.000Z</time>
      </trkpt>
      <trkpt lat="37.64219" lon="-0.71367">
        <ele>7.551802</ele>
        <time>2022-04-27T09:26:44.000Z</time>
      </trkpt>
      <trkpt lat="37.64222" lon="-0.7137">
        <ele>7.565214</ele>
        <time>2022-04-27T09:26:45.000Z</time>
      </trkpt>
      <trkpt lat="37.64232" lon="-0.7138">
        <ele>7.571343</ele>
        <time>2022-04-27T09:26:48.000Z</time>
      </trkpt>
      <trkpt lat="37.64244" lon="-0.71387">
        <ele>7.556271</ele>
        <time>2022-04-27T09:26:51.000Z</time>
      </trkpt>
      <trkpt lat="37.64263" lon="-0.714">
        <ele>7.530162</ele>
        <time>2022-04-27T09:26:56.000Z</time>
      </trkpt>
      <trkpt lat="37.6427" lon="-0.71402">
        <ele>7.521831</ele>
        <time>2022-04-27T09:26:58.000Z</time>
      </trkpt>
      <trkpt lat="37.64272" lon="-0.71401">
        <ele>7.51831</ele>
        <time>2022-04-27T09:26:59.000Z</time>
      </trkpt>
      <trkpt lat="37.64275" lon="-0.714">
        <ele>7.51484</ele>
        <time>2022-04-27T09:27:00.000Z</time>
      </trkpt>
      <trkpt lat="37.64281" lon="-0.71402">
        <ele>7.507573</ele>
        <time>2022-04-27T09:27:02.000Z</time>
      </trkpt>
      <trkpt lat="37.64297" lon="-0.71419">
        <ele>7.482185</ele>
        <time>2022-04-27T09:27:08.000Z</time>
      </trkpt>
      <trkpt lat="37.6431" lon="-0.71428">
        <ele>7.464744</ele>
        <time>2022-04-27T09:27:12.000Z</time>
      </trkpt>
      <trkpt lat="37.64313" lon="-0.7143">
        <ele>7.459962</ele>
        <time>2022-04-27T09:27:13.000Z</time>
      </trkpt>
      <trkpt lat="37.64333" lon="-0.71442">
        <ele>7.43359</ele>
        <time>2022-04-27T09:27:18.000Z</time>
      </trkpt>
      <trkpt lat="37.64337" lon="-0.71445">
        <ele>7.428231</ele>
        <time>2022-04-27T09:27:19.000Z</time>
      </trkpt>
      <trkpt lat="37.64353" lon="-0.71456">
        <ele>7.406002</ele>
        <time>2022-04-27T09:27:23.000Z</time>
      </trkpt>
      <trkpt lat="37.64386" lon="-0.71475">
        <ele>7.364448</ele>
        <time>2022-04-27T09:27:31.000Z</time>
      </trkpt>
      <trkpt lat="37.64406" lon="-0.71487">
        <ele>7.362462</ele>
        <time>2022-04-27T09:27:36.000Z</time>
      </trkpt>
      <trkpt lat="37.6442" lon="-0.71495">
        <ele>7.361113</ele>
        <time>2022-04-27T09:27:39.000Z</time>
      </trkpt>
      <trkpt lat="37.64424" lon="-0.71497">
        <ele>7.360784</ele>
        <time>2022-04-27T09:27:40.000Z</time>
      </trkpt>
      <trkpt lat="37.64434" lon="-0.71501">
        <ele>7.359837</ele>
        <time>2022-04-27T09:27:42.000Z</time>
      </trkpt>
      <trkpt lat="37.64462" lon="-0.71508">
        <ele>7.357284</ele>
        <time>2022-04-27T09:27:48.000Z</time>
      </trkpt>
      <trkpt lat="37.64467" lon="-0.71508">
        <ele>7.356855</ele>
        <time>2022-04-27T09:27:49.000Z</time>
      </trkpt>
      <trkpt lat="37.64479" lon="-0.71508">
        <ele>7.35571</ele>
        <time>2022-04-27T09:27:52.000Z</time>
      </trkpt>
      <trkpt lat="37.64502" lon="-0.71506">
        <ele>7.353693</ele>
        <time>2022-04-27T09:27:57.000Z</time>
      </trkpt>
      <trkpt lat="37.64537" lon="-0.71501">
        <ele>7.350507</ele>
        <time>2022-04-27T09:28:05.000Z</time>
      </trkpt>
      <trkpt lat="37.64541" lon="-0.715">
        <ele>7.350209</ele>
        <time>2022-04-27T09:28:06.000Z</time>
      </trkpt>
      <trkpt lat="37.64587" lon="-0.71494">
        <ele>7.41718</ele>
        <time>2022-04-27T09:28:16.000Z</time>
      </trkpt>
      <trkpt lat="37.64628" lon="-0.71488">
        <ele>7.517668</ele>
        <time>2022-04-27T09:28:25.000Z</time>
      </trkpt>
      <trkpt lat="37.64665" lon="-0.71486">
        <ele>7.609927</ele>
        <time>2022-04-27T09:28:34.000Z</time>
      </trkpt>
      <trkpt lat="37.64696" lon="-0.71487">
        <ele>7.683769</ele>
        <time>2022-04-27T09:28:42.000Z</time>
      </trkpt>
      <trkpt lat="37.6471" lon="-0.71495">
        <ele>7.721834</ele>
        <time>2022-04-27T09:28:46.000Z</time>
      </trkpt>
      <trkpt lat="37.64727" lon="-0.71509">
        <ele>7.771553</ele>
        <time>2022-04-27T09:28:51.000Z</time>
      </trkpt>
      <trkpt lat="37.64733" lon="-0.71514">
        <ele>7.788346</ele>
        <time>2022-04-27T09:28:53.000Z</time>
      </trkpt>
      <trkpt lat="37.64747" lon="-0.71526">
        <ele>7.789492</ele>
        <time>2022-04-27T09:28:58.000Z</time>
      </trkpt>
      <trkpt lat="37.64762" lon="-0.71537">
        <ele>7.790641</ele>
        <time>2022-04-27T09:29:03.000Z</time>
      </trkpt>
      <trkpt lat="37.64767" lon="-0.71541">
        <ele>7.791018</ele>
        <time>2022-04-27T09:29:05.000Z</time>
      </trkpt>
      <trkpt lat="37.64782" lon="-0.71552">
        <ele>7.792182</ele>
        <time>2022-04-27T09:29:11.000Z</time>
      </trkpt>
      <trkpt lat="37.64806" lon="-0.7157">
        <ele>7.794035</ele>
        <time>2022-04-27T09:29:19.000Z</time>
      </trkpt>
      <trkpt lat="37.64823" lon="-0.71579">
        <ele>7.795285</ele>
        <time>2022-04-27T09:29:24.000Z</time>
      </trkpt>
      <trkpt lat="37.64834" lon="-0.71586">
        <ele>7.796112</ele>
        <time>2022-04-27T09:29:29.000Z</time>
      </trkpt>
      <trkpt lat="37.64834" lon="-0.71586">
        <ele>7.796144</ele>
        <time>2022-04-27T09:29:33.000Z</time>
      </trkpt>
      <trkpt lat="37.64835" lon="-0.71583">
        <ele>7.796323</ele>
        <time>2022-04-27T09:29:36.000Z</time>
      </trkpt>
      <trkpt lat="37.64839" lon="-0.71576">
        <ele>7.796741</ele>
        <time>2022-04-27T09:29:39.000Z</time>
      </trkpt>
      <trkpt lat="37.64848" lon="-0.71556">
        <ele>7.797961</ele>
        <time>2022-04-27T09:29:45.000Z</time>
      </trkpt>
      <trkpt lat="37.6486" lon="-0.71529">
        <ele>7.799634</ele>
        <time>2022-04-27T09:29:52.000Z</time>
      </trkpt>
      <trkpt lat="37.64873" lon="-0.71499">
        <ele>7.803214</ele>
        <time>2022-04-27T09:30:01.000Z</time>
      </trkpt>
      <trkpt lat="37.64874" lon="-0.71497">
        <ele>7.80351</ele>
        <time>2022-04-27T09:30:03.000Z</time>
      </trkpt>
      <trkpt lat="37.64874" lon="-0.71496">
        <ele>7.80364</ele>
        <time>2022-04-27T09:30:05.000Z</time>
      </trkpt>
      <trkpt lat="37.64875" lon="-0.71495">
        <ele>7.803795</ele>
        <time>2022-04-27T09:30:06.000Z</time>
      </trkpt>
      <trkpt lat="37.64875" lon="-0.71494">
        <ele>7.803938</ele>
        <time>2022-04-27T09:30:07.000Z</time>
      </trkpt>
      <trkpt lat="37.64878" lon="-0.71492">
        <ele>7.804537</ele>
        <time>2022-04-27T09:30:11.000Z</time>
      </trkpt>
      <trkpt lat="37.64878" lon="-0.71492">
        <ele>7.804537</ele>
        <time>2022-04-27T09:30:15.000Z</time>
      </trkpt>
      <trkpt lat="37.64878" lon="-0.71492">
        <ele>7.804537</ele>
        <time>2022-04-27T09:30:26.000Z</time>
      </trkpt>
      <trkpt lat="37.64878" lon="-0.71492">
        <ele>7.804537</ele>
        <time>2022-04-27T09:30:36.000Z</time>
      </trkpt>
      <trkpt lat="37.64878" lon="-0.71492">
        <ele>7.804537</ele>
        <time>2022-04-27T09:30:39.000Z</time>
      </trkpt>
      <trkpt lat="37.64878" lon="-0.71492">
        <ele>7.804537</ele>
        <time>2022-04-27T09:30:54.000Z</time>
      </trkpt>
      <trkpt lat="37.64878" lon="-0.71492">
        <ele>7.804537</ele>
        <time>2022-04-27T09:30:56.000Z</time>
      </trkpt>
      <trkpt lat="37.64878" lon="-0.71493">
        <ele>7.804582</ele>
        <time>2022-04-27T09:31:15.000Z</time>
      </trkpt>
      <trkpt lat="37.64875" lon="-0.71495">
        <ele>7.805175</ele>
        <time>2022-04-27T09:31:19.000Z</time>
      </trkpt>
      <trkpt lat="37.64875" lon="-0.71496">
        <ele>7.805305</ele>
        <time>2022-04-27T09:31:29.000Z</time>
      </trkpt>
      <trkpt lat="37.64866" lon="-0.71514">
        <ele>7.808194</ele>
        <time>2022-04-27T09:31:35.000Z</time>
      </trkpt>
      <trkpt lat="37.64854" lon="-0.7154">
        <ele>7.812367</ele>
        <time>2022-04-27T09:31:42.000Z</time>
      </trkpt>
      <trkpt lat="37.64848" lon="-0.71555">
        <ele>7.814768</ele>
        <time>2022-04-27T09:31:46.000Z</time>
      </trkpt>
      <trkpt lat="37.64838" lon="-0.71574">
        <ele>7.817833</ele>
        <time>2022-04-27T09:31:51.000Z</time>
      </trkpt>
      <trkpt lat="37.64833" lon="-0.71587">
        <ele>7.819861</ele>
        <time>2022-04-27T09:31:56.000Z</time>
      </trkpt>
      <trkpt lat="37.64841" lon="-0.71596">
        <ele>7.821745</ele>
        <time>2022-04-27T09:32:00.000Z</time>
      </trkpt>
      <trkpt lat="37.64859" lon="-0.71608">
        <ele>7.825277</ele>
        <time>2022-04-27T09:32:06.000Z</time>
      </trkpt>
      <trkpt lat="37.64864" lon="-0.71615">
        <ele>7.826516</ele>
        <time>2022-04-27T09:32:08.000Z</time>
      </trkpt>
      <trkpt lat="37.64874" lon="-0.7163">
        <ele>7.829172</ele>
        <time>2022-04-27T09:32:12.000Z</time>
      </trkpt>
      <trkpt lat="37.64877" lon="-0.71632">
        <ele>7.829896</ele>
        <time>2022-04-27T09:32:13.000Z</time>
      </trkpt>
      <trkpt lat="37.64891" lon="-0.71643">
        <ele>7.838644</ele>
        <time>2022-04-27T09:32:17.000Z</time>
      </trkpt>
      <trkpt lat="37.64899" lon="-0.71648">
        <ele>7.848533</ele>
        <time>2022-04-27T09:32:19.000Z</time>
      </trkpt>
      <trkpt lat="37.64909" lon="-0.71656">
        <ele>7.86334</ele>
        <time>2022-04-27T09:32:22.000Z</time>
      </trkpt>
      <trkpt lat="37.6492" lon="-0.71664">
        <ele>7.878203</ele>
        <time>2022-04-27T09:32:25.000Z</time>
      </trkpt>
      <trkpt lat="37.64962" lon="-0.71695">
        <ele>7.935269</ele>
        <time>2022-04-27T09:32:35.000Z</time>
      </trkpt>
      <trkpt lat="37.64979" lon="-0.71706">
        <ele>7.957462</ele>
        <time>2022-04-27T09:32:39.000Z</time>
      </trkpt>
      <trkpt lat="37.64987" lon="-0.71708">
        <ele>7.967152</ele>
        <time>2022-04-27T09:32:41.000Z</time>
      </trkpt>
      <trkpt lat="37.64994" lon="-0.7171">
        <ele>7.976362</ele>
        <time>2022-04-27T09:32:43.000Z</time>
      </trkpt>
      <trkpt lat="37.65003" lon="-0.71715">
        <ele>7.987215</ele>
        <time>2022-04-27T09:32:45.000Z</time>
      </trkpt>
      <trkpt lat="37.65043" lon="-0.71747">
        <ele>8.043305</ele>
        <time>2022-04-27T09:32:56.000Z</time>
      </trkpt>
      <trkpt lat="37.65057" lon="-0.71757">
        <ele>8.000173</ele>
        <time>2022-04-27T09:33:00.000Z</time>
      </trkpt>
      <trkpt lat="37.6506" lon="-0.71763">
        <ele>7.985446</ele>
        <time>2022-04-27T09:33:02.000Z</time>
      </trkpt>
      <trkpt lat="37.65062" lon="-0.71768">
        <ele>7.97492</ele>
        <time>2022-04-27T09:33:04.000Z</time>
      </trkpt>
      <trkpt lat="37.65066" lon="-0.7177">
        <ele>7.962085</ele>
        <time>2022-04-27T09:33:06.000Z</time>
      </trkpt>
      <trkpt lat="37.65079" lon="-0.71776">
        <ele>7.924529</ele>
        <time>2022-04-27T09:33:11.000Z</time>
      </trkpt>
      <trkpt lat="37.65095" lon="-0.71787">
        <ele>7.874547</ele>
        <time>2022-04-27T09:33:16.000Z</time>
      </trkpt>
      <trkpt lat="37.65104" lon="-0.71797">
        <ele>7.843754</ele>
        <time>2022-04-27T09:33:19.000Z</time>
      </trkpt>
      <trkpt lat="37.65104" lon="-0.718">
        <ele>7.836375</ele>
        <time>2022-04-27T09:33:20.000Z</time>
      </trkpt>
      <trkpt lat="37.65104" lon="-0.71803">
        <ele>7.829905</ele>
        <time>2022-04-27T09:33:23.000Z</time>
      </trkpt>
      <trkpt lat="37.65104" lon="-0.71803">
        <ele>7.829905</ele>
        <time>2022-04-27T09:33:42.000Z</time>
      </trkpt>
      <trkpt lat="37.65102" lon="-0.71806">
        <ele>7.823371</ele>
        <time>2022-04-27T09:33:54.000Z</time>
      </trkpt>
      <trkpt lat="37.65098" lon="-0.71816">
        <ele>7.798772</ele>
        <time>2022-04-27T09:33:57.000Z</time>
      </trkpt>
      <trkpt lat="37.65098" lon="-0.7182">
        <ele>7.78956</ele>
        <time>2022-04-27T09:33:58.000Z</time>
      </trkpt>
      <trkpt lat="37.65104" lon="-0.7183">
        <ele>7.763266</ele>
        <time>2022-04-27T09:34:01.000Z</time>
      </trkpt>
      <trkpt lat="37.65107" lon="-0.71832">
        <ele>7.75449</ele>
        <time>2022-04-27T09:34:02.000Z</time>
      </trkpt>
      <trkpt lat="37.65123" lon="-0.71846">
        <ele>7.702225</ele>
        <time>2022-04-27T09:34:07.000Z</time>
      </trkpt>
      <trkpt lat="37.65126" lon="-0.71849">
        <ele>7.691401</ele>
        <time>2022-04-27T09:34:08.000Z</time>
      </trkpt>
      <trkpt lat="37.65161" lon="-0.71881">
        <ele>7.575227</ele>
        <time>2022-04-27T09:34:18.000Z</time>
      </trkpt>
      <trkpt lat="37.65185" lon="-0.71902">
        <ele>7.660051</ele>
        <time>2022-04-27T09:34:25.000Z</time>
      </trkpt>
      <trkpt lat="37.65193" lon="-0.71908">
        <ele>7.698049</ele>
        <time>2022-04-27T09:34:27.000Z</time>
      </trkpt>
      <trkpt lat="37.65203" lon="-0.71916">
        <ele>7.750773</ele>
        <time>2022-04-27T09:34:30.000Z</time>
      </trkpt>
      <trkpt lat="37.6523" lon="-0.7194">
        <ele>7.894969</ele>
        <time>2022-04-27T09:34:38.000Z</time>
      </trkpt>
      <trkpt lat="37.65259" lon="-0.71967">
        <ele>8.053761</ele>
        <time>2022-04-27T09:34:47.000Z</time>
      </trkpt>
      <trkpt lat="37.6528" lon="-0.71985">
        <ele>8.160261</ele>
        <time>2022-04-27T09:34:53.000Z</time>
      </trkpt>
      <trkpt lat="37.65305" lon="-0.72004">
        <ele>8.290245</ele>
        <time>2022-04-27T09:35:01.000Z</time>
      </trkpt>
      <trkpt lat="37.65321" lon="-0.72015">
        <ele>8.30759</ele>
        <time>2022-04-27T09:35:06.000Z</time>
      </trkpt>
      <trkpt lat="37.65346" lon="-0.72037">
        <ele>8.139079</ele>
        <time>2022-04-27T09:35:15.000Z</time>
      </trkpt>
      <trkpt lat="37.65365" lon="-0.72057">
        <ele>8.007704</ele>
        <time>2022-04-27T09:35:21.000Z</time>
      </trkpt>
      <trkpt lat="37.65385" lon="-0.72067">
        <ele>7.890744</ele>
        <time>2022-04-27T09:35:26.000Z</time>
      </trkpt>
      <trkpt lat="37.65402" lon="-0.72073">
        <ele>7.794288</ele>
        <time>2022-04-27T09:35:30.000Z</time>
      </trkpt>
      <trkpt lat="37.65411" lon="-0.72072">
        <ele>7.748385</ele>
        <time>2022-04-27T09:35:32.000Z</time>
      </trkpt>
      <trkpt lat="37.6542" lon="-0.72071">
        <ele>7.700271</ele>
        <time>2022-04-27T09:35:34.000Z</time>
      </trkpt>
      <trkpt lat="37.65428" lon="-0.72072">
        <ele>7.653801</ele>
        <time>2022-04-27T09:35:36.000Z</time>
      </trkpt>
      <trkpt lat="37.65443" lon="-0.72074">
        <ele>7.576936</ele>
        <time>2022-04-27T09:35:39.000Z</time>
      </trkpt>
      <trkpt lat="37.6548" lon="-0.72079">
        <ele>7.372521</ele>
        <time>2022-04-27T09:35:47.000Z</time>
      </trkpt>
      <trkpt lat="37.6551" lon="-0.72083">
        <ele>7.431335</ele>
        <time>2022-04-27T09:35:54.000Z</time>
      </trkpt>
      <trkpt lat="37.65515" lon="-0.7208">
        <ele>7.442701</ele>
        <time>2022-04-27T09:35:56.000Z</time>
      </trkpt>
      <trkpt lat="37.65515" lon="-0.72077">
        <ele>7.447891</ele>
        <time>2022-04-27T09:35:57.000Z</time>
      </trkpt>
      <trkpt lat="37.65517" lon="-0.72059">
        <ele>7.477141</ele>
        <time>2022-04-27T09:36:02.000Z</time>
      </trkpt>
      <trkpt lat="37.6552" lon="-0.72054">
        <ele>7.487533</ele>
        <time>2022-04-27T09:36:04.000Z</time>
      </trkpt>
      <trkpt lat="37.65525" lon="-0.72053">
        <ele>7.497687</ele>
        <time>2022-04-27T09:36:06.000Z</time>
      </trkpt>
      <trkpt lat="37.65551" lon="-0.72059">
        <ele>7.55274</ele>
        <time>2022-04-27T09:36:14.000Z</time>
      </trkpt>
      <trkpt lat="37.6557" lon="-0.72062">
        <ele>7.592728</ele>
        <time>2022-04-27T09:36:19.000Z</time>
      </trkpt>
      <trkpt lat="37.65586" lon="-0.72065">
        <ele>7.627754</ele>
        <time>2022-04-27T09:36:23.000Z</time>
      </trkpt>
      <trkpt lat="37.65599" lon="-0.72067">
        <ele>7.654586</ele>
        <time>2022-04-27T09:36:26.000Z</time>
      </trkpt>
      <trkpt lat="37.65603" lon="-0.72067">
        <ele>7.663586</ele>
        <time>2022-04-27T09:36:27.000Z</time>
      </trkpt>
      <trkpt lat="37.65608" lon="-0.72067">
        <ele>7.673627</ele>
        <time>2022-04-27T09:36:28.000Z</time>
      </trkpt>
      <trkpt lat="37.65626" lon="-0.7207">
        <ele>7.711896</ele>
        <time>2022-04-27T09:36:32.000Z</time>
      </trkpt>
      <trkpt lat="37.65653" lon="-0.72076">
        <ele>7.755939</ele>
        <time>2022-04-27T09:36:38.000Z</time>
      </trkpt>
      <trkpt lat="37.65656" lon="-0.72078">
        <ele>7.758705</ele>
        <time>2022-04-27T09:36:39.000Z</time>
      </trkpt>
      <trkpt lat="37.65674" lon="-0.72084">
        <ele>7.776462</ele>
        <time>2022-04-27T09:36:44.000Z</time>
      </trkpt>
      <trkpt lat="37.65697" lon="-0.72095">
        <ele>7.799043</ele>
        <time>2022-04-27T09:36:50.000Z</time>
      </trkpt>
      <trkpt lat="37.65728" lon="-0.72112">
        <ele>7.830918</ele>
        <time>2022-04-27T09:36:58.000Z</time>
      </trkpt>
      <trkpt lat="37.65743" lon="-0.72119">
        <ele>7.845829</ele>
        <time>2022-04-27T09:37:02.000Z</time>
      </trkpt>
      <trkpt lat="37.65751" lon="-0.72123">
        <ele>7.854206</ele>
        <time>2022-04-27T09:37:04.000Z</time>
      </trkpt>
      <trkpt lat="37.65762" lon="-0.72129">
        <ele>7.865471</ele>
        <time>2022-04-27T09:37:07.000Z</time>
      </trkpt>
      <trkpt lat="37.6577" lon="-0.72136">
        <ele>7.873966</ele>
        <time>2022-04-27T09:37:09.000Z</time>
      </trkpt>
      <trkpt lat="37.65774" lon="-0.72138">
        <ele>7.877998</ele>
        <time>2022-04-27T09:37:10.000Z</time>
      </trkpt>
      <trkpt lat="37.65806" lon="-0.72155">
        <ele>7.910794</ele>
        <time>2022-04-27T09:37:18.000Z</time>
      </trkpt>
      <trkpt lat="37.65841" lon="-0.7217">
        <ele>7.880201</ele>
        <time>2022-04-27T09:37:26.000Z</time>
      </trkpt>
      <trkpt lat="37.65871" lon="-0.72185">
        <ele>7.846744</ele>
        <time>2022-04-27T09:37:33.000Z</time>
      </trkpt>
      <trkpt lat="37.65902" lon="-0.72201">
        <ele>7.812421</ele>
        <time>2022-04-27T09:37:40.000Z</time>
      </trkpt>
      <trkpt lat="37.65932" lon="-0.72209">
        <ele>7.781554</ele>
        <time>2022-04-27T09:37:47.000Z</time>
      </trkpt>
      <trkpt lat="37.65937" lon="-0.7221">
        <ele>7.776875</ele>
        <time>2022-04-27T09:37:48.000Z</time>
      </trkpt>
      <trkpt lat="37.65946" lon="-0.72215">
        <ele>7.76677</ele>
        <time>2022-04-27T09:37:50.000Z</time>
      </trkpt>
      <trkpt lat="37.65954" lon="-0.72219">
        <ele>7.757611</ele>
        <time>2022-04-27T09:37:52.000Z</time>
      </trkpt>
      <trkpt lat="37.6598" lon="-0.72232">
        <ele>7.72839</ele>
        <time>2022-04-27T09:37:58.000Z</time>
      </trkpt>
      <trkpt lat="37.65986" lon="-0.72238">
        <ele>7.713534</ele>
        <time>2022-04-27T09:38:00.000Z</time>
      </trkpt>
      <trkpt lat="37.66009" lon="-0.72259">
        <ele>7.660826</ele>
        <time>2022-04-27T09:38:06.000Z</time>
      </trkpt>
      <trkpt lat="37.66041" lon="-0.72294">
        <ele>7.581596</ele>
        <time>2022-04-27T09:38:15.000Z</time>
      </trkpt>
      <trkpt lat="37.66061" lon="-0.72314">
        <ele>7.533535</ele>
        <time>2022-04-27T09:38:21.000Z</time>
      </trkpt>
      <trkpt lat="37.66071" lon="-0.72325">
        <ele>7.508235</ele>
        <time>2022-04-27T09:38:24.000Z</time>
      </trkpt>
      <trkpt lat="37.66075" lon="-0.72333">
        <ele>7.494241</ele>
        <time>2022-04-27T09:38:26.000Z</time>
      </trkpt>
      <trkpt lat="37.66079" lon="-0.72337">
        <ele>7.485334</ele>
        <time>2022-04-27T09:38:27.000Z</time>
      </trkpt>
      <trkpt lat="37.6611" lon="-0.72372">
        <ele>7.407281</ele>
        <time>2022-04-27T09:38:37.000Z</time>
      </trkpt>
      <trkpt lat="37.66133" lon="-0.72391">
        <ele>7.493839</ele>
        <time>2022-04-27T09:38:43.000Z</time>
      </trkpt>
      <trkpt lat="37.66141" lon="-0.72396">
        <ele>7.537145</ele>
        <time>2022-04-27T09:38:45.000Z</time>
      </trkpt>
      <trkpt lat="37.66186" lon="-0.72419">
        <ele>7.779266</ele>
        <time>2022-04-27T09:38:57.000Z</time>
      </trkpt>
      <trkpt lat="37.66212" lon="-0.72431">
        <ele>7.913848</ele>
        <time>2022-04-27T09:39:04.000Z</time>
      </trkpt>
      <trkpt lat="37.66222" lon="-0.72439">
        <ele>7.974226</ele>
        <time>2022-04-27T09:39:07.000Z</time>
      </trkpt>
      <trkpt lat="37.66246" lon="-0.72451">
        <ele>8.102838</ele>
        <time>2022-04-27T09:39:13.000Z</time>
      </trkpt>
      <trkpt lat="37.6625" lon="-0.72453">
        <ele>8.12432</ele>
        <time>2022-04-27T09:39:14.000Z</time>
      </trkpt>
      <trkpt lat="37.66259" lon="-0.72457">
        <ele>8.168202</ele>
        <time>2022-04-27T09:39:16.000Z</time>
      </trkpt>
      <trkpt lat="37.66279" lon="-0.72467">
        <ele>8.277092</ele>
        <time>2022-04-27T09:39:21.000Z</time>
      </trkpt>
      <trkpt lat="37.66283" lon="-0.72468">
        <ele>8.338315</ele>
        <time>2022-04-27T09:39:22.000Z</time>
      </trkpt>
      <trkpt lat="37.66294" lon="-0.7247">
        <ele>8.613588</ele>
        <time>2022-04-27T09:39:27.000Z</time>
      </trkpt>
      <trkpt lat="37.66294" lon="-0.7247">
        <ele>8.613588</ele>
        <time>2022-04-27T09:39:33.000Z</time>
      </trkpt>
      <trkpt lat="37.66296" lon="-0.7247">
        <ele>8.672018</ele>
        <time>2022-04-27T09:39:41.000Z</time>
      </trkpt>
      <trkpt lat="37.66296" lon="-0.7247">
        <ele>8.672018</ele>
        <time>2022-04-27T09:39:54.000Z</time>
      </trkpt>
      <trkpt lat="37.66296" lon="-0.7247">
        <ele>8.672018</ele>
        <time>2022-04-27T09:40:36.000Z</time>
      </trkpt>
      <trkpt lat="37.66296" lon="-0.72469">
        <ele>8.676677</ele>
        <time>2022-04-27T09:40:38.000Z</time>
      </trkpt>
      <trkpt lat="37.663" lon="-0.72467">
        <ele>8.793922</ele>
        <time>2022-04-27T09:40:40.000Z</time>
      </trkpt>
      <trkpt lat="37.66304" lon="-0.72471">
        <ele>8.932998</ele>
        <time>2022-04-27T09:40:43.000Z</time>
      </trkpt>
      <trkpt lat="37.66305" lon="-0.72473">
        <ele>8.965988</ele>
        <time>2022-04-27T09:40:44.000Z</time>
      </trkpt>
      <trkpt lat="37.66309" lon="-0.72476">
        <ele>9.085354</ele>
        <time>2022-04-27T09:40:47.000Z</time>
      </trkpt>
      <trkpt lat="37.66311" lon="-0.72478">
        <ele>9.131754</ele>
        <time>2022-04-27T09:40:48.000Z</time>
      </trkpt>
      <trkpt lat="37.66319" lon="-0.72479">
        <ele>9.345563</ele>
        <time>2022-04-27T09:40:51.000Z</time>
      </trkpt>
      <trkpt lat="37.66332" lon="-0.72475">
        <ele>9.666377</ele>
        <time>2022-04-27T09:40:56.000Z</time>
      </trkpt>
      <trkpt lat="37.66342" lon="-0.72475">
        <ele>9.930458</ele>
        <time>2022-04-27T09:41:02.000Z</time>
      </trkpt>
      <trkpt lat="37.66354" lon="-0.72477">
        <ele>10.223566</ele>
        <time>2022-04-27T09:41:08.000Z</time>
      </trkpt>
      <trkpt lat="37.66358" lon="-0.72477">
        <ele>10.325875</ele>
        <time>2022-04-27T09:41:11.000Z</time>
      </trkpt>
      <trkpt lat="37.66368" lon="-0.72477">
        <ele>10.579918</ele>
        <time>2022-04-27T09:41:17.000Z</time>
      </trkpt>
      <trkpt lat="37.66374" lon="-0.72477">
        <ele>10.731733</ele>
        <time>2022-04-27T09:41:19.000Z</time>
      </trkpt>
      <trkpt lat="37.66388" lon="-0.72476">
        <ele>11.070373</ele>
        <time>2022-04-27T09:41:23.000Z</time>
      </trkpt>
      <trkpt lat="37.66403" lon="-0.72476">
        <ele>11.433696</ele>
        <time>2022-04-27T09:41:28.000Z</time>
      </trkpt>
      <trkpt lat="37.66416" lon="-0.72476">
        <ele>11.779524</ele>
        <time>2022-04-27T09:41:33.000Z</time>
      </trkpt>
      <trkpt lat="37.66436" lon="-0.72476">
        <ele>12.274626</ele>
        <time>2022-04-27T09:41:40.000Z</time>
      </trkpt>
      <trkpt lat="37.66445" lon="-0.72477">
        <ele>12.479585</ele>
        <time>2022-04-27T09:41:43.000Z</time>
      </trkpt>
      <trkpt lat="37.66459" lon="-0.72477">
        <ele>12.916537</ele>
        <time>2022-04-27T09:41:48.000Z</time>
      </trkpt>
      <trkpt lat="37.66475" lon="-0.72477">
        <ele>13.5844</ele>
        <time>2022-04-27T09:41:53.000Z</time>
      </trkpt>
      <trkpt lat="37.66493" lon="-0.7248">
        <ele>14.355308</ele>
        <time>2022-04-27T09:41:59.000Z</time>
      </trkpt>
      <trkpt lat="37.66503" lon="-0.72484">
        <ele>14.808983</ele>
        <time>2022-04-27T09:42:03.000Z</time>
      </trkpt>
      <trkpt lat="37.6652" lon="-0.7249">
        <ele>15.560924</ele>
        <time>2022-04-27T09:42:09.000Z</time>
      </trkpt>
      <trkpt lat="37.66529" lon="-0.72495">
        <ele>16.012326</ele>
        <time>2022-04-27T09:42:13.000Z</time>
      </trkpt>
      <trkpt lat="37.66532" lon="-0.72497">
        <ele>16.14337</ele>
        <time>2022-04-27T09:42:14.000Z</time>
      </trkpt>
      <trkpt lat="37.6655" lon="-0.72506">
        <ele>16.988011</ele>
        <time>2022-04-27T09:42:22.000Z</time>
      </trkpt>
      <trkpt lat="37.66566" lon="-0.72516">
        <ele>17.751794</ele>
        <time>2022-04-27T09:42:29.000Z</time>
      </trkpt>
      <trkpt lat="37.66568" lon="-0.72518">
        <ele>17.86114</ele>
        <time>2022-04-27T09:42:30.000Z</time>
      </trkpt>
      <trkpt lat="37.66583" lon="-0.72532">
        <ele>18.648248</ele>
        <time>2022-04-27T09:42:37.000Z</time>
      </trkpt>
      <trkpt lat="37.6659" lon="-0.72541">
        <ele>19.087996</ele>
        <time>2022-04-27T09:42:41.000Z</time>
      </trkpt>
      <trkpt lat="37.66593" lon="-0.72547">
        <ele>19.342074</ele>
        <time>2022-04-27T09:42:43.000Z</time>
      </trkpt>
      <trkpt lat="37.66598" lon="-0.72559">
        <ele>19.810647</ele>
        <time>2022-04-27T09:42:47.000Z</time>
      </trkpt>
      <trkpt lat="37.66603" lon="-0.72568">
        <ele>20.159025</ele>
        <time>2022-04-27T09:42:50.000Z</time>
      </trkpt>
      <trkpt lat="37.66609" lon="-0.72579">
        <ele>20.439377</ele>
        <time>2022-04-27T09:42:56.000Z</time>
      </trkpt>
      <trkpt lat="37.66609" lon="-0.72581">
        <ele>20.40482</ele>
        <time>2022-04-27T09:42:59.000Z</time>
      </trkpt>
      <trkpt lat="37.6661" lon="-0.72585">
        <ele>20.311428</ele>
        <time>2022-04-27T09:43:02.000Z</time>
      </trkpt>
      <trkpt lat="37.66613" lon="-0.7259">
        <ele>20.1647</ele>
        <time>2022-04-27T09:43:04.000Z</time>
      </trkpt>
      <trkpt lat="37.66617" lon="-0.72601">
        <ele>19.902356</ele>
        <time>2022-04-27T09:43:07.000Z</time>
      </trkpt>
      <trkpt lat="37.66629" lon="-0.7263">
        <ele>19.19672</ele>
        <time>2022-04-27T09:43:13.000Z</time>
      </trkpt>
      <trkpt lat="37.66637" lon="-0.72647">
        <ele>18.777922</ele>
        <time>2022-04-27T09:43:16.000Z</time>
      </trkpt>
      <trkpt lat="37.6665" lon="-0.7267">
        <ele>18.164337</ele>
        <time>2022-04-27T09:43:20.000Z</time>
      </trkpt>
      <trkpt lat="37.66657" lon="-0.7268">
        <ele>17.867342</ele>
        <time>2022-04-27T09:43:22.000Z</time>
      </trkpt>
      <trkpt lat="37.66672" lon="-0.72699">
        <ele>17.29621</ele>
        <time>2022-04-27T09:43:25.000Z</time>
      </trkpt>
      <trkpt lat="37.66677" lon="-0.72705">
        <ele>17.10579</ele>
        <time>2022-04-27T09:43:26.000Z</time>
      </trkpt>
      <trkpt lat="37.6669" lon="-0.72724">
        <ele>16.557319</ele>
        <time>2022-04-27T09:43:29.000Z</time>
      </trkpt>
      <trkpt lat="37.66701" lon="-0.72738">
        <ele>16.12475</ele>
        <time>2022-04-27T09:43:31.000Z</time>
      </trkpt>
      <trkpt lat="37.66706" lon="-0.72745">
        <ele>15.938981</ele>
        <time>2022-04-27T09:43:32.000Z</time>
      </trkpt>
      <trkpt lat="37.66724" lon="-0.72769">
        <ele>15.203815</ele>
        <time>2022-04-27T09:43:36.000Z</time>
      </trkpt>
      <trkpt lat="37.66729" lon="-0.72775">
        <ele>15.020038</ele>
        <time>2022-04-27T09:43:37.000Z</time>
      </trkpt>
      <trkpt lat="37.66747" lon="-0.72798">
        <ele>14.278092</ele>
        <time>2022-04-27T09:43:41.000Z</time>
      </trkpt>
      <trkpt lat="37.66752" lon="-0.72803">
        <ele>14.095648</ele>
        <time>2022-04-27T09:43:42.000Z</time>
      </trkpt>
      <trkpt lat="37.66777" lon="-0.72833">
        <ele>13.120406</ele>
        <time>2022-04-27T09:43:47.000Z</time>
      </trkpt>
      <trkpt lat="37.66781" lon="-0.72837">
        <ele>12.964222</ele>
        <time>2022-04-27T09:43:48.000Z</time>
      </trkpt>
      <trkpt lat="37.66818" lon="-0.72861">
        <ele>11.809971</ele>
        <time>2022-04-27T09:43:54.000Z</time>
      </trkpt>
      <trkpt lat="37.66823" lon="-0.72864">
        <ele>11.62859</ele>
        <time>2022-04-27T09:43:55.000Z</time>
      </trkpt>
      <trkpt lat="37.66852" lon="-0.72877">
        <ele>10.770756</ele>
        <time>2022-04-27T09:44:00.000Z</time>
      </trkpt>
      <trkpt lat="37.66857" lon="-0.72878">
        <ele>10.635075</ele>
        <time>2022-04-27T09:44:01.000Z</time>
      </trkpt>
      <trkpt lat="37.66862" lon="-0.72879">
        <ele>10.490118</ele>
        <time>2022-04-27T09:44:02.000Z</time>
      </trkpt>
      <trkpt lat="37.66878" lon="-0.72887">
        <ele>10.320022</ele>
        <time>2022-04-27T09:44:06.000Z</time>
      </trkpt>
      <trkpt lat="37.66888" lon="-0.72892">
        <ele>10.216068</ele>
        <time>2022-04-27T09:44:08.000Z</time>
      </trkpt>
      <trkpt lat="37.66895" lon="-0.72896">
        <ele>10.131311</ele>
        <time>2022-04-27T09:44:10.000Z</time>
      </trkpt>
      <trkpt lat="37.66903" lon="-0.72903">
        <ele>10.03574</ele>
        <time>2022-04-27T09:44:12.000Z</time>
      </trkpt>
      <trkpt lat="37.66907" lon="-0.72905">
        <ele>9.993554</ele>
        <time>2022-04-27T09:44:13.000Z</time>
      </trkpt>
      <trkpt lat="37.66946" lon="-0.72923">
        <ele>9.583326</ele>
        <time>2022-04-27T09:44:22.000Z</time>
      </trkpt>
      <trkpt lat="37.66951" lon="-0.72925">
        <ele>9.530069</ele>
        <time>2022-04-27T09:44:23.000Z</time>
      </trkpt>
      <trkpt lat="37.66958" lon="-0.72924">
        <ele>9.461389</ele>
        <time>2022-04-27T09:44:25.000Z</time>
      </trkpt>
      <trkpt lat="37.66967" lon="-0.72927">
        <ele>9.371147</ele>
        <time>2022-04-27T09:44:27.000Z</time>
      </trkpt>
      <trkpt lat="37.66979" lon="-0.7293">
        <ele>9.247077</ele>
        <time>2022-04-27T09:44:30.000Z</time>
      </trkpt>
      <trkpt lat="37.66995" lon="-0.72937">
        <ele>9.077207</ele>
        <time>2022-04-27T09:44:34.000Z</time>
      </trkpt>
      <trkpt lat="37.67003" lon="-0.7294">
        <ele>8.994653</ele>
        <time>2022-04-27T09:44:36.000Z</time>
      </trkpt>
      <trkpt lat="37.67031" lon="-0.72953">
        <ele>8.702223</ele>
        <time>2022-04-27T09:44:42.000Z</time>
      </trkpt>
      <trkpt lat="37.67065" lon="-0.72969">
        <ele>8.542408</ele>
        <time>2022-04-27T09:44:49.000Z</time>
      </trkpt>
      <trkpt lat="37.67079" lon="-0.72976">
        <ele>8.477817</ele>
        <time>2022-04-27T09:44:52.000Z</time>
      </trkpt>
      <trkpt lat="37.67104" lon="-0.72987">
        <ele>8.359182</ele>
        <time>2022-04-27T09:44:58.000Z</time>
      </trkpt>
      <trkpt lat="37.67112" lon="-0.72991">
        <ele>8.31782</ele>
        <time>2022-04-27T09:45:00.000Z</time>
      </trkpt>
      <trkpt lat="37.67123" lon="-0.72998">
        <ele>8.264021</ele>
        <time>2022-04-27T09:45:03.000Z</time>
      </trkpt>
      <trkpt lat="37.67131" lon="-0.73003">
        <ele>8.225913</ele>
        <time>2022-04-27T09:45:05.000Z</time>
      </trkpt>
      <trkpt lat="37.67159" lon="-0.73017">
        <ele>8.090837</ele>
        <time>2022-04-27T09:45:12.000Z</time>
      </trkpt>
      <trkpt lat="37.6717" lon="-0.73022">
        <ele>8.037806</ele>
        <time>2022-04-27T09:45:15.000Z</time>
      </trkpt>
      <trkpt lat="37.67186" lon="-0.73027">
        <ele>7.966115</ele>
        <time>2022-04-27T09:45:19.000Z</time>
      </trkpt>
      <trkpt lat="37.67191" lon="-0.73029">
        <ele>7.942221</ele>
        <time>2022-04-27T09:45:20.000Z</time>
      </trkpt>
      <trkpt lat="37.67206" lon="-0.73037">
        <ele>7.904518</ele>
        <time>2022-04-27T09:45:24.000Z</time>
      </trkpt>
      <trkpt lat="37.67214" lon="-0.73041">
        <ele>7.903301</ele>
        <time>2022-04-27T09:45:26.000Z</time>
      </trkpt>
      <trkpt lat="37.67242" lon="-0.73055">
        <ele>7.899085</ele>
        <time>2022-04-27T09:45:33.000Z</time>
      </trkpt>
      <trkpt lat="37.67248" lon="-0.73058">
        <ele>7.89813</ele>
        <time>2022-04-27T09:45:35.000Z</time>
      </trkpt>
      <trkpt lat="37.6726" lon="-0.73063">
        <ele>7.896426</ele>
        <time>2022-04-27T09:45:38.000Z</time>
      </trkpt>
      <trkpt lat="37.6728" lon="-0.73065">
        <ele>7.893612</ele>
        <time>2022-04-27T09:45:43.000Z</time>
      </trkpt>
      <trkpt lat="37.67288" lon="-0.73064">
        <ele>7.892486</ele>
        <time>2022-04-27T09:45:45.000Z</time>
      </trkpt>
      <trkpt lat="37.67295" lon="-0.73061">
        <ele>7.891387</ele>
        <time>2022-04-27T09:45:47.000Z</time>
      </trkpt>
      <trkpt lat="37.67303" lon="-0.73058">
        <ele>7.890269</ele>
        <time>2022-04-27T09:45:49.000Z</time>
      </trkpt>
      <trkpt lat="37.67334" lon="-0.73046">
        <ele>7.885731</ele>
        <time>2022-04-27T09:45:57.000Z</time>
      </trkpt>
      <trkpt lat="37.67338" lon="-0.73045">
        <ele>7.885166</ele>
        <time>2022-04-27T09:45:58.000Z</time>
      </trkpt>
      <trkpt lat="37.67349" lon="-0.73041">
        <ele>7.883568</ele>
        <time>2022-04-27T09:46:02.000Z</time>
      </trkpt>
      <trkpt lat="37.67372" lon="-0.73033">
        <ele>7.872004</ele>
        <time>2022-04-27T09:46:08.000Z</time>
      </trkpt>
      <trkpt lat="37.67402" lon="-0.73033">
        <ele>7.756284</ele>
        <time>2022-04-27T09:46:15.000Z</time>
      </trkpt>
      <trkpt lat="37.67432" lon="-0.73043">
        <ele>7.634078</ele>
        <time>2022-04-27T09:46:22.000Z</time>
      </trkpt>
      <trkpt lat="37.67467" lon="-0.73062">
        <ele>7.485285</ele>
        <time>2022-04-27T09:46:30.000Z</time>
      </trkpt>
      <trkpt lat="37.675" lon="-0.73079">
        <ele>7.347077</ele>
        <time>2022-04-27T09:46:38.000Z</time>
      </trkpt>
      <trkpt lat="37.67536" lon="-0.73097">
        <ele>7.192973</ele>
        <time>2022-04-27T09:46:46.000Z</time>
      </trkpt>
      <trkpt lat="37.67545" lon="-0.73102">
        <ele>7.161182</ele>
        <time>2022-04-27T09:46:48.000Z</time>
      </trkpt>
      <trkpt lat="37.6756" lon="-0.7311">
        <ele>7.121973</ele>
        <time>2022-04-27T09:46:51.000Z</time>
      </trkpt>
      <trkpt lat="37.67581" lon="-0.73121">
        <ele>7.064991</ele>
        <time>2022-04-27T09:46:56.000Z</time>
      </trkpt>
      <trkpt lat="37.67589" lon="-0.73125">
        <ele>7.043697</ele>
        <time>2022-04-27T09:46:58.000Z</time>
      </trkpt>
      <trkpt lat="37.6761" lon="-0.73135">
        <ele>6.987845</ele>
        <time>2022-04-27T09:47:03.000Z</time>
      </trkpt>
      <trkpt lat="37.67627" lon="-0.73145">
        <ele>6.940594</ele>
        <time>2022-04-27T09:47:07.000Z</time>
      </trkpt>
      <trkpt lat="37.67645" lon="-0.73154">
        <ele>6.892958</ele>
        <time>2022-04-27T09:47:11.000Z</time>
      </trkpt>
      <trkpt lat="37.67649" lon="-0.73155">
        <ele>6.88237</ele>
        <time>2022-04-27T09:47:12.000Z</time>
      </trkpt>
      <trkpt lat="37.67657" lon="-0.73157">
        <ele>6.861343</ele>
        <time>2022-04-27T09:47:14.000Z</time>
      </trkpt>
      <trkpt lat="37.67669" lon="-0.73162">
        <ele>6.830798</ele>
        <time>2022-04-27T09:47:18.000Z</time>
      </trkpt>
      <trkpt lat="37.67686" lon="-0.73178">
        <ele>6.778189</ele>
        <time>2022-04-27T09:47:24.000Z</time>
      </trkpt>
      <trkpt lat="37.67712" lon="-0.73209">
        <ele>6.703155</ele>
        <time>2022-04-27T09:47:33.000Z</time>
      </trkpt>
      <trkpt lat="37.67721" lon="-0.73218">
        <ele>6.684659</ele>
        <time>2022-04-27T09:47:37.000Z</time>
      </trkpt>
      <trkpt lat="37.67722" lon="-0.73218">
        <ele>6.683712</ele>
        <time>2022-04-27T09:47:38.000Z</time>
      </trkpt>
      <trkpt lat="37.67722" lon="-0.73218">
        <ele>6.683074</ele>
        <time>2022-04-27T09:47:42.000Z</time>
      </trkpt>
      <trkpt lat="37.67722" lon="-0.73218">
        <ele>6.683074</ele>
        <time>2022-04-27T09:47:51.000Z</time>
      </trkpt>
      <trkpt lat="37.67722" lon="-0.73218">
        <ele>6.683074</ele>
        <time>2022-04-27T09:48:05.000Z</time>
      </trkpt>
      <trkpt lat="37.67722" lon="-0.73218">
        <ele>6.683074</ele>
        <time>2022-04-27T09:48:08.000Z</time>
      </trkpt>
      <trkpt lat="37.67722" lon="-0.73218">
        <ele>6.683074</ele>
        <time>2022-04-27T09:48:11.000Z</time>
      </trkpt>
      <trkpt lat="37.67722" lon="-0.73218">
        <ele>6.682874</ele>
        <time>2022-04-27T09:48:15.000Z</time>
      </trkpt>
      <trkpt lat="37.67722" lon="-0.73219">
        <ele>6.682582</ele>
        <time>2022-04-27T09:48:16.000Z</time>
      </trkpt>
      <trkpt lat="37.67724" lon="-0.7322">
        <ele>6.679458</ele>
        <time>2022-04-27T09:48:17.000Z</time>
      </trkpt>
      <trkpt lat="37.67735" lon="-0.73235">
        <ele>6.653541</ele>
        <time>2022-04-27T09:48:23.000Z</time>
      </trkpt>
      <trkpt lat="37.67747" lon="-0.73251">
        <ele>6.627182</ele>
        <time>2022-04-27T09:48:29.000Z</time>
      </trkpt>
      <trkpt lat="37.67758" lon="-0.73265">
        <ele>6.601947</ele>
        <time>2022-04-27T09:48:37.000Z</time>
      </trkpt>
      <trkpt lat="37.67759" lon="-0.73265">
        <ele>6.600034</ele>
        <time>2022-04-27T09:48:38.000Z</time>
      </trkpt>
      <trkpt lat="37.6776" lon="-0.73261">
        <ele>6.595166</ele>
        <time>2022-04-27T09:48:40.000Z</time>
      </trkpt>
      <trkpt lat="37.67759" lon="-0.73259">
        <ele>6.592444</ele>
        <time>2022-04-27T09:48:41.000Z</time>
      </trkpt>
      <trkpt lat="37.67757" lon="-0.73257">
        <ele>6.588543</ele>
        <time>2022-04-27T09:48:42.000Z</time>
      </trkpt>
      <trkpt lat="37.67752" lon="-0.73254">
        <ele>6.580277</ele>
        <time>2022-04-27T09:48:44.000Z</time>
      </trkpt>
      <trkpt lat="37.67747" lon="-0.73244">
        <ele>6.565305</ele>
        <time>2022-04-27T09:48:47.000Z</time>
      </trkpt>
      <trkpt lat="37.67746" lon="-0.73239">
        <ele>6.558923</ele>
        <time>2022-04-27T09:48:48.000Z</time>
      </trkpt>
      <trkpt lat="37.67748" lon="-0.73213">
        <ele>6.527418</ele>
        <time>2022-04-27T09:48:53.000Z</time>
      </trkpt>
      <trkpt lat="37.67748" lon="-0.73185">
        <ele>6.492384</ele>
        <time>2022-04-27T09:48:59.000Z</time>
      </trkpt>
      <trkpt lat="37.67748" lon="-0.73165">
        <ele>6.467875</ele>
        <time>2022-04-27T09:49:04.000Z</time>
      </trkpt>
      <trkpt lat="37.67749" lon="-0.73147">
        <ele>6.445683</ele>
        <time>2022-04-27T09:49:10.000Z</time>
      </trkpt>
      <trkpt lat="37.67752" lon="-0.73136">
        <ele>6.464586</ele>
        <time>2022-04-27T09:49:15.000Z</time>
      </trkpt>
      <trkpt lat="37.67752" lon="-0.73137">
        <ele>6.465398</ele>
        <time>2022-04-27T09:49:18.000Z</time>
      </trkpt>
      <trkpt lat="37.67752" lon="-0.73136">
        <ele>6.466264</ele>
        <time>2022-04-27T09:49:25.000Z</time>
      </trkpt>
      <trkpt lat="37.67751" lon="-0.73135">
        <ele>6.468507</ele>
        <time>2022-04-27T09:49:31.000Z</time>
      </trkpt>
      <trkpt lat="37.67751" lon="-0.73135">
        <ele>6.468507</ele>
        <time>2022-04-27T09:49:37.000Z</time>
      </trkpt>
      <trkpt lat="37.67751" lon="-0.73135">
        <ele>6.468507</ele>
        <time>2022-04-27T09:49:39.000Z</time>
      </trkpt>
      <trkpt lat="37.67751" lon="-0.73135">
        <ele>6.468507</ele>
        <time>2022-04-27T09:49:41.000Z</time>
      </trkpt>
      <trkpt lat="37.67751" lon="-0.73135">
        <ele>6.468674</ele>
        <time>2022-04-27T09:50:05.000Z</time>
      </trkpt>
      <trkpt lat="37.67751" lon="-0.73135">
        <ele>6.468674</ele>
        <time>2022-04-27T09:50:14.000Z</time>
      </trkpt>
      <trkpt lat="37.67752" lon="-0.73135">
        <ele>6.469333</ele>
        <time>2022-04-27T09:50:21.000Z</time>
      </trkpt>
      <trkpt lat="37.67752" lon="-0.73135">
        <ele>6.469333</ele>
        <time>2022-04-27T09:50:22.000Z</time>
      </trkpt>
      <trkpt lat="37.67752" lon="-0.73135">
        <ele>6.469333</ele>
        <time>2022-04-27T09:50:30.000Z</time>
      </trkpt>
      <trkpt lat="37.67752" lon="-0.73136">
        <ele>6.470685</ele>
        <time>2022-04-27T09:50:40.000Z</time>
      </trkpt>
      <trkpt lat="37.67752" lon="-0.73136">
        <ele>6.470685</ele>
        <time>2022-04-27T09:50:54.000Z</time>
      </trkpt>
      <trkpt lat="37.67752" lon="-0.73136">
        <ele>6.471142</ele>
        <time>2022-04-27T09:51:05.000Z</time>
      </trkpt>
      <trkpt lat="37.67752" lon="-0.73135">
        <ele>6.47131</ele>
        <time>2022-04-27T09:51:38.000Z</time>
      </trkpt>
      <trkpt lat="37.67752" lon="-0.73135">
        <ele>6.472669</ele>
        <time>2022-04-27T09:51:45.000Z</time>
      </trkpt>
      <trkpt lat="37.67752" lon="-0.73135">
        <ele>6.472669</ele>
        <time>2022-04-27T09:51:48.000Z</time>
      </trkpt>
      <trkpt lat="37.67752" lon="-0.73135">
        <ele>6.47294</ele>
        <time>2022-04-27T09:52:04.000Z</time>
      </trkpt>
      <trkpt lat="37.67752" lon="-0.73135">
        <ele>6.47321</ele>
        <time>2022-04-27T09:52:07.000Z</time>
      </trkpt>
      <trkpt lat="37.67754" lon="-0.73138">
        <ele>6.480336</ele>
        <time>2022-04-27T09:52:10.000Z</time>
      </trkpt>
      <trkpt lat="37.67758" lon="-0.73142">
        <ele>6.490615</ele>
        <time>2022-04-27T09:52:14.000Z</time>
      </trkpt>
      <trkpt lat="37.67761" lon="-0.73142">
        <ele>6.498297</ele>
        <time>2022-04-27T09:52:16.000Z</time>
      </trkpt>
      <trkpt lat="37.67772" lon="-0.73146">
        <ele>6.521827</ele>
        <time>2022-04-27T09:52:21.000Z</time>
      </trkpt>
      <trkpt lat="37.67787" lon="-0.73155">
        <ele>6.557948</ele>
        <time>2022-04-27T09:52:26.000Z</time>
      </trkpt>
      <trkpt lat="37.67808" lon="-0.73164">
        <ele>6.60453</ele>
        <time>2022-04-27T09:52:33.000Z</time>
      </trkpt>
      <trkpt lat="37.67837" lon="-0.73178">
        <ele>6.669373</ele>
        <time>2022-04-27T09:52:41.000Z</time>
      </trkpt>
      <trkpt lat="37.67858" lon="-0.73185">
        <ele>6.716729</ele>
        <time>2022-04-27T09:52:48.000Z</time>
      </trkpt>
      <trkpt lat="37.67865" lon="-0.73188">
        <ele>6.732064</ele>
        <time>2022-04-27T09:52:50.000Z</time>
      </trkpt>
      <trkpt lat="37.67889" lon="-0.732">
        <ele>6.787664</ele>
        <time>2022-04-27T09:52:58.000Z</time>
      </trkpt>
      <trkpt lat="37.67903" lon="-0.73208">
        <ele>6.818981</ele>
        <time>2022-04-27T09:53:03.000Z</time>
      </trkpt>
      <trkpt lat="37.67908" lon="-0.7321">
        <ele>6.82288</ele>
        <time>2022-04-27T09:53:05.000Z</time>
      </trkpt>
      <trkpt lat="37.67927" lon="-0.73216">
        <ele>6.786491</ele>
        <time>2022-04-27T09:53:12.000Z</time>
      </trkpt>
      <trkpt lat="37.67951" lon="-0.73225">
        <ele>6.736323</ele>
        <time>2022-04-27T09:53:22.000Z</time>
      </trkpt>
      <trkpt lat="37.6797" lon="-0.73229">
        <ele>6.700573</ele>
        <time>2022-04-27T09:53:30.000Z</time>
      </trkpt>
      <trkpt lat="37.67979" lon="-0.73239">
        <ele>6.676633</ele>
        <time>2022-04-27T09:53:35.000Z</time>
      </trkpt>
      <trkpt lat="37.67983" lon="-0.73248">
        <ele>6.660759</ele>
        <time>2022-04-27T09:53:40.000Z</time>
      </trkpt>
      <trkpt lat="37.67982" lon="-0.73251">
        <ele>6.65689</ele>
        <time>2022-04-27T09:53:41.000Z</time>
      </trkpt>
      <trkpt lat="37.67979" lon="-0.73261">
        <ele>6.639778</ele>
        <time>2022-04-27T09:53:45.000Z</time>
      </trkpt>
      <trkpt lat="37.67976" lon="-0.7327">
        <ele>6.62421</ele>
        <time>2022-04-27T09:53:48.000Z</time>
      </trkpt>
      <trkpt lat="37.67968" lon="-0.73285">
        <ele>6.596164</ele>
        <time>2022-04-27T09:53:53.000Z</time>
      </trkpt>
      <trkpt lat="37.6796" lon="-0.73297">
        <ele>6.572282</ele>
        <time>2022-04-27T09:53:57.000Z</time>
      </trkpt>
      <trkpt lat="37.67956" lon="-0.73297">
        <ele>6.565863</ele>
        <time>2022-04-27T09:53:58.000Z</time>
      </trkpt>
      <trkpt lat="37.67943" lon="-0.73291">
        <ele>6.538664</ele>
        <time>2022-04-27T09:54:02.000Z</time>
      </trkpt>
      <trkpt lat="37.6794" lon="-0.7329">
        <ele>6.532408</ele>
        <time>2022-04-27T09:54:03.000Z</time>
      </trkpt>
      <trkpt lat="37.67926" lon="-0.73286">
        <ele>6.504523</ele>
        <time>2022-04-27T09:54:09.000Z</time>
      </trkpt>
      <trkpt lat="37.67921" lon="-0.73294">
        <ele>6.488689</ele>
        <time>2022-04-27T09:54:12.000Z</time>
      </trkpt>
      <trkpt lat="37.67919" lon="-0.73298">
        <ele>6.482245</ele>
        <time>2022-04-27T09:54:13.000Z</time>
      </trkpt>
      <trkpt lat="37.67917" lon="-0.73322">
        <ele>6.479211</ele>
        <time>2022-04-27T09:54:18.000Z</time>
      </trkpt>
      <trkpt lat="37.67916" lon="-0.73327">
        <ele>6.479627</ele>
        <time>2022-04-27T09:54:19.000Z</time>
      </trkpt>
      <trkpt lat="37.67913" lon="-0.73337">
        <ele>6.480436</ele>
        <time>2022-04-27T09:54:21.000Z</time>
      </trkpt>
      <trkpt lat="37.67912" lon="-0.73342">
        <ele>6.480796</ele>
        <time>2022-04-27T09:54:22.000Z</time>
      </trkpt>
      <trkpt lat="37.67911" lon="-0.73349">
        <ele>6.481365</ele>
        <time>2022-04-27T09:54:24.000Z</time>
      </trkpt>
      <trkpt lat="37.67914" lon="-0.73357">
        <ele>6.482142</ele>
        <time>2022-04-27T09:54:27.000Z</time>
      </trkpt>
      <trkpt lat="37.67917" lon="-0.73359">
        <ele>6.482382</ele>
        <time>2022-04-27T09:54:28.000Z</time>
      </trkpt>
      <trkpt lat="37.67944" lon="-0.73374">
        <ele>6.485328</ele>
        <time>2022-04-27T09:54:37.000Z</time>
      </trkpt>
      <trkpt lat="37.67958" lon="-0.73384">
        <ele>6.486966</ele>
        <time>2022-04-27T09:54:42.000Z</time>
      </trkpt>
      <trkpt lat="37.67965" lon="-0.73388">
        <ele>6.487658</ele>
        <time>2022-04-27T09:54:44.000Z</time>
      </trkpt>
      <trkpt lat="37.67988" lon="-0.734">
        <ele>6.490142</ele>
        <time>2022-04-27T09:54:52.000Z</time>
      </trkpt>
      <trkpt lat="37.68001" lon="-0.73406">
        <ele>6.49152</ele>
        <time>2022-04-27T09:54:56.000Z</time>
      </trkpt>
      <trkpt lat="37.68012" lon="-0.73412">
        <ele>6.492655</ele>
        <time>2022-04-27T09:55:00.000Z</time>
      </trkpt>
      <trkpt lat="37.68015" lon="-0.73413">
        <ele>6.49298</ele>
        <time>2022-04-27T09:55:01.000Z</time>
      </trkpt>
      <trkpt lat="37.68018" lon="-0.73415">
        <ele>6.493284</ele>
        <time>2022-04-27T09:55:02.000Z</time>
      </trkpt>
      <trkpt lat="37.6802" lon="-0.73416">
        <ele>6.493581</ele>
        <time>2022-04-27T09:55:03.000Z</time>
      </trkpt>
      <trkpt lat="37.68031" lon="-0.73421">
        <ele>6.494719</ele>
        <time>2022-04-27T09:55:07.000Z</time>
      </trkpt>
      <trkpt lat="37.68039" lon="-0.73425">
        <ele>6.503893</ele>
        <time>2022-04-27T09:55:10.000Z</time>
      </trkpt>
      <trkpt lat="37.68064" lon="-0.73438">
        <ele>6.598916</ele>
        <time>2022-04-27T09:55:17.000Z</time>
      </trkpt>
      <trkpt lat="37.68088" lon="-0.7345">
        <ele>6.687685</ele>
        <time>2022-04-27T09:55:24.000Z</time>
      </trkpt>
      <trkpt lat="37.68116" lon="-0.7346">
        <ele>6.78939</ele>
        <time>2022-04-27T09:55:32.000Z</time>
      </trkpt>
      <trkpt lat="37.68135" lon="-0.73459">
        <ele>6.85875</ele>
        <time>2022-04-27T09:55:37.000Z</time>
      </trkpt>
      <trkpt lat="37.68148" lon="-0.73457">
        <ele>6.902179</ele>
        <time>2022-04-27T09:55:40.000Z</time>
      </trkpt>
      <trkpt lat="37.68175" lon="-0.73448">
        <ele>7.001373</ele>
        <time>2022-04-27T09:55:47.000Z</time>
      </trkpt>
      <trkpt lat="37.68197" lon="-0.7344">
        <ele>7.08039</ele>
        <time>2022-04-27T09:55:52.000Z</time>
      </trkpt>
      <trkpt lat="37.68205" lon="-0.73437">
        <ele>7.109261</ele>
        <time>2022-04-27T09:55:54.000Z</time>
      </trkpt>
      <trkpt lat="37.68246" lon="-0.73426">
        <ele>7.089927</ele>
        <time>2022-04-27T09:56:03.000Z</time>
      </trkpt>
      <trkpt lat="37.68287" lon="-0.73431">
        <ele>7.052963</ele>
        <time>2022-04-27T09:56:11.000Z</time>
      </trkpt>
      <trkpt lat="37.68323" lon="-0.73445">
        <ele>7.018628</ele>
        <time>2022-04-27T09:56:19.000Z</time>
      </trkpt>
      <trkpt lat="37.68361" lon="-0.73458">
        <ele>6.982633</ele>
        <time>2022-04-27T09:56:28.000Z</time>
      </trkpt>
      <trkpt lat="37.6839" lon="-0.7347">
        <ele>6.966952</ele>
        <time>2022-04-27T09:56:35.000Z</time>
      </trkpt>
      <trkpt lat="37.684" lon="-0.73473">
        <ele>6.9759</ele>
        <time>2022-04-27T09:56:37.000Z</time>
      </trkpt>
      <trkpt lat="37.68413" lon="-0.73478">
        <ele>6.988593</ele>
        <time>2022-04-27T09:56:40.000Z</time>
      </trkpt>
      <trkpt lat="37.68444" lon="-0.7349">
        <ele>7.018351</ele>
        <time>2022-04-27T09:56:47.000Z</time>
      </trkpt>
      <trkpt lat="37.68448" lon="-0.73491">
        <ele>7.021743</ele>
        <time>2022-04-27T09:56:48.000Z</time>
      </trkpt>
      <trkpt lat="37.68481" lon="-0.73503">
        <ele>7.053373</ele>
        <time>2022-04-27T09:56:55.000Z</time>
      </trkpt>
      <trkpt lat="37.68494" lon="-0.73508">
        <ele>7.06587</ele>
        <time>2022-04-27T09:56:58.000Z</time>
      </trkpt>
      <trkpt lat="37.68545" lon="-0.73526">
        <ele>7.114868</ele>
        <time>2022-04-27T09:57:09.000Z</time>
      </trkpt>
      <trkpt lat="37.68586" lon="-0.73544">
        <ele>7.148734</ele>
        <time>2022-04-27T09:57:18.000Z</time>
      </trkpt>
      <trkpt lat="37.68622" lon="-0.73572">
        <ele>7.179664</ele>
        <time>2022-04-27T09:57:27.000Z</time>
      </trkpt>
      <trkpt lat="37.68635" lon="-0.73584">
        <ele>7.191416</ele>
        <time>2022-04-27T09:57:31.000Z</time>
      </trkpt>
      <trkpt lat="37.6865" lon="-0.73597">
        <ele>7.204491</ele>
        <time>2022-04-27T09:57:35.000Z</time>
      </trkpt>
      <trkpt lat="37.68665" lon="-0.7361">
        <ele>7.217566</ele>
        <time>2022-04-27T09:57:39.000Z</time>
      </trkpt>
      <trkpt lat="37.68672" lon="-0.73616">
        <ele>7.223914</ele>
        <time>2022-04-27T09:57:41.000Z</time>
      </trkpt>
      <trkpt lat="37.68696" lon="-0.73636">
        <ele>7.244769</ele>
        <time>2022-04-27T09:57:48.000Z</time>
      </trkpt>
      <trkpt lat="37.68735" lon="-0.73655">
        <ele>7.248098</ele>
        <time>2022-04-27T09:57:57.000Z</time>
      </trkpt>
      <trkpt lat="37.68753" lon="-0.73663">
        <ele>7.241554</ele>
        <time>2022-04-27T09:58:01.000Z</time>
      </trkpt>
      <trkpt lat="37.68775" lon="-0.73671">
        <ele>7.233605</ele>
        <time>2022-04-27T09:58:06.000Z</time>
      </trkpt>
      <trkpt lat="37.68783" lon="-0.73675">
        <ele>7.230245</ele>
        <time>2022-04-27T09:58:08.000Z</time>
      </trkpt>
      <trkpt lat="37.68804" lon="-0.73684">
        <ele>7.222625</ele>
        <time>2022-04-27T09:58:13.000Z</time>
      </trkpt>
      <trkpt lat="37.68842" lon="-0.73698">
        <ele>7.208733</ele>
        <time>2022-04-27T09:58:22.000Z</time>
      </trkpt>
      <trkpt lat="37.68855" lon="-0.73702">
        <ele>7.204049</ele>
        <time>2022-04-27T09:58:25.000Z</time>
      </trkpt>
      <trkpt lat="37.689" lon="-0.73719">
        <ele>7.281629</ele>
        <time>2022-04-27T09:58:36.000Z</time>
      </trkpt>
      <trkpt lat="37.68926" lon="-0.73729">
        <ele>7.408777</ele>
        <time>2022-04-27T09:58:42.000Z</time>
      </trkpt>
      <trkpt lat="37.68942" lon="-0.73735">
        <ele>7.488073</ele>
        <time>2022-04-27T09:58:46.000Z</time>
      </trkpt>
      <trkpt lat="37.68946" lon="-0.73736">
        <ele>7.509755</ele>
        <time>2022-04-27T09:58:47.000Z</time>
      </trkpt>
      <trkpt lat="37.6898" lon="-0.73744">
        <ele>7.672267</ele>
        <time>2022-04-27T09:58:55.000Z</time>
      </trkpt>
      <trkpt lat="37.68992" lon="-0.73745">
        <ele>7.733031</ele>
        <time>2022-04-27T09:58:58.000Z</time>
      </trkpt>
      <trkpt lat="37.69001" lon="-0.73744">
        <ele>7.775145</ele>
        <time>2022-04-27T09:59:00.000Z</time>
      </trkpt>
      <trkpt lat="37.6901" lon="-0.73743">
        <ele>7.81728</ele>
        <time>2022-04-27T09:59:02.000Z</time>
      </trkpt>
      <trkpt lat="37.69014" lon="-0.73743">
        <ele>7.835932</ele>
        <time>2022-04-27T09:59:03.000Z</time>
      </trkpt>
      <trkpt lat="37.6903" lon="-0.73743">
        <ele>7.915808</ele>
        <time>2022-04-27T09:59:07.000Z</time>
      </trkpt>
      <trkpt lat="37.69044" lon="-0.73741">
        <ele>7.981628</ele>
        <time>2022-04-27T09:59:11.000Z</time>
      </trkpt>
      <trkpt lat="37.69047" lon="-0.73741">
        <ele>7.994076</ele>
        <time>2022-04-27T09:59:12.000Z</time>
      </trkpt>
      <trkpt lat="37.69053" lon="-0.7374">
        <ele>8.025798</ele>
        <time>2022-04-27T09:59:17.000Z</time>
      </trkpt>
      <trkpt lat="37.69053" lon="-0.7374">
        <ele>8.025798</ele>
        <time>2022-04-27T09:59:24.000Z</time>
      </trkpt>
      <trkpt lat="37.69053" lon="-0.7374">
        <ele>8.025798</ele>
        <time>2022-04-27T09:59:26.000Z</time>
      </trkpt>
      <trkpt lat="37.69053" lon="-0.7374">
        <ele>8.025798</ele>
        <time>2022-04-27T09:59:28.000Z</time>
      </trkpt>
      <trkpt lat="37.69053" lon="-0.73739">
        <ele>8.027017</ele>
        <time>2022-04-27T09:59:32.000Z</time>
      </trkpt>
      <trkpt lat="37.69052" lon="-0.73739">
        <ele>8.032501</ele>
        <time>2022-04-27T09:59:33.000Z</time>
      </trkpt>
      <trkpt lat="37.69051" lon="-0.73736">
        <ele>8.045671</ele>
        <time>2022-04-27T09:59:35.000Z</time>
      </trkpt>
      <trkpt lat="37.69051" lon="-0.73732">
        <ele>8.052319</ele>
        <time>2022-04-27T09:59:40.000Z</time>
      </trkpt>
      <trkpt lat="37.6905" lon="-0.73732">
        <ele>8.051553</ele>
        <time>2022-04-27T09:59:44.000Z</time>
      </trkpt>
      <trkpt lat="37.6905" lon="-0.73732">
        <ele>8.051553</ele>
        <time>2022-04-27T09:59:46.000Z</time>
      </trkpt>
      <trkpt lat="37.6905" lon="-0.73732">
        <ele>8.051553</ele>
        <time>2022-04-27T09:59:48.000Z</time>
      </trkpt>
      <trkpt lat="37.6905" lon="-0.73732">
        <ele>8.051553</ele>
        <time>2022-04-27T10:00:02.000Z</time>
      </trkpt>
      <trkpt lat="37.6905" lon="-0.73732">
        <ele>8.051553</ele>
        <time>2022-04-27T10:00:09.000Z</time>
      </trkpt>
      <trkpt lat="37.6905" lon="-0.73732">
        <ele>8.051553</ele>
        <time>2022-04-27T10:00:21.000Z</time>
      </trkpt>
      <trkpt lat="37.6905" lon="-0.73732">
        <ele>8.051553</ele>
        <time>2022-04-27T10:00:25.000Z</time>
      </trkpt>
      <trkpt lat="37.6905" lon="-0.73732">
        <ele>8.051446</ele>
        <time>2022-04-27T10:00:37.000Z</time>
      </trkpt>
      <trkpt lat="37.6905" lon="-0.73732">
        <ele>8.051446</ele>
        <time>2022-04-27T10:00:50.000Z</time>
      </trkpt>
      <trkpt lat="37.6905" lon="-0.73733">
        <ele>8.050973</ele>
        <time>2022-04-27T10:01:02.000Z</time>
      </trkpt>
      <trkpt lat="37.6905" lon="-0.73733">
        <ele>8.050973</ele>
        <time>2022-04-27T10:01:08.000Z</time>
      </trkpt>
      <trkpt lat="37.6905" lon="-0.73732">
        <ele>8.050631</ele>
        <time>2022-04-27T10:01:18.000Z</time>
      </trkpt>
      <trkpt lat="37.6905" lon="-0.73732">
        <ele>8.050631</ele>
        <time>2022-04-27T10:01:20.000Z</time>
      </trkpt>
      <trkpt lat="37.6905" lon="-0.73732">
        <ele>8.050631</ele>
        <time>2022-04-27T10:01:23.000Z</time>
      </trkpt>
      <trkpt lat="37.6905" lon="-0.73732">
        <ele>8.050631</ele>
        <time>2022-04-27T10:01:25.000Z</time>
      </trkpt>
      <trkpt lat="37.6905" lon="-0.73732">
        <ele>8.050631</ele>
        <time>2022-04-27T10:01:27.000Z</time>
      </trkpt>
      <trkpt lat="37.6905" lon="-0.73732">
        <ele>8.050631</ele>
        <time>2022-04-27T10:01:29.000Z</time>
      </trkpt>
      <trkpt lat="37.6905" lon="-0.73732">
        <ele>8.050631</ele>
        <time>2022-04-27T10:01:32.000Z</time>
      </trkpt>
      <trkpt lat="37.6905" lon="-0.73732">
        <ele>8.050631</ele>
        <time>2022-04-27T10:01:34.000Z</time>
      </trkpt>
      <trkpt lat="37.6905" lon="-0.73732">
        <ele>8.050631</ele>
        <time>2022-04-27T10:01:40.000Z</time>
      </trkpt>
      <trkpt lat="37.6905" lon="-0.73732">
        <ele>8.050631</ele>
        <time>2022-04-27T10:01:55.000Z</time>
      </trkpt>
      <trkpt lat="37.6905" lon="-0.73732">
        <ele>8.050631</ele>
        <time>2022-04-27T10:01:59.000Z</time>
      </trkpt>
      <trkpt lat="37.6905" lon="-0.73732">
        <ele>8.050631</ele>
        <time>2022-04-27T10:02:08.000Z</time>
      </trkpt>
      <trkpt lat="37.6905" lon="-0.73733">
        <ele>8.050074</ele>
        <time>2022-04-27T10:02:34.000Z</time>
      </trkpt>
      <trkpt lat="37.6905" lon="-0.73733">
        <ele>8.050074</ele>
        <time>2022-04-27T10:02:44.000Z</time>
      </trkpt>
      <trkpt lat="37.69051" lon="-0.73734">
        <ele>8.049175</ele>
        <time>2022-04-27T10:03:04.000Z</time>
      </trkpt>
      <trkpt lat="37.69051" lon="-0.73734">
        <ele>8.048843</ele>
        <time>2022-04-27T10:03:44.000Z</time>
      </trkpt>
      <trkpt lat="37.69051" lon="-0.73734">
        <ele>8.048843</ele>
        <time>2022-04-27T10:03:55.000Z</time>
      </trkpt>
      <trkpt lat="37.69051" lon="-0.73734">
        <ele>8.048843</ele>
        <time>2022-04-27T10:03:57.000Z</time>
      </trkpt>
      <trkpt lat="37.69051" lon="-0.73734">
        <ele>8.048843</ele>
        <time>2022-04-27T10:03:59.000Z</time>
      </trkpt>
      <trkpt lat="37.69051" lon="-0.73734">
        <ele>8.048843</ele>
        <time>2022-04-27T10:04:02.000Z</time>
      </trkpt>
      <trkpt lat="37.69051" lon="-0.73734">
        <ele>8.048843</ele>
        <time>2022-04-27T10:04:13.000Z</time>
      </trkpt>
      <trkpt lat="37.69051" lon="-0.73734">
        <ele>8.048843</ele>
        <time>2022-04-27T10:04:16.000Z</time>
      </trkpt>
      <trkpt lat="37.69051" lon="-0.73734">
        <ele>8.048843</ele>
        <time>2022-04-27T10:04:26.000Z</time>
      </trkpt>
      <trkpt lat="37.69051" lon="-0.73734">
        <ele>8.048776</ele>
        <time>2022-04-27T10:04:33.000Z</time>
      </trkpt>
      <trkpt lat="37.69051" lon="-0.73734">
        <ele>8.048776</ele>
        <time>2022-04-27T10:04:41.000Z</time>
      </trkpt>
      <trkpt lat="37.69051" lon="-0.73734">
        <ele>8.04856</ele>
        <time>2022-04-27T10:04:55.000Z</time>
      </trkpt>
      <trkpt lat="37.69051" lon="-0.73734">
        <ele>8.04856</ele>
        <time>2022-04-27T10:05:03.000Z</time>
      </trkpt>
      <trkpt lat="37.69051" lon="-0.73735">
        <ele>8.048162</ele>
        <time>2022-04-27T10:05:06.000Z</time>
      </trkpt>
      <trkpt lat="37.69051" lon="-0.73735">
        <ele>8.048096</ele>
        <time>2022-04-27T10:05:32.000Z</time>
      </trkpt>
      <trkpt lat="37.69051" lon="-0.73735">
        <ele>8.047781</ele>
        <time>2022-04-27T10:05:39.000Z</time>
      </trkpt>
      <trkpt lat="37.69051" lon="-0.73735">
        <ele>8.047781</ele>
        <time>2022-04-27T10:05:45.000Z</time>
      </trkpt>
      <trkpt lat="37.69051" lon="-0.73735">
        <ele>8.047781</ele>
        <time>2022-04-27T10:06:00.000Z</time>
      </trkpt>
      <trkpt lat="37.69051" lon="-0.73735">
        <ele>8.047781</ele>
        <time>2022-04-27T10:06:11.000Z</time>
      </trkpt>
      <trkpt lat="37.69051" lon="-0.73735">
        <ele>8.047781</ele>
        <time>2022-04-27T10:06:15.000Z</time>
      </trkpt>
      <trkpt lat="37.69051" lon="-0.73735">
        <ele>8.047624</ele>
        <time>2022-04-27T10:06:20.000Z</time>
      </trkpt>
      <trkpt lat="37.6905" lon="-0.73735">
        <ele>8.047153</ele>
        <time>2022-04-27T10:06:29.000Z</time>
      </trkpt>
      <trkpt lat="37.6905" lon="-0.73735">
        <ele>8.047153</ele>
        <time>2022-04-27T10:06:35.000Z</time>
      </trkpt>
      <trkpt lat="37.69049" lon="-0.73732">
        <ele>8.045167</ele>
        <time>2022-04-27T10:06:40.000Z</time>
      </trkpt>
      <trkpt lat="37.69049" lon="-0.73731">
        <ele>8.044702</ele>
        <time>2022-04-27T10:06:51.000Z</time>
      </trkpt>
      <trkpt lat="37.69049" lon="-0.73731">
        <ele>8.044702</ele>
        <time>2022-04-27T10:07:14.000Z</time>
      </trkpt>
      <trkpt lat="37.69049" lon="-0.73731">
        <ele>8.044702</ele>
        <time>2022-04-27T10:07:23.000Z</time>
      </trkpt>
      <trkpt lat="37.69049" lon="-0.73731">
        <ele>8.044702</ele>
        <time>2022-04-27T10:07:34.000Z</time>
      </trkpt>
      <trkpt lat="37.69049" lon="-0.73731">
        <ele>8.044702</ele>
        <time>2022-04-27T10:07:40.000Z</time>
      </trkpt>
      <trkpt lat="37.69049" lon="-0.73731">
        <ele>8.044702</ele>
        <time>2022-04-27T10:07:54.000Z</time>
      </trkpt>
      <trkpt lat="37.69049" lon="-0.73731">
        <ele>8.044702</ele>
        <time>2022-04-27T10:08:09.000Z</time>
      </trkpt>
      <trkpt lat="37.69049" lon="-0.73731">
        <ele>8.044702</ele>
        <time>2022-04-27T10:08:11.000Z</time>
      </trkpt>
      <trkpt lat="37.69049" lon="-0.73731">
        <ele>8.044702</ele>
        <time>2022-04-27T10:08:47.000Z</time>
      </trkpt>
      <trkpt lat="37.69049" lon="-0.73731">
        <ele>8.044702</ele>
        <time>2022-04-27T10:08:53.000Z</time>
      </trkpt>
      <trkpt lat="37.6905" lon="-0.73732">
        <ele>8.043697</ele>
        <time>2022-04-27T10:09:28.000Z</time>
      </trkpt>
      <trkpt lat="37.6905" lon="-0.73732">
        <ele>8.043697</ele>
        <time>2022-04-27T10:09:41.000Z</time>
      </trkpt>
      <trkpt lat="37.6905" lon="-0.73732">
        <ele>8.043697</ele>
        <time>2022-04-27T10:09:49.000Z</time>
      </trkpt>
      <trkpt lat="37.6905" lon="-0.73732">
        <ele>8.043697</ele>
        <time>2022-04-27T10:10:26.000Z</time>
      </trkpt>
      <trkpt lat="37.6905" lon="-0.73732">
        <ele>8.043697</ele>
        <time>2022-04-27T10:10:31.000Z</time>
      </trkpt>
      <trkpt lat="37.6905" lon="-0.73732">
        <ele>8.043697</ele>
        <time>2022-04-27T10:10:54.000Z</time>
      </trkpt>
      <trkpt lat="37.6905" lon="-0.73732">
        <ele>8.043697</ele>
        <time>2022-04-27T10:10:57.000Z</time>
      </trkpt>
      <trkpt lat="37.6905" lon="-0.73732">
        <ele>8.043697</ele>
        <time>2022-04-27T10:11:05.000Z</time>
      </trkpt>
      <trkpt lat="37.6905" lon="-0.73732">
        <ele>8.043697</ele>
        <time>2022-04-27T10:11:15.000Z</time>
      </trkpt>
      <trkpt lat="37.6905" lon="-0.73732">
        <ele>8.043613</ele>
        <time>2022-04-27T10:11:34.000Z</time>
      </trkpt>
      <trkpt lat="37.6905" lon="-0.73732">
        <ele>8.043613</ele>
        <time>2022-04-27T10:11:38.000Z</time>
      </trkpt>
      <trkpt lat="37.6905" lon="-0.73732">
        <ele>8.043613</ele>
        <time>2022-04-27T10:11:44.000Z</time>
      </trkpt>
      <trkpt lat="37.6905" lon="-0.73732">
        <ele>8.043547</ele>
        <time>2022-04-27T10:12:01.000Z</time>
      </trkpt>
      <trkpt lat="37.6905" lon="-0.73732">
        <ele>8.04344</ele>
        <time>2022-04-27T10:12:06.000Z</time>
      </trkpt>
      <trkpt lat="37.6905" lon="-0.73732">
        <ele>8.043259</ele>
        <time>2022-04-27T10:12:09.000Z</time>
      </trkpt>
      <trkpt lat="37.6905" lon="-0.73732">
        <ele>8.043259</ele>
        <time>2022-04-27T10:12:14.000Z</time>
      </trkpt>
      <trkpt lat="37.69049" lon="-0.73732">
        <ele>8.042834</ele>
        <time>2022-04-27T10:12:24.000Z</time>
      </trkpt>
      <trkpt lat="37.69049" lon="-0.73732">
        <ele>8.042768</ele>
        <time>2022-04-27T10:12:35.000Z</time>
      </trkpt>
      <trkpt lat="37.69049" lon="-0.73733">
        <ele>8.04223</ele>
        <time>2022-04-27T10:12:48.000Z</time>
      </trkpt>
      <trkpt lat="37.69049" lon="-0.73733">
        <ele>8.04223</ele>
        <time>2022-04-27T10:13:04.000Z</time>
      </trkpt>
      <trkpt lat="37.69049" lon="-0.73733">
        <ele>8.04223</ele>
        <time>2022-04-27T10:13:07.000Z</time>
      </trkpt>
      <trkpt lat="37.69049" lon="-0.73733">
        <ele>8.04223</ele>
        <time>2022-04-27T10:13:18.000Z</time>
      </trkpt>
      <trkpt lat="37.69049" lon="-0.73733">
        <ele>8.04223</ele>
        <time>2022-04-27T10:13:21.000Z</time>
      </trkpt>
      <trkpt lat="37.69049" lon="-0.73733">
        <ele>8.04223</ele>
        <time>2022-04-27T10:13:45.000Z</time>
      </trkpt>
      <trkpt lat="37.69049" lon="-0.73733">
        <ele>8.04223</ele>
        <time>2022-04-27T10:13:52.000Z</time>
      </trkpt>
      <trkpt lat="37.69049" lon="-0.73733">
        <ele>8.04223</ele>
        <time>2022-04-27T10:14:08.000Z</time>
      </trkpt>
      <trkpt lat="37.69049" lon="-0.73733">
        <ele>8.04223</ele>
        <time>2022-04-27T10:14:26.000Z</time>
      </trkpt>
      <trkpt lat="37.69049" lon="-0.73733">
        <ele>8.04223</ele>
        <time>2022-04-27T10:14:33.000Z</time>
      </trkpt>
      <trkpt lat="37.69049" lon="-0.73733">
        <ele>8.04223</ele>
        <time>2022-04-27T10:14:53.000Z</time>
      </trkpt>
      <trkpt lat="37.69049" lon="-0.73733">
        <ele>8.04223</ele>
        <time>2022-04-27T10:15:07.000Z</time>
      </trkpt>
      <trkpt lat="37.69049" lon="-0.73733">
        <ele>8.042164</ele>
        <time>2022-04-27T10:15:16.000Z</time>
      </trkpt>
      <trkpt lat="37.69049" lon="-0.73734">
        <ele>8.041732</ele>
        <time>2022-04-27T10:15:27.000Z</time>
      </trkpt>
      <trkpt lat="37.69049" lon="-0.73734">
        <ele>8.041732</ele>
        <time>2022-04-27T10:15:46.000Z</time>
      </trkpt>
      <trkpt lat="37.69049" lon="-0.73734">
        <ele>8.041732</ele>
        <time>2022-04-27T10:15:47.000Z</time>
      </trkpt>
      <trkpt lat="37.69049" lon="-0.73734">
        <ele>8.041732</ele>
        <time>2022-04-27T10:15:57.000Z</time>
      </trkpt>
      <trkpt lat="37.69049" lon="-0.73734">
        <ele>8.041732</ele>
        <time>2022-04-27T10:16:03.000Z</time>
      </trkpt>
      <trkpt lat="37.69049" lon="-0.73734">
        <ele>8.041732</ele>
        <time>2022-04-27T10:16:16.000Z</time>
      </trkpt>
      <trkpt lat="37.69049" lon="-0.73734">
        <ele>8.041732</ele>
        <time>2022-04-27T10:16:28.000Z</time>
      </trkpt>
      <trkpt lat="37.69049" lon="-0.73734">
        <ele>8.041732</ele>
        <time>2022-04-27T10:16:38.000Z</time>
      </trkpt>
      <trkpt lat="37.69049" lon="-0.73734">
        <ele>8.041732</ele>
        <time>2022-04-27T10:16:43.000Z</time>
      </trkpt>
      <trkpt lat="37.69049" lon="-0.73734">
        <ele>8.041732</ele>
        <time>2022-04-27T10:16:49.000Z</time>
      </trkpt>
      <trkpt lat="37.69049" lon="-0.73734">
        <ele>8.041732</ele>
        <time>2022-04-27T10:16:54.000Z</time>
      </trkpt>
      <trkpt lat="37.69049" lon="-0.73734">
        <ele>8.041732</ele>
        <time>2022-04-27T10:16:56.000Z</time>
      </trkpt>
      <trkpt lat="37.69049" lon="-0.73734">
        <ele>8.041732</ele>
        <time>2022-04-27T10:17:27.000Z</time>
      </trkpt>
      <trkpt lat="37.69049" lon="-0.73734">
        <ele>8.041732</ele>
        <time>2022-04-27T10:17:34.000Z</time>
      </trkpt>
      <trkpt lat="37.69049" lon="-0.73734">
        <ele>8.041732</ele>
        <time>2022-04-27T10:17:48.000Z</time>
      </trkpt>
      <trkpt lat="37.69049" lon="-0.73734">
        <ele>8.041732</ele>
        <time>2022-04-27T10:18:14.000Z</time>
      </trkpt>
      <trkpt lat="37.69049" lon="-0.73734">
        <ele>8.041732</ele>
        <time>2022-04-27T10:18:16.000Z</time>
      </trkpt>
      <trkpt lat="37.69049" lon="-0.73734">
        <ele>8.041648</ele>
        <time>2022-04-27T10:18:27.000Z</time>
      </trkpt>
      <trkpt lat="37.6905" lon="-0.73733">
        <ele>8.041183</ele>
        <time>2022-04-27T10:18:45.000Z</time>
      </trkpt>
      <trkpt lat="37.6905" lon="-0.73733">
        <ele>8.041183</ele>
        <time>2022-04-27T10:18:47.000Z</time>
      </trkpt>
      <trkpt lat="37.6905" lon="-0.73733">
        <ele>8.041183</ele>
        <time>2022-04-27T10:18:52.000Z</time>
      </trkpt>
      <trkpt lat="37.6905" lon="-0.73733">
        <ele>8.041183</ele>
        <time>2022-04-27T10:18:54.000Z</time>
      </trkpt>
      <trkpt lat="37.6905" lon="-0.73733">
        <ele>8.041183</ele>
        <time>2022-04-27T10:18:57.000Z</time>
      </trkpt>
      <trkpt lat="37.6905" lon="-0.73733">
        <ele>8.041183</ele>
        <time>2022-04-27T10:19:05.000Z</time>
      </trkpt>
      <trkpt lat="37.6905" lon="-0.73733">
        <ele>8.041183</ele>
        <time>2022-04-27T10:19:08.000Z</time>
      </trkpt>
      <trkpt lat="37.6905" lon="-0.73733">
        <ele>8.041183</ele>
        <time>2022-04-27T10:19:11.000Z</time>
      </trkpt>
      <trkpt lat="37.6905" lon="-0.73733">
        <ele>8.040984</ele>
        <time>2022-04-27T10:19:13.000Z</time>
      </trkpt>
      <trkpt lat="37.6905" lon="-0.73733">
        <ele>8.040877</ele>
        <time>2022-04-27T10:19:16.000Z</time>
      </trkpt>
      <trkpt lat="37.6905" lon="-0.73732">
        <ele>8.040545</ele>
        <time>2022-04-27T10:19:23.000Z</time>
      </trkpt>
      <trkpt lat="37.69049" lon="-0.73732">
        <ele>8.040037</ele>
        <time>2022-04-27T10:19:30.000Z</time>
      </trkpt>
      <trkpt lat="37.69049" lon="-0.73732">
        <ele>8.040037</ele>
        <time>2022-04-27T10:19:32.000Z</time>
      </trkpt>
      <trkpt lat="37.69048" lon="-0.73733">
        <ele>8.03886</ele>
        <time>2022-04-27T10:19:59.000Z</time>
      </trkpt>
      <trkpt lat="37.69048" lon="-0.73732">
        <ele>8.038059</ele>
        <time>2022-04-27T10:20:13.000Z</time>
      </trkpt>
      <trkpt lat="37.69048" lon="-0.73732">
        <ele>8.038059</ele>
        <time>2022-04-27T10:20:15.000Z</time>
      </trkpt>
      <trkpt lat="37.69048" lon="-0.73732">
        <ele>8.037952</ele>
        <time>2022-04-27T10:20:17.000Z</time>
      </trkpt>
      <trkpt lat="37.69092" lon="-0.73731">
        <ele>8.001114</ele>
        <time>2022-04-27T10:21:59.000Z</time>
      </trkpt>
      <trkpt lat="37.69082" lon="-0.73744">
        <ele>7.989597</ele>
        <time>2022-04-27T10:22:01.000Z</time>
      </trkpt>
      <trkpt lat="37.69077" lon="-0.73746">
        <ele>7.985376</ele>
        <time>2022-04-27T10:22:02.000Z</time>
      </trkpt>
      <trkpt lat="37.69046" lon="-0.73739">
        <ele>7.959032</ele>
        <time>2022-04-27T10:22:04.000Z</time>
      </trkpt>
      <trkpt lat="37.69033" lon="-0.73735">
        <ele>7.947415</ele>
        <time>2022-04-27T10:22:06.000Z</time>
      </trkpt>
      <trkpt lat="37.6904" lon="-0.73733">
        <ele>7.941623</ele>
        <time>2022-04-27T10:22:15.000Z</time>
      </trkpt>
      <trkpt lat="37.69041" lon="-0.73733">
        <ele>7.940223</ele>
        <time>2022-04-27T10:22:19.000Z</time>
      </trkpt>
      <trkpt lat="37.69042" lon="-0.73733">
        <ele>7.939321</ele>
        <time>2022-04-27T10:22:22.000Z</time>
      </trkpt>
      <trkpt lat="37.69045" lon="-0.73733">
        <ele>7.937123</ele>
        <time>2022-04-27T10:22:26.000Z</time>
      </trkpt>
      <trkpt lat="37.69045" lon="-0.73732">
        <ele>7.936566</ele>
        <time>2022-04-27T10:22:27.000Z</time>
      </trkpt>
      <trkpt lat="37.69045" lon="-0.73731">
        <ele>7.935945</ele>
        <time>2022-04-27T10:22:28.000Z</time>
      </trkpt>
      <trkpt lat="37.69045" lon="-0.7373">
        <ele>7.935317</ele>
        <time>2022-04-27T10:22:29.000Z</time>
      </trkpt>
      <trkpt lat="37.6905" lon="-0.73727">
        <ele>7.930521</ele>
        <time>2022-04-27T10:23:10.000Z</time>
      </trkpt>
      <trkpt lat="37.69049" lon="-0.73732">
        <ele>7.927134</ele>
        <time>2022-04-27T10:23:15.000Z</time>
      </trkpt>
      <trkpt lat="37.69048" lon="-0.73731">
        <ele>7.926385</ele>
        <time>2022-04-27T10:23:18.000Z</time>
      </trkpt>
      <trkpt lat="37.69049" lon="-0.73731">
        <ele>7.925945</ele>
        <time>2022-04-27T10:23:20.000Z</time>
      </trkpt>
      <trkpt lat="37.69049" lon="-0.73732">
        <ele>7.92526</ele>
        <time>2022-04-27T10:23:21.000Z</time>
      </trkpt>
      <trkpt lat="37.69049" lon="-0.73734">
        <ele>7.923526</ele>
        <time>2022-04-27T10:23:25.000Z</time>
      </trkpt>
      <trkpt lat="37.69047" lon="-0.73736">
        <ele>7.921256</ele>
        <time>2022-04-27T10:23:35.000Z</time>
      </trkpt>
      <trkpt lat="37.69047" lon="-0.73737">
        <ele>7.920725</ele>
        <time>2022-04-27T10:23:45.000Z</time>
      </trkpt>
      <trkpt lat="37.69047" lon="-0.73737">
        <ele>7.920641</ele>
        <time>2022-04-27T10:23:51.000Z</time>
      </trkpt>
      <trkpt lat="37.69048" lon="-0.73738">
        <ele>7.91974</ele>
        <time>2022-04-27T10:23:56.000Z</time>
      </trkpt>
      <trkpt lat="37.69048" lon="-0.73739">
        <ele>7.919219</ele>
        <time>2022-04-27T10:24:13.000Z</time>
      </trkpt>
      <trkpt lat="37.69048" lon="-0.73739">
        <ele>7.919219</ele>
        <time>2022-04-27T10:24:14.000Z</time>
      </trkpt>
      <trkpt lat="37.69048" lon="-0.73739">
        <ele>7.919112</ele>
        <time>2022-04-27T10:24:22.000Z</time>
      </trkpt>
      <trkpt lat="37.69047" lon="-0.73739">
        <ele>7.918693</ele>
        <time>2022-04-27T10:24:30.000Z</time>
      </trkpt>
      <trkpt lat="37.69047" lon="-0.73739">
        <ele>7.918427</ele>
        <time>2022-04-27T10:24:36.000Z</time>
      </trkpt>
      <trkpt lat="37.69049" lon="-0.73741">
        <ele>7.916499</ele>
        <time>2022-04-27T10:24:47.000Z</time>
      </trkpt>
      <trkpt lat="37.69051" lon="-0.73743">
        <ele>7.91468</ele>
        <time>2022-04-27T10:24:50.000Z</time>
      </trkpt>
      <trkpt lat="37.69055" lon="-0.73744">
        <ele>7.910764</ele>
        <time>2022-04-27T10:24:52.000Z</time>
      </trkpt>
      <trkpt lat="37.69074" lon="-0.73742">
        <ele>7.880175</ele>
        <time>2022-04-27T10:24:57.000Z</time>
      </trkpt>
      <trkpt lat="37.69104" lon="-0.73742">
        <ele>7.79829</ele>
        <time>2022-04-27T10:25:04.000Z</time>
      </trkpt>
      <trkpt lat="37.6911" lon="-0.73742">
        <ele>7.78445</ele>
        <time>2022-04-27T10:25:05.000Z</time>
      </trkpt>
      <trkpt lat="37.69119" lon="-0.73742">
        <ele>7.758127</ele>
        <time>2022-04-27T10:25:07.000Z</time>
      </trkpt>
      <trkpt lat="37.69134" lon="-0.73744">
        <ele>7.718819</ele>
        <time>2022-04-27T10:25:10.000Z</time>
      </trkpt>
      <trkpt lat="37.69168" lon="-0.73754">
        <ele>7.626528</ele>
        <time>2022-04-27T10:25:17.000Z</time>
      </trkpt>
      <trkpt lat="37.69172" lon="-0.73755">
        <ele>7.615595</ele>
        <time>2022-04-27T10:25:18.000Z</time>
      </trkpt>
      <trkpt lat="37.69181" lon="-0.73755">
        <ele>7.591135</ele>
        <time>2022-04-27T10:25:21.000Z</time>
      </trkpt>
      <trkpt lat="37.69198" lon="-0.73756">
        <ele>7.547138</ele>
        <time>2022-04-27T10:25:27.000Z</time>
      </trkpt>
      <trkpt lat="37.69207" lon="-0.73759">
        <ele>7.52151</ele>
        <time>2022-04-27T10:25:30.000Z</time>
      </trkpt>
      <trkpt lat="37.69229" lon="-0.73766">
        <ele>7.460885</ele>
        <time>2022-04-27T10:25:36.000Z</time>
      </trkpt>
      <trkpt lat="37.69245" lon="-0.73772">
        <ele>7.428428</ele>
        <time>2022-04-27T10:25:40.000Z</time>
      </trkpt>
      <trkpt lat="37.69249" lon="-0.73774">
        <ele>7.435258</ele>
        <time>2022-04-27T10:25:41.000Z</time>
      </trkpt>
      <trkpt lat="37.69273" lon="-0.7378">
        <ele>7.475733</ele>
        <time>2022-04-27T10:25:47.000Z</time>
      </trkpt>
      <trkpt lat="37.6929" lon="-0.73785">
        <ele>7.504588</ele>
        <time>2022-04-27T10:25:51.000Z</time>
      </trkpt>
      <trkpt lat="37.69324" lon="-0.73793">
        <ele>7.561328</ele>
        <time>2022-04-27T10:25:59.000Z</time>
      </trkpt>
      <trkpt lat="37.69366" lon="-0.73805">
        <ele>7.631835</ele>
        <time>2022-04-27T10:26:08.000Z</time>
      </trkpt>
      <trkpt lat="37.69399" lon="-0.73813">
        <ele>7.687642</ele>
        <time>2022-04-27T10:26:15.000Z</time>
      </trkpt>
      <trkpt lat="37.69409" lon="-0.73815">
        <ele>7.704121</ele>
        <time>2022-04-27T10:26:17.000Z</time>
      </trkpt>
      <trkpt lat="37.69427" lon="-0.7382">
        <ele>7.724682</ele>
        <time>2022-04-27T10:26:21.000Z</time>
      </trkpt>
      <trkpt lat="37.69432" lon="-0.73821">
        <ele>7.727086</ele>
        <time>2022-04-27T10:26:22.000Z</time>
      </trkpt>
      <trkpt lat="37.69441" lon="-0.73825">
        <ele>7.731912</ele>
        <time>2022-04-27T10:26:24.000Z</time>
      </trkpt>
      <trkpt lat="37.6947" lon="-0.73845">
        <ele>7.749261</ele>
        <time>2022-04-27T10:26:31.000Z</time>
      </trkpt>
      <trkpt lat="37.69499" lon="-0.73876">
        <ele>7.768931</ele>
        <time>2022-04-27T10:26:39.000Z</time>
      </trkpt>
      <trkpt lat="37.69526" lon="-0.73906">
        <ele>7.787514</ele>
        <time>2022-04-27T10:26:46.000Z</time>
      </trkpt>
      <trkpt lat="37.69548" lon="-0.7393">
        <ele>7.802408</ele>
        <time>2022-04-27T10:26:52.000Z</time>
      </trkpt>
      <trkpt lat="37.69552" lon="-0.73933">
        <ele>7.80481</ele>
        <time>2022-04-27T10:26:53.000Z</time>
      </trkpt>
      <trkpt lat="37.69574" lon="-0.73947">
        <ele>7.822977</ele>
        <time>2022-04-27T10:26:58.000Z</time>
      </trkpt>
      <trkpt lat="37.69583" lon="-0.73952">
        <ele>7.83519</ele>
        <time>2022-04-27T10:27:00.000Z</time>
      </trkpt>
      <trkpt lat="37.69609" lon="-0.73961">
        <ele>7.866436</ele>
        <time>2022-04-27T10:27:05.000Z</time>
      </trkpt>
      <trkpt lat="37.69619" lon="-0.73963">
        <ele>7.878365</ele>
        <time>2022-04-27T10:27:07.000Z</time>
      </trkpt>
      <trkpt lat="37.69667" lon="-0.73978">
        <ele>7.936021</ele>
        <time>2022-04-27T10:27:17.000Z</time>
      </trkpt>
      <trkpt lat="37.697" lon="-0.73988">
        <ele>7.975543</ele>
        <time>2022-04-27T10:27:24.000Z</time>
      </trkpt>
      <trkpt lat="37.69734" lon="-0.73998">
        <ele>8.01682</ele>
        <time>2022-04-27T10:27:31.000Z</time>
      </trkpt>
      <trkpt lat="37.69773" lon="-0.74009">
        <ele>8.085735</ele>
        <time>2022-04-27T10:27:39.000Z</time>
      </trkpt>
      <trkpt lat="37.69778" lon="-0.7401">
        <ele>8.095286</ele>
        <time>2022-04-27T10:27:40.000Z</time>
      </trkpt>
      <trkpt lat="37.69801" lon="-0.7402">
        <ele>8.140812</ele>
        <time>2022-04-27T10:27:45.000Z</time>
      </trkpt>
      <trkpt lat="37.69807" lon="-0.74022">
        <ele>8.151172</ele>
        <time>2022-04-27T10:27:46.000Z</time>
      </trkpt>
      <trkpt lat="37.69828" lon="-0.74027">
        <ele>8.190543</ele>
        <time>2022-04-27T10:27:50.000Z</time>
      </trkpt>
      <trkpt lat="37.69837" lon="-0.74031">
        <ele>8.209344</ele>
        <time>2022-04-27T10:27:52.000Z</time>
      </trkpt>
      <trkpt lat="37.69843" lon="-0.74032">
        <ele>8.21994</ele>
        <time>2022-04-27T10:27:53.000Z</time>
      </trkpt>
      <trkpt lat="37.69859" lon="-0.74034">
        <ele>8.249479</ele>
        <time>2022-04-27T10:27:56.000Z</time>
      </trkpt>
      <trkpt lat="37.69897" lon="-0.74034">
        <ele>8.319259</ele>
        <time>2022-04-27T10:28:04.000Z</time>
      </trkpt>
      <trkpt lat="37.69933" lon="-0.74033">
        <ele>8.352548</ele>
        <time>2022-04-27T10:28:12.000Z</time>
      </trkpt>
      <trkpt lat="37.69955" lon="-0.74032">
        <ele>8.350121</ele>
        <time>2022-04-27T10:28:17.000Z</time>
      </trkpt>
      <trkpt lat="37.69965" lon="-0.74031">
        <ele>8.349105</ele>
        <time>2022-04-27T10:28:19.000Z</time>
      </trkpt>
      <trkpt lat="37.69994" lon="-0.7403">
        <ele>8.34598</ele>
        <time>2022-04-27T10:28:25.000Z</time>
      </trkpt>
      <trkpt lat="37.70014" lon="-0.74031">
        <ele>8.34382</ele>
        <time>2022-04-27T10:28:29.000Z</time>
      </trkpt>
      <trkpt lat="37.70034" lon="-0.74034">
        <ele>8.341611</ele>
        <time>2022-04-27T10:28:33.000Z</time>
      </trkpt>
      <trkpt lat="37.7005" lon="-0.74038">
        <ele>8.339899</ele>
        <time>2022-04-27T10:28:36.000Z</time>
      </trkpt>
      <trkpt lat="37.70092" lon="-0.74047">
        <ele>8.335361</ele>
        <time>2022-04-27T10:28:44.000Z</time>
      </trkpt>
      <trkpt lat="37.70131" lon="-0.74055">
        <ele>8.283161</ele>
        <time>2022-04-27T10:28:52.000Z</time>
      </trkpt>
      <trkpt lat="37.70163" lon="-0.7406">
        <ele>8.236979</ele>
        <time>2022-04-27T10:28:59.000Z</time>
      </trkpt>
      <trkpt lat="37.70168" lon="-0.74061">
        <ele>8.229592</ele>
        <time>2022-04-27T10:29:00.000Z</time>
      </trkpt>
      <trkpt lat="37.70173" lon="-0.74062">
        <ele>8.222558</ele>
        <time>2022-04-27T10:29:01.000Z</time>
      </trkpt>
      <trkpt lat="37.70196" lon="-0.74068">
        <ele>8.189231</ele>
        <time>2022-04-27T10:29:06.000Z</time>
      </trkpt>
      <trkpt lat="37.70225" lon="-0.74075">
        <ele>8.145852</ele>
        <time>2022-04-27T10:29:12.000Z</time>
      </trkpt>
      <trkpt lat="37.70231" lon="-0.74076">
        <ele>8.138464</ele>
        <time>2022-04-27T10:29:13.000Z</time>
      </trkpt>
      <trkpt lat="37.70285" lon="-0.74088">
        <ele>8.088649</ele>
        <time>2022-04-27T10:29:24.000Z</time>
      </trkpt>
      <trkpt lat="37.7029" lon="-0.74089">
        <ele>8.092538</ele>
        <time>2022-04-27T10:29:25.000Z</time>
      </trkpt>
      <trkpt lat="37.703" lon="-0.74091">
        <ele>8.100297</ele>
        <time>2022-04-27T10:29:27.000Z</time>
      </trkpt>
      <trkpt lat="37.70315" lon="-0.74096">
        <ele>8.111828</ele>
        <time>2022-04-27T10:29:30.000Z</time>
      </trkpt>
      <trkpt lat="37.7032" lon="-0.74097">
        <ele>8.115765</ele>
        <time>2022-04-27T10:29:31.000Z</time>
      </trkpt>
      <trkpt lat="37.7033" lon="-0.74102">
        <ele>8.123899</ele>
        <time>2022-04-27T10:29:33.000Z</time>
      </trkpt>
      <trkpt lat="37.70351" lon="-0.74114">
        <ele>8.141744</ele>
        <time>2022-04-27T10:29:37.000Z</time>
      </trkpt>
      <trkpt lat="37.70356" lon="-0.74118">
        <ele>8.146225</ele>
        <time>2022-04-27T10:29:38.000Z</time>
      </trkpt>
      <trkpt lat="37.70371" lon="-0.74128">
        <ele>8.159272</ele>
        <time>2022-04-27T10:29:41.000Z</time>
      </trkpt>
      <trkpt lat="37.70386" lon="-0.74139">
        <ele>8.172734</ele>
        <time>2022-04-27T10:29:44.000Z</time>
      </trkpt>
      <trkpt lat="37.7041" lon="-0.74155">
        <ele>8.19324</ele>
        <time>2022-04-27T10:29:49.000Z</time>
      </trkpt>
      <trkpt lat="37.70436" lon="-0.74172">
        <ele>8.216277</ele>
        <time>2022-04-27T10:29:55.000Z</time>
      </trkpt>
      <trkpt lat="37.70465" lon="-0.74182">
        <ele>8.223133</ele>
        <time>2022-04-27T10:30:02.000Z</time>
      </trkpt>
      <trkpt lat="37.705" lon="-0.74194">
        <ele>8.23151</ele>
        <time>2022-04-27T10:30:10.000Z</time>
      </trkpt>
      <trkpt lat="37.70554" lon="-0.74212">
        <ele>8.244355</ele>
        <time>2022-04-27T10:30:22.000Z</time>
      </trkpt>
      <trkpt lat="37.70577" lon="-0.74219">
        <ele>8.249837</ele>
        <time>2022-04-27T10:30:27.000Z</time>
      </trkpt>
      <trkpt lat="37.70588" lon="-0.74222">
        <ele>8.252256</ele>
        <time>2022-04-27T10:30:29.000Z</time>
      </trkpt>
      <trkpt lat="37.70628" lon="-0.74232">
        <ele>8.25513</ele>
        <time>2022-04-27T10:30:37.000Z</time>
      </trkpt>
      <trkpt lat="37.70635" lon="-0.74233">
        <ele>8.254215</ele>
        <time>2022-04-27T10:30:38.000Z</time>
      </trkpt>
      <trkpt lat="37.70645" lon="-0.74234">
        <ele>8.252784</ele>
        <time>2022-04-27T10:30:40.000Z</time>
      </trkpt>
      <trkpt lat="37.70653" lon="-0.74236">
        <ele>8.251538</ele>
        <time>2022-04-27T10:30:42.000Z</time>
      </trkpt>
      <trkpt lat="37.70669" lon="-0.74239">
        <ele>8.249203</ele>
        <time>2022-04-27T10:30:45.000Z</time>
      </trkpt>
      <trkpt lat="37.70683" lon="-0.74243">
        <ele>8.247057</ele>
        <time>2022-04-27T10:30:48.000Z</time>
      </trkpt>
      <trkpt lat="37.70722" lon="-0.74254">
        <ele>8.24131</ele>
        <time>2022-04-27T10:30:56.000Z</time>
      </trkpt>
      <trkpt lat="37.70732" lon="-0.74257">
        <ele>8.239894</ele>
        <time>2022-04-27T10:30:58.000Z</time>
      </trkpt>
      <trkpt lat="37.70741" lon="-0.74258">
        <ele>8.238579</ele>
        <time>2022-04-27T10:31:00.000Z</time>
      </trkpt>
      <trkpt lat="37.70745" lon="-0.74258">
        <ele>8.237971</ele>
        <time>2022-04-27T10:31:01.000Z</time>
      </trkpt>
      <trkpt lat="37.70753" lon="-0.74257">
        <ele>8.236824</ele>
        <time>2022-04-27T10:31:05.000Z</time>
      </trkpt>
      <trkpt lat="37.70753" lon="-0.74257">
        <ele>8.236824</ele>
        <time>2022-04-27T10:31:14.000Z</time>
      </trkpt>
      <trkpt lat="37.70753" lon="-0.74257">
        <ele>8.236795</ele>
        <time>2022-04-27T10:31:25.000Z</time>
      </trkpt>
      <trkpt lat="37.70766" lon="-0.74258">
        <ele>8.235</ele>
        <time>2022-04-27T10:31:31.000Z</time>
      </trkpt>
      <trkpt lat="37.70768" lon="-0.74258">
        <ele>8.234689</ele>
        <time>2022-04-27T10:31:32.000Z</time>
      </trkpt>
      <trkpt lat="37.70771" lon="-0.7426">
        <ele>8.234165</ele>
        <time>2022-04-27T10:31:36.000Z</time>
      </trkpt>
      <trkpt lat="37.70771" lon="-0.74256">
        <ele>8.23375</ele>
        <time>2022-04-27T10:31:41.000Z</time>
      </trkpt>
      <trkpt lat="37.70771" lon="-0.74251">
        <ele>8.233174</ele>
        <time>2022-04-27T10:31:43.000Z</time>
      </trkpt>
      <trkpt lat="37.70769" lon="-0.74229">
        <ele>8.205979</ele>
        <time>2022-04-27T10:31:49.000Z</time>
      </trkpt>
      <trkpt lat="37.70768" lon="-0.74212">
        <ele>8.158844</ele>
        <time>2022-04-27T10:31:53.000Z</time>
      </trkpt>
      <trkpt lat="37.7077" lon="-0.74199">
        <ele>8.122337</ele>
        <time>2022-04-27T10:31:56.000Z</time>
      </trkpt>
      <trkpt lat="37.7077" lon="-0.74167">
        <ele>8.037168</ele>
        <time>2022-04-27T10:32:02.000Z</time>
      </trkpt>
      <trkpt lat="37.70774" lon="-0.74135">
        <ele>7.946747</ele>
        <time>2022-04-27T10:32:09.000Z</time>
      </trkpt>
      <trkpt lat="37.70776" lon="-0.7412">
        <ele>7.907079</ele>
        <time>2022-04-27T10:32:14.000Z</time>
      </trkpt>
      <trkpt lat="37.70776" lon="-0.74119">
        <ele>7.904007</ele>
        <time>2022-04-27T10:32:19.000Z</time>
      </trkpt>
      <trkpt lat="37.70776" lon="-0.74119">
        <ele>7.904007</ele>
        <time>2022-04-27T10:32:20.000Z</time>
      </trkpt>
      <trkpt lat="37.70776" lon="-0.74119">
        <ele>7.904007</ele>
        <time>2022-04-27T10:32:23.000Z</time>
      </trkpt>
      <trkpt lat="37.70776" lon="-0.74119">
        <ele>7.904007</ele>
        <time>2022-04-27T10:32:26.000Z</time>
      </trkpt>
      <trkpt lat="37.70776" lon="-0.74119">
        <ele>7.904007</ele>
        <time>2022-04-27T10:32:29.000Z</time>
      </trkpt>
      <trkpt lat="37.70776" lon="-0.74119">
        <ele>7.904007</ele>
        <time>2022-04-27T10:32:34.000Z</time>
      </trkpt>
      <trkpt lat="37.70776" lon="-0.74119">
        <ele>7.903664</ele>
        <time>2022-04-27T10:32:45.000Z</time>
      </trkpt>
      <trkpt lat="37.70776" lon="-0.74119">
        <ele>7.903664</ele>
        <time>2022-04-27T10:32:48.000Z</time>
      </trkpt>
      <trkpt lat="37.70776" lon="-0.74119">
        <ele>7.90302</ele>
        <time>2022-04-27T10:32:51.000Z</time>
      </trkpt>
      <trkpt lat="37.70776" lon="-0.7411">
        <ele>7.880161</ele>
        <time>2022-04-27T10:32:54.000Z</time>
      </trkpt>
      <trkpt lat="37.70777" lon="-0.74103">
        <ele>7.858603</ele>
        <time>2022-04-27T10:32:59.000Z</time>
      </trkpt>
      <trkpt lat="37.70777" lon="-0.74103">
        <ele>7.857725</ele>
        <time>2022-04-27T10:33:06.000Z</time>
      </trkpt>
      <trkpt lat="37.70777" lon="-0.74103">
        <ele>7.857725</ele>
        <time>2022-04-27T10:33:31.000Z</time>
      </trkpt>
      <trkpt lat="37.70777" lon="-0.74103">
        <ele>7.857725</ele>
        <time>2022-04-27T10:33:53.000Z</time>
      </trkpt>
      <trkpt lat="37.70777" lon="-0.74103">
        <ele>7.857725</ele>
        <time>2022-04-27T10:33:54.000Z</time>
      </trkpt>
      <trkpt lat="37.70777" lon="-0.74103">
        <ele>7.857725</ele>
        <time>2022-04-27T10:34:02.000Z</time>
      </trkpt>
      <trkpt lat="37.70777" lon="-0.74103">
        <ele>7.856986</ele>
        <time>2022-04-27T10:34:23.000Z</time>
      </trkpt>
      <trkpt lat="37.70777" lon="-0.74103">
        <ele>7.856547</ele>
        <time>2022-04-27T10:34:26.000Z</time>
      </trkpt>
      <trkpt lat="37.70777" lon="-0.74103">
        <ele>7.855187</ele>
        <time>2022-04-27T10:34:38.000Z</time>
      </trkpt>
      <trkpt lat="37.70777" lon="-0.74113">
        <ele>7.828984</ele>
        <time>2022-04-27T10:34:41.000Z</time>
      </trkpt>
      <trkpt lat="37.70775" lon="-0.74129">
        <ele>7.78501</ele>
        <time>2022-04-27T10:34:45.000Z</time>
      </trkpt>
      <trkpt lat="37.70774" lon="-0.74136">
        <ele>7.7641</ele>
        <time>2022-04-27T10:34:47.000Z</time>
      </trkpt>
      <trkpt lat="37.70773" lon="-0.74152">
        <ele>7.720098</ele>
        <time>2022-04-27T10:34:51.000Z</time>
      </trkpt>
      <trkpt lat="37.70773" lon="-0.74161">
        <ele>7.696415</ele>
        <time>2022-04-27T10:34:53.000Z</time>
      </trkpt>
      <trkpt lat="37.70772" lon="-0.74171">
        <ele>7.670013</ele>
        <time>2022-04-27T10:34:55.000Z</time>
      </trkpt>
      <trkpt lat="37.70772" lon="-0.74203">
        <ele>7.632531</ele>
        <time>2022-04-27T10:35:01.000Z</time>
      </trkpt>
      <trkpt lat="37.70772" lon="-0.74214">
        <ele>7.65281</ele>
        <time>2022-04-27T10:35:03.000Z</time>
      </trkpt>
      <trkpt lat="37.70771" lon="-0.74248">
        <ele>7.711919</ele>
        <time>2022-04-27T10:35:09.000Z</time>
      </trkpt>
      <trkpt lat="37.70771" lon="-0.74257">
        <ele>7.72824</ele>
        <time>2022-04-27T10:35:11.000Z</time>
      </trkpt>
      <trkpt lat="37.70771" lon="-0.74262">
        <ele>7.736635</ele>
        <time>2022-04-27T10:35:13.000Z</time>
      </trkpt>
      <trkpt lat="37.70769" lon="-0.74262">
        <ele>7.740199</ele>
        <time>2022-04-27T10:35:14.000Z</time>
      </trkpt>
      <trkpt lat="37.70756" lon="-0.74262">
        <ele>7.769635</ele>
        <time>2022-04-27T10:35:19.000Z</time>
      </trkpt>
      <trkpt lat="37.7074" lon="-0.74262">
        <ele>7.805751</ele>
        <time>2022-04-27T10:35:23.000Z</time>
      </trkpt>
      <trkpt lat="37.70722" lon="-0.74259">
        <ele>7.845876</ele>
        <time>2022-04-27T10:35:27.000Z</time>
      </trkpt>
      <trkpt lat="37.70714" lon="-0.74256">
        <ele>7.865547</ele>
        <time>2022-04-27T10:35:29.000Z</time>
      </trkpt>
      <trkpt lat="37.70667" lon="-0.74242">
        <ele>7.972053</ele>
        <time>2022-04-27T10:35:39.000Z</time>
      </trkpt>
      <trkpt lat="37.7063" lon="-0.74233">
        <ele>8.064031</ele>
        <time>2022-04-27T10:35:47.000Z</time>
      </trkpt>
      <trkpt lat="37.70625" lon="-0.74233">
        <ele>8.07639</ele>
        <time>2022-04-27T10:35:48.000Z</time>
      </trkpt>
      <trkpt lat="37.70607" lon="-0.74227">
        <ele>8.12484</ele>
        <time>2022-04-27T10:35:52.000Z</time>
      </trkpt>
      <trkpt lat="37.70565" lon="-0.74214">
        <ele>8.238732</ele>
        <time>2022-04-27T10:36:01.000Z</time>
      </trkpt>
      <trkpt lat="37.70524" lon="-0.74202">
        <ele>8.348932</ele>
        <time>2022-04-27T10:36:09.000Z</time>
      </trkpt>
      <trkpt lat="37.7052" lon="-0.74201">
        <ele>8.35842</ele>
        <time>2022-04-27T10:36:10.000Z</time>
      </trkpt>
      <trkpt lat="37.70496" lon="-0.74193">
        <ele>8.424825</ele>
        <time>2022-04-27T10:36:15.000Z</time>
      </trkpt>
      <trkpt lat="37.70482" lon="-0.74188">
        <ele>8.463252</ele>
        <time>2022-04-27T10:36:18.000Z</time>
      </trkpt>
      <trkpt lat="37.70425" lon="-0.74168">
        <ele>8.479363</ele>
        <time>2022-04-27T10:36:29.000Z</time>
      </trkpt>
      <trkpt lat="37.70416" lon="-0.74162">
        <ele>8.478232</ele>
        <time>2022-04-27T10:36:31.000Z</time>
      </trkpt>
      <trkpt lat="37.70388" lon="-0.74142">
        <ele>8.474921</ele>
        <time>2022-04-27T10:36:37.000Z</time>
      </trkpt>
      <trkpt lat="37.70339" lon="-0.74108">
        <ele>8.469033</ele>
        <time>2022-04-27T10:36:48.000Z</time>
      </trkpt>
      <trkpt lat="37.70298" lon="-0.74091">
        <ele>8.478549</ele>
        <time>2022-04-27T10:36:56.000Z</time>
      </trkpt>
      <trkpt lat="37.70243" lon="-0.74079">
        <ele>8.534436</ele>
        <time>2022-04-27T10:37:06.000Z</time>
      </trkpt>
      <trkpt lat="37.70193" lon="-0.74068">
        <ele>8.586594</ele>
        <time>2022-04-27T10:37:15.000Z</time>
      </trkpt>
      <trkpt lat="37.7017" lon="-0.74064">
        <ele>8.610268</ele>
        <time>2022-04-27T10:37:19.000Z</time>
      </trkpt>
      <trkpt lat="37.70132" lon="-0.74055">
        <ele>8.649421</ele>
        <time>2022-04-27T10:37:26.000Z</time>
      </trkpt>
      <trkpt lat="37.70074" lon="-0.74043">
        <ele>8.694662</ele>
        <time>2022-04-27T10:37:36.000Z</time>
      </trkpt>
      <trkpt lat="37.7007" lon="-0.74042">
        <ele>8.69819</ele>
        <time>2022-04-27T10:37:37.000Z</time>
      </trkpt>
      <trkpt lat="37.70031" lon="-0.74033">
        <ele>8.729561</ele>
        <time>2022-04-27T10:37:44.000Z</time>
      </trkpt>
      <trkpt lat="37.70026" lon="-0.74032">
        <ele>8.73291</ele>
        <time>2022-04-27T10:37:45.000Z</time>
      </trkpt>
      <trkpt lat="37.70016" lon="-0.74029">
        <ele>8.741</ele>
        <time>2022-04-27T10:37:47.000Z</time>
      </trkpt>
      <trkpt lat="37.69993" lon="-0.74028">
        <ele>8.758741</ele>
        <time>2022-04-27T10:37:51.000Z</time>
      </trkpt>
      <trkpt lat="37.69938" lon="-0.7403">
        <ele>8.786604</ele>
        <time>2022-04-27T10:38:01.000Z</time>
      </trkpt>
      <trkpt lat="37.6991" lon="-0.74032">
        <ele>8.78218</ele>
        <time>2022-04-27T10:38:06.000Z</time>
      </trkpt>
      <trkpt lat="37.6988" lon="-0.74032">
        <ele>8.777533</ele>
        <time>2022-04-27T10:38:11.000Z</time>
      </trkpt>
      <trkpt lat="37.6985" lon="-0.74029">
        <ele>8.772787</ele>
        <time>2022-04-27T10:38:16.000Z</time>
      </trkpt>
      <trkpt lat="37.69844" lon="-0.74027">
        <ele>8.771874</ele>
        <time>2022-04-27T10:38:17.000Z</time>
      </trkpt>
      <trkpt lat="37.6984" lon="-0.74025">
        <ele>8.771134</ele>
        <time>2022-04-27T10:38:18.000Z</time>
      </trkpt>
      <trkpt lat="37.69828" lon="-0.74021">
        <ele>8.76919</ele>
        <time>2022-04-27T10:38:20.000Z</time>
      </trkpt>
      <trkpt lat="37.69822" lon="-0.74021">
        <ele>8.768268</ele>
        <time>2022-04-27T10:38:21.000Z</time>
      </trkpt>
      <trkpt lat="37.6978" lon="-0.74007">
        <ele>8.761546</ele>
        <time>2022-04-27T10:38:29.000Z</time>
      </trkpt>
      <trkpt lat="37.69756" lon="-0.74002">
        <ele>8.774854</ele>
        <time>2022-04-27T10:38:33.000Z</time>
      </trkpt>
      <trkpt lat="37.6975" lon="-0.74001">
        <ele>8.778679</ele>
        <time>2022-04-27T10:38:34.000Z</time>
      </trkpt>
      <trkpt lat="37.69696" lon="-0.73984">
        <ele>8.814831</ele>
        <time>2022-04-27T10:38:44.000Z</time>
      </trkpt>
      <trkpt lat="37.69664" lon="-0.73975">
        <ele>8.836459</ele>
        <time>2022-04-27T10:38:50.000Z</time>
      </trkpt>
      <trkpt lat="37.69648" lon="-0.73971">
        <ele>8.846527</ele>
        <time>2022-04-27T10:38:53.000Z</time>
      </trkpt>
      <trkpt lat="37.69594" lon="-0.73954">
        <ele>8.87726</ele>
        <time>2022-04-27T10:39:03.000Z</time>
      </trkpt>
      <trkpt lat="37.69589" lon="-0.73952">
        <ele>8.877023</ele>
        <time>2022-04-27T10:39:04.000Z</time>
      </trkpt>
      <trkpt lat="37.69562" lon="-0.73941">
        <ele>8.875814</ele>
        <time>2022-04-27T10:39:09.000Z</time>
      </trkpt>
      <trkpt lat="37.69552" lon="-0.73935">
        <ele>8.875341</ele>
        <time>2022-04-27T10:39:11.000Z</time>
      </trkpt>
      <trkpt lat="37.69523" lon="-0.73906">
        <ele>8.873758</ele>
        <time>2022-04-27T10:39:18.000Z</time>
      </trkpt>
      <trkpt lat="37.69481" lon="-0.73856">
        <ele>8.871279</ele>
        <time>2022-04-27T10:39:29.000Z</time>
      </trkpt>
      <trkpt lat="37.69477" lon="-0.73852">
        <ele>8.871071</ele>
        <time>2022-04-27T10:39:30.000Z</time>
      </trkpt>
      <trkpt lat="37.69461" lon="-0.73837">
        <ele>8.870225</ele>
        <time>2022-04-27T10:39:34.000Z</time>
      </trkpt>
      <trkpt lat="37.69446" lon="-0.73827">
        <ele>8.838935</ele>
        <time>2022-04-27T10:39:37.000Z</time>
      </trkpt>
      <trkpt lat="37.69431" lon="-0.7382">
        <ele>8.786169</ele>
        <time>2022-04-27T10:39:40.000Z</time>
      </trkpt>
      <trkpt lat="37.69411" lon="-0.73814">
        <ele>8.720895</ele>
        <time>2022-04-27T10:39:44.000Z</time>
      </trkpt>
      <trkpt lat="37.69358" lon="-0.73801">
        <ele>8.542586</ele>
        <time>2022-04-27T10:39:54.000Z</time>
      </trkpt>
      <trkpt lat="37.69345" lon="-0.73798">
        <ele>8.50129</ele>
        <time>2022-04-27T10:39:56.000Z</time>
      </trkpt>
      <trkpt lat="37.69319" lon="-0.73792">
        <ele>8.412325</ele>
        <time>2022-04-27T10:40:01.000Z</time>
      </trkpt>
      <trkpt lat="37.6929" lon="-0.73786">
        <ele>8.31771</ele>
        <time>2022-04-27T10:40:06.000Z</time>
      </trkpt>
      <trkpt lat="37.69241" lon="-0.73774">
        <ele>8.475919</ele>
        <time>2022-04-27T10:40:15.000Z</time>
      </trkpt>
      <trkpt lat="37.69221" lon="-0.73767">
        <ele>8.582142</ele>
        <time>2022-04-27T10:40:20.000Z</time>
      </trkpt>
      <trkpt lat="37.69192" lon="-0.7376">
        <ele>8.728139</ele>
        <time>2022-04-27T10:40:26.000Z</time>
      </trkpt>
      <trkpt lat="37.6915" lon="-0.7375">
        <ele>8.941995</ele>
        <time>2022-04-27T10:40:34.000Z</time>
      </trkpt>
      <trkpt lat="37.69108" lon="-0.73742">
        <ele>9.156471</ele>
        <time>2022-04-27T10:40:43.000Z</time>
      </trkpt>
      <trkpt lat="37.69053" lon="-0.73742">
        <ele>9.08209</ele>
        <time>2022-04-27T10:40:54.000Z</time>
      </trkpt>
      <trkpt lat="37.69048" lon="-0.73742">
        <ele>9.071831</ele>
        <time>2022-04-27T10:40:55.000Z</time>
      </trkpt>
      <trkpt lat="37.69032" lon="-0.73744">
        <ele>9.038841</ele>
        <time>2022-04-27T10:40:59.000Z</time>
      </trkpt>
      <trkpt lat="37.68997" lon="-0.73745">
        <ele>8.969812</ele>
        <time>2022-04-27T10:41:06.000Z</time>
      </trkpt>
      <trkpt lat="37.68975" lon="-0.73743">
        <ele>8.925175</ele>
        <time>2022-04-27T10:41:10.000Z</time>
      </trkpt>
      <trkpt lat="37.68957" lon="-0.73739">
        <ele>8.888858</ele>
        <time>2022-04-27T10:41:13.000Z</time>
      </trkpt>
      <trkpt lat="37.68946" lon="-0.73734">
        <ele>8.864617</ele>
        <time>2022-04-27T10:41:15.000Z</time>
      </trkpt>
      <trkpt lat="37.68924" lon="-0.73726">
        <ele>8.816279</ele>
        <time>2022-04-27T10:41:19.000Z</time>
      </trkpt>
      <trkpt lat="37.68917" lon="-0.73724">
        <ele>8.78443</ele>
        <time>2022-04-27T10:41:20.000Z</time>
      </trkpt>
      <trkpt lat="37.68878" lon="-0.7371">
        <ele>8.609911</ele>
        <time>2022-04-27T10:41:27.000Z</time>
      </trkpt>
      <trkpt lat="37.68853" lon="-0.737">
        <ele>8.499245</ele>
        <time>2022-04-27T10:41:33.000Z</time>
      </trkpt>
      <trkpt lat="37.68836" lon="-0.73693">
        <ele>8.419508</ele>
        <time>2022-04-27T10:41:38.000Z</time>
      </trkpt>
      <trkpt lat="37.68816" lon="-0.73684">
        <ele>8.328748</ele>
        <time>2022-04-27T10:41:43.000Z</time>
      </trkpt>
      <trkpt lat="37.68808" lon="-0.73683">
        <ele>8.294316</ele>
        <time>2022-04-27T10:41:45.000Z</time>
      </trkpt>
      <trkpt lat="37.68801" lon="-0.73681">
        <ele>8.262258</ele>
        <time>2022-04-27T10:41:47.000Z</time>
      </trkpt>
      <trkpt lat="37.68792" lon="-0.73678">
        <ele>8.222281</ele>
        <time>2022-04-27T10:41:49.000Z</time>
      </trkpt>
      <trkpt lat="37.68783" lon="-0.73675">
        <ele>8.185072</ele>
        <time>2022-04-27T10:41:51.000Z</time>
      </trkpt>
      <trkpt lat="37.68757" lon="-0.73663">
        <ele>8.064225</ele>
        <time>2022-04-27T10:41:58.000Z</time>
      </trkpt>
      <trkpt lat="37.68744" lon="-0.73661">
        <ele>8.048216</ele>
        <time>2022-04-27T10:42:01.000Z</time>
      </trkpt>
      <trkpt lat="37.68737" lon="-0.73657">
        <ele>8.05126</ele>
        <time>2022-04-27T10:42:03.000Z</time>
      </trkpt>
      <trkpt lat="37.687" lon="-0.73641">
        <ele>8.066154</ele>
        <time>2022-04-27T10:42:11.000Z</time>
      </trkpt>
      <trkpt lat="37.68688" lon="-0.73634">
        <ele>8.071482</ele>
        <time>2022-04-27T10:42:14.000Z</time>
      </trkpt>
      <trkpt lat="37.68682" lon="-0.7363">
        <ele>8.073844</ele>
        <time>2022-04-27T10:42:15.000Z</time>
      </trkpt>
      <trkpt lat="37.6867" lon="-0.73619">
        <ele>8.079719</ele>
        <time>2022-04-27T10:42:18.000Z</time>
      </trkpt>
      <trkpt lat="37.68638" lon="-0.73587">
        <ele>8.095341</ele>
        <time>2022-04-27T10:42:26.000Z</time>
      </trkpt>
      <trkpt lat="37.68629" lon="-0.73579">
        <ele>8.099537</ele>
        <time>2022-04-27T10:42:28.000Z</time>
      </trkpt>
      <trkpt lat="37.6862" lon="-0.73571">
        <ele>8.103693</ele>
        <time>2022-04-27T10:42:30.000Z</time>
      </trkpt>
      <trkpt lat="37.68607" lon="-0.73561">
        <ele>8.109563</ele>
        <time>2022-04-27T10:42:33.000Z</time>
      </trkpt>
      <trkpt lat="37.68576" lon="-0.7354">
        <ele>8.079238</ele>
        <time>2022-04-27T10:42:40.000Z</time>
      </trkpt>
      <trkpt lat="37.68531" lon="-0.73523">
        <ele>8.008707</ele>
        <time>2022-04-27T10:42:49.000Z</time>
      </trkpt>
      <trkpt lat="37.68499" lon="-0.73512">
        <ele>7.958791</ele>
        <time>2022-04-27T10:42:55.000Z</time>
      </trkpt>
      <trkpt lat="37.68467" lon="-0.73501">
        <ele>7.910254</ele>
        <time>2022-04-27T10:43:01.000Z</time>
      </trkpt>
      <trkpt lat="37.68415" lon="-0.73481">
        <ele>7.830232</ele>
        <time>2022-04-27T10:43:11.000Z</time>
      </trkpt>
      <trkpt lat="37.684" lon="-0.73476">
        <ele>7.81071</ele>
        <time>2022-04-27T10:43:14.000Z</time>
      </trkpt>
      <trkpt lat="37.68355" lon="-0.73461">
        <ele>7.751092</ele>
        <time>2022-04-27T10:43:22.000Z</time>
      </trkpt>
      <trkpt lat="37.68339" lon="-0.73455">
        <ele>7.730131</ele>
        <time>2022-04-27T10:43:25.000Z</time>
      </trkpt>
      <trkpt lat="37.68298" lon="-0.7344">
        <ele>7.674449</ele>
        <time>2022-04-27T10:43:33.000Z</time>
      </trkpt>
      <trkpt lat="37.68286" lon="-0.73436">
        <ele>7.659601</ele>
        <time>2022-04-27T10:43:35.000Z</time>
      </trkpt>
      <trkpt lat="37.68262" lon="-0.7343">
        <ele>7.628037</ele>
        <time>2022-04-27T10:43:40.000Z</time>
      </trkpt>
      <trkpt lat="37.68251" lon="-0.73429">
        <ele>7.613876</ele>
        <time>2022-04-27T10:43:42.000Z</time>
      </trkpt>
      <trkpt lat="37.68221" lon="-0.73433">
        <ele>7.546395</ele>
        <time>2022-04-27T10:43:49.000Z</time>
      </trkpt>
      <trkpt lat="37.68206" lon="-0.73436">
        <ele>7.511968</ele>
        <time>2022-04-27T10:43:53.000Z</time>
      </trkpt>
      <trkpt lat="37.68201" lon="-0.73438">
        <ele>7.500452</ele>
        <time>2022-04-27T10:43:54.000Z</time>
      </trkpt>
      <trkpt lat="37.68192" lon="-0.73442">
        <ele>7.480514</ele>
        <time>2022-04-27T10:43:56.000Z</time>
      </trkpt>
      <trkpt lat="37.68184" lon="-0.73446">
        <ele>7.460357</ele>
        <time>2022-04-27T10:43:58.000Z</time>
      </trkpt>
      <trkpt lat="37.68168" lon="-0.73453">
        <ele>7.422546</ele>
        <time>2022-04-27T10:44:02.000Z</time>
      </trkpt>
      <trkpt lat="37.6816" lon="-0.73456">
        <ele>7.404556</ele>
        <time>2022-04-27T10:44:04.000Z</time>
      </trkpt>
      <trkpt lat="37.68133" lon="-0.73461">
        <ele>7.343811</ele>
        <time>2022-04-27T10:44:09.000Z</time>
      </trkpt>
      <trkpt lat="37.68118" lon="-0.7346">
        <ele>7.30995</ele>
        <time>2022-04-27T10:44:12.000Z</time>
      </trkpt>
      <trkpt lat="37.68101" lon="-0.73455">
        <ele>7.271756</ele>
        <time>2022-04-27T10:44:15.000Z</time>
      </trkpt>
      <trkpt lat="37.6807" lon="-0.73441">
        <ele>7.183001</ele>
        <time>2022-04-27T10:44:21.000Z</time>
      </trkpt>
      <trkpt lat="37.6806" lon="-0.73437">
        <ele>7.135665</ele>
        <time>2022-04-27T10:44:23.000Z</time>
      </trkpt>
      <trkpt lat="37.68048" lon="-0.7343">
        <ele>7.075501</ele>
        <time>2022-04-27T10:44:26.000Z</time>
      </trkpt>
      <trkpt lat="37.68035" lon="-0.73424">
        <ele>7.013652</ele>
        <time>2022-04-27T10:44:29.000Z</time>
      </trkpt>
      <trkpt lat="37.67994" lon="-0.73403">
        <ele>6.813429</ele>
        <time>2022-04-27T10:44:39.000Z</time>
      </trkpt>
      <trkpt lat="37.67977" lon="-0.73394">
        <ele>6.734678</ele>
        <time>2022-04-27T10:44:44.000Z</time>
      </trkpt>
      <trkpt lat="37.67973" lon="-0.73392">
        <ele>6.715268</ele>
        <time>2022-04-27T10:44:45.000Z</time>
      </trkpt>
      <trkpt lat="37.67956" lon="-0.73383">
        <ele>6.628952</ele>
        <time>2022-04-27T10:44:52.000Z</time>
      </trkpt>
      <trkpt lat="37.67955" lon="-0.73382">
        <ele>6.624251</ele>
        <time>2022-04-27T10:44:53.000Z</time>
      </trkpt>
      <trkpt lat="37.67954" lon="-0.73381">
        <ele>6.618881</ele>
        <time>2022-04-27T10:44:56.000Z</time>
      </trkpt>
      <trkpt lat="37.67953" lon="-0.7338">
        <ele>6.612238</ele>
        <time>2022-04-27T10:44:57.000Z</time>
      </trkpt>
      <trkpt lat="37.67951" lon="-0.73379">
        <ele>6.603679</ele>
        <time>2022-04-27T10:45:00.000Z</time>
      </trkpt>
      <trkpt lat="37.67952" lon="-0.73377">
        <ele>6.594728</ele>
        <time>2022-04-27T10:45:06.000Z</time>
      </trkpt>
      <trkpt lat="37.67953" lon="-0.73376">
        <ele>6.58804</ele>
        <time>2022-04-27T10:45:07.000Z</time>
      </trkpt>
      <trkpt lat="37.67957" lon="-0.73361">
        <ele>6.5313</ele>
        <time>2022-04-27T10:45:13.000Z</time>
      </trkpt>
      <trkpt lat="37.67962" lon="-0.73342">
        <ele>6.46124</ele>
        <time>2022-04-27T10:45:17.000Z</time>
      </trkpt>
      <trkpt lat="37.67963" lon="-0.73337">
        <ele>6.442835</ele>
        <time>2022-04-27T10:45:18.000Z</time>
      </trkpt>
      <trkpt lat="37.67972" lon="-0.73309">
        <ele>6.359103</ele>
        <time>2022-04-27T10:45:24.000Z</time>
      </trkpt>
      <trkpt lat="37.67979" lon="-0.73285">
        <ele>6.295709</ele>
        <time>2022-04-27T10:45:30.000Z</time>
      </trkpt>
      <trkpt lat="37.67983" lon="-0.7328">
        <ele>6.279587</ele>
        <time>2022-04-27T10:45:33.000Z</time>
      </trkpt>
      <trkpt lat="37.67983" lon="-0.73279">
        <ele>6.277002</ele>
        <time>2022-04-27T10:45:34.000Z</time>
      </trkpt>
      <trkpt lat="37.67984" lon="-0.73276">
        <ele>6.271468</ele>
        <time>2022-04-27T10:45:36.000Z</time>
      </trkpt>
      <trkpt lat="37.67983" lon="-0.73271">
        <ele>6.258324</ele>
        <time>2022-04-27T10:45:39.000Z</time>
      </trkpt>
      <trkpt lat="37.67982" lon="-0.73267">
        <ele>6.248719</ele>
        <time>2022-04-27T10:45:41.000Z</time>
      </trkpt>
      <trkpt lat="37.67981" lon="-0.73266">
        <ele>6.242774</ele>
        <time>2022-04-27T10:45:44.000Z</time>
      </trkpt>
      <trkpt lat="37.67974" lon="-0.73273">
        <ele>6.214485</ele>
        <time>2022-04-27T10:45:48.000Z</time>
      </trkpt>
      <trkpt lat="37.67972" lon="-0.73275">
        <ele>6.206331</ele>
        <time>2022-04-27T10:45:52.000Z</time>
      </trkpt>
      <trkpt lat="37.67972" lon="-0.73275">
        <ele>6.204849</ele>
        <time>2022-04-27T10:45:58.000Z</time>
      </trkpt>
      <trkpt lat="37.67972" lon="-0.73275">
        <ele>6.203366</ele>
        <time>2022-04-27T10:46:02.000Z</time>
      </trkpt>
      <trkpt lat="37.67972" lon="-0.73275">
        <ele>6.202977</ele>
        <time>2022-04-27T10:46:06.000Z</time>
      </trkpt>
      <trkpt lat="37.67972" lon="-0.73275">
        <ele>6.202977</ele>
        <time>2022-04-27T10:46:07.000Z</time>
      </trkpt>
      <trkpt lat="37.67969" lon="-0.73284">
        <ele>6.180439</ele>
        <time>2022-04-27T10:46:12.000Z</time>
      </trkpt>
      <trkpt lat="37.67963" lon="-0.73299">
        <ele>6.140077</ele>
        <time>2022-04-27T10:46:16.000Z</time>
      </trkpt>
      <trkpt lat="37.67958" lon="-0.733">
        <ele>6.125819</ele>
        <time>2022-04-27T10:46:17.000Z</time>
      </trkpt>
      <trkpt lat="37.67944" lon="-0.7329">
        <ele>6.075241</ele>
        <time>2022-04-27T10:46:21.000Z</time>
      </trkpt>
      <trkpt lat="37.67937" lon="-0.73285">
        <ele>6.051521</ele>
        <time>2022-04-27T10:46:25.000Z</time>
      </trkpt>
      <trkpt lat="37.67937" lon="-0.73285">
        <ele>6.051521</ele>
        <time>2022-04-27T10:46:33.000Z</time>
      </trkpt>
      <trkpt lat="37.67937" lon="-0.73285">
        <ele>6.051521</ele>
        <time>2022-04-27T10:46:35.000Z</time>
      </trkpt>
      <trkpt lat="37.67937" lon="-0.73285">
        <ele>6.051521</ele>
        <time>2022-04-27T10:46:56.000Z</time>
      </trkpt>
      <trkpt lat="37.67931" lon="-0.73286">
        <ele>6.032557</ele>
        <time>2022-04-27T10:47:12.000Z</time>
      </trkpt>
      <trkpt lat="37.67929" lon="-0.73286">
        <ele>6.027166</ele>
        <time>2022-04-27T10:47:17.000Z</time>
      </trkpt>
      <trkpt lat="37.67927" lon="-0.73286">
        <ele>6.02014</ele>
        <time>2022-04-27T10:47:23.000Z</time>
      </trkpt>
      <trkpt lat="37.67926" lon="-0.73286">
        <ele>6.019223</ele>
        <time>2022-04-27T10:47:31.000Z</time>
      </trkpt>
      <trkpt lat="37.67926" lon="-0.73286">
        <ele>6.019223</ele>
        <time>2022-04-27T10:47:36.000Z</time>
      </trkpt>
      <trkpt lat="37.67926" lon="-0.73286">
        <ele>6.019223</ele>
        <time>2022-04-27T10:47:49.000Z</time>
      </trkpt>
      <trkpt lat="37.67926" lon="-0.73285">
        <ele>6.016729</ele>
        <time>2022-04-27T10:48:27.000Z</time>
      </trkpt>
      <trkpt lat="37.67926" lon="-0.73285">
        <ele>6.016245</ele>
        <time>2022-04-27T10:48:32.000Z</time>
      </trkpt>
      <trkpt lat="37.67925" lon="-0.73285">
        <ele>6.015209</ele>
        <time>2022-04-27T10:48:43.000Z</time>
      </trkpt>
      <trkpt lat="37.67923" lon="-0.73295">
        <ele>5.991828</ele>
        <time>2022-04-27T10:48:46.000Z</time>
      </trkpt>
      <trkpt lat="37.67922" lon="-0.73299">
        <ele>5.982146</ele>
        <time>2022-04-27T10:48:47.000Z</time>
      </trkpt>
      <trkpt lat="37.67914" lon="-0.7332">
        <ele>5.923041</ele>
        <time>2022-04-27T10:48:52.000Z</time>
      </trkpt>
      <trkpt lat="37.67912" lon="-0.73325">
        <ele>5.910985</ele>
        <time>2022-04-27T10:48:53.000Z</time>
      </trkpt>
      <trkpt lat="37.67905" lon="-0.73341">
        <ele>5.86742</ele>
        <time>2022-04-27T10:48:58.000Z</time>
      </trkpt>
      <trkpt lat="37.67903" lon="-0.7334">
        <ele>5.859907</ele>
        <time>2022-04-27T10:49:01.000Z</time>
      </trkpt>
      <trkpt lat="37.67899" lon="-0.7334">
        <ele>5.851515</ele>
        <time>2022-04-27T10:49:05.000Z</time>
      </trkpt>
      <trkpt lat="37.67895" lon="-0.73339">
        <ele>5.840824</ele>
        <time>2022-04-27T10:49:07.000Z</time>
      </trkpt>
      <trkpt lat="37.67889" lon="-0.73334">
        <ele>5.823397</ele>
        <time>2022-04-27T10:49:10.000Z</time>
      </trkpt>
      <trkpt lat="37.67882" lon="-0.73333">
        <ele>5.806706</ele>
        <time>2022-04-27T10:49:13.000Z</time>
      </trkpt>
      <trkpt lat="37.67867" lon="-0.73337">
        <ele>5.767061</ele>
        <time>2022-04-27T10:49:19.000Z</time>
      </trkpt>
      <trkpt lat="37.6786" lon="-0.73334">
        <ele>5.750614</ele>
        <time>2022-04-27T10:49:21.000Z</time>
      </trkpt>
      <trkpt lat="37.6785" lon="-0.7333">
        <ele>5.724047</ele>
        <time>2022-04-27T10:49:24.000Z</time>
      </trkpt>
      <trkpt lat="37.67842" lon="-0.73326">
        <ele>5.703541</ele>
        <time>2022-04-27T10:49:26.000Z</time>
      </trkpt>
      <trkpt lat="37.67821" lon="-0.73314">
        <ele>5.646646</ele>
        <time>2022-04-27T10:49:31.000Z</time>
      </trkpt>
      <trkpt lat="37.67808" lon="-0.73308">
        <ele>5.612562</ele>
        <time>2022-04-27T10:49:34.000Z</time>
      </trkpt>
      <trkpt lat="37.67796" lon="-0.73301">
        <ele>5.580829</ele>
        <time>2022-04-27T10:49:37.000Z</time>
      </trkpt>
      <trkpt lat="37.67793" lon="-0.73299">
        <ele>5.570752</ele>
        <time>2022-04-27T10:49:39.000Z</time>
      </trkpt>
      <trkpt lat="37.67793" lon="-0.73299">
        <ele>5.570752</ele>
        <time>2022-04-27T10:49:42.000Z</time>
      </trkpt>
      <trkpt lat="37.67794" lon="-0.73297">
        <ele>5.567399</ele>
        <time>2022-04-27T10:49:49.000Z</time>
      </trkpt>
      <trkpt lat="37.67797" lon="-0.73299">
        <ele>5.557791</ele>
        <time>2022-04-27T10:49:52.000Z</time>
      </trkpt>
      <trkpt lat="37.67802" lon="-0.73301">
        <ele>5.546562</ele>
        <time>2022-04-27T10:49:54.000Z</time>
      </trkpt>
      <trkpt lat="37.6782" lon="-0.73312">
        <ele>5.496935</ele>
        <time>2022-04-27T10:50:00.000Z</time>
      </trkpt>
      <trkpt lat="37.67843" lon="-0.73323">
        <ele>5.436057</ele>
        <time>2022-04-27T10:50:06.000Z</time>
      </trkpt>
      <trkpt lat="37.67861" lon="-0.73333">
        <ele>5.401029</ele>
        <time>2022-04-27T10:50:12.000Z</time>
      </trkpt>
      <trkpt lat="37.67884" lon="-0.73343">
        <ele>5.367074</ele>
        <time>2022-04-27T10:50:18.000Z</time>
      </trkpt>
      <trkpt lat="37.67917" lon="-0.73359">
        <ele>5.318363</ele>
        <time>2022-04-27T10:50:25.000Z</time>
      </trkpt>
      <trkpt lat="37.67939" lon="-0.7337">
        <ele>5.284787</ele>
        <time>2022-04-27T10:50:30.000Z</time>
      </trkpt>
      <trkpt lat="37.67948" lon="-0.73376">
        <ele>5.270336</ele>
        <time>2022-04-27T10:50:32.000Z</time>
      </trkpt>
      <trkpt lat="37.67956" lon="-0.7338">
        <ele>5.259136</ele>
        <time>2022-04-27T10:50:34.000Z</time>
      </trkpt>
      <trkpt lat="37.67964" lon="-0.73387">
        <ele>5.245615</ele>
        <time>2022-04-27T10:50:36.000Z</time>
      </trkpt>
      <trkpt lat="37.67968" lon="-0.73389">
        <ele>5.239549</ele>
        <time>2022-04-27T10:50:37.000Z</time>
      </trkpt>
      <trkpt lat="37.6799" lon="-0.73401">
        <ele>5.205752</ele>
        <time>2022-04-27T10:50:43.000Z</time>
      </trkpt>
      <trkpt lat="37.67997" lon="-0.73405">
        <ele>5.195372</ele>
        <time>2022-04-27T10:50:45.000Z</time>
      </trkpt>
      <trkpt lat="37.68028" lon="-0.7342">
        <ele>5.219917</ele>
        <time>2022-04-27T10:50:53.000Z</time>
      </trkpt>
      <trkpt lat="37.6807" lon="-0.73443">
        <ele>5.407238</ele>
        <time>2022-04-27T10:51:03.000Z</time>
      </trkpt>
      <trkpt lat="37.68096" lon="-0.73456">
        <ele>5.524069</ele>
        <time>2022-04-27T10:51:09.000Z</time>
      </trkpt>
      <trkpt lat="37.68101" lon="-0.73458">
        <ele>5.544005</ele>
        <time>2022-04-27T10:51:10.000Z</time>
      </trkpt>
      <trkpt lat="37.68109" lon="-0.73461">
        <ele>5.579776</ele>
        <time>2022-04-27T10:51:12.000Z</time>
      </trkpt>
      <trkpt lat="37.68119" lon="-0.73463">
        <ele>5.620105</ele>
        <time>2022-04-27T10:51:14.000Z</time>
      </trkpt>
      <trkpt lat="37.68129" lon="-0.73463">
        <ele>5.660676</ele>
        <time>2022-04-27T10:51:16.000Z</time>
      </trkpt>
      <trkpt lat="37.68155" lon="-0.73458">
        <ele>5.769358</ele>
        <time>2022-04-27T10:51:21.000Z</time>
      </trkpt>
      <trkpt lat="37.68165" lon="-0.73454">
        <ele>5.81099</ele>
        <time>2022-04-27T10:51:23.000Z</time>
      </trkpt>
      <trkpt lat="37.68174" lon="-0.73451">
        <ele>5.851913</ele>
        <time>2022-04-27T10:51:25.000Z</time>
      </trkpt>
      <trkpt lat="37.68188" lon="-0.73444">
        <ele>5.902699</ele>
        <time>2022-04-27T10:51:28.000Z</time>
      </trkpt>
      <trkpt lat="37.68202" lon="-0.73438">
        <ele>5.885605</ele>
        <time>2022-04-27T10:51:31.000Z</time>
      </trkpt>
      <trkpt lat="37.6822" lon="-0.73433">
        <ele>5.865548</ele>
        <time>2022-04-27T10:51:34.000Z</time>
      </trkpt>
      <trkpt lat="37.68249" lon="-0.73428">
        <ele>5.83294</ele>
        <time>2022-04-27T10:51:39.000Z</time>
      </trkpt>
      <trkpt lat="37.6826" lon="-0.73428">
        <ele>5.820412</ele>
        <time>2022-04-27T10:51:41.000Z</time>
      </trkpt>
      <trkpt lat="37.68294" lon="-0.73436">
        <ele>5.781453</ele>
        <time>2022-04-27T10:51:47.000Z</time>
      </trkpt>
      <trkpt lat="37.68347" lon="-0.73457">
        <ele>5.719627</ele>
        <time>2022-04-27T10:51:57.000Z</time>
      </trkpt>
      <trkpt lat="37.68351" lon="-0.73458">
        <ele>5.714855</ele>
        <time>2022-04-27T10:51:58.000Z</time>
      </trkpt>
      <trkpt lat="37.68373" lon="-0.73465">
        <ele>5.735727</ele>
        <time>2022-04-27T10:52:03.000Z</time>
      </trkpt>
      <trkpt lat="37.68425" lon="-0.73484">
        <ele>5.868705</ele>
        <time>2022-04-27T10:52:13.000Z</time>
      </trkpt>
      <trkpt lat="37.68478" lon="-0.73503">
        <ele>6.005679</ele>
        <time>2022-04-27T10:52:23.000Z</time>
      </trkpt>
      <trkpt lat="37.68484" lon="-0.73506">
        <ele>6.022813</ele>
        <time>2022-04-27T10:52:24.000Z</time>
      </trkpt>
      <trkpt lat="37.68506" lon="-0.73513">
        <ele>6.079101</ele>
        <time>2022-04-27T10:52:28.000Z</time>
      </trkpt>
      <trkpt lat="37.68545" lon="-0.73528">
        <ele>6.214793</ele>
        <time>2022-04-27T10:52:35.000Z</time>
      </trkpt>
      <trkpt lat="37.68555" lon="-0.73532">
        <ele>6.268705</ele>
        <time>2022-04-27T10:52:37.000Z</time>
      </trkpt>
      <trkpt lat="37.68566" lon="-0.73537">
        <ele>6.329067</ele>
        <time>2022-04-27T10:52:39.000Z</time>
      </trkpt>
      <trkpt lat="37.686" lon="-0.73556">
        <ele>6.525424</ele>
        <time>2022-04-27T10:52:46.000Z</time>
      </trkpt>
      <trkpt lat="37.6863" lon="-0.73582">
        <ele>6.719351</ele>
        <time>2022-04-27T10:52:53.000Z</time>
      </trkpt>
      <trkpt lat="37.68652" lon="-0.73602">
        <ele>6.863026</ele>
        <time>2022-04-27T10:52:58.000Z</time>
      </trkpt>
      <trkpt lat="37.6867" lon="-0.73618">
        <ele>6.977675</ele>
        <time>2022-04-27T10:53:02.000Z</time>
      </trkpt>
      <trkpt lat="37.68699" lon="-0.73642">
        <ele>7.113128</ele>
        <time>2022-04-27T10:53:09.000Z</time>
      </trkpt>
      <trkpt lat="37.68725" lon="-0.73654">
        <ele>7.136713</ele>
        <time>2022-04-27T10:53:14.000Z</time>
      </trkpt>
      <trkpt lat="37.68743" lon="-0.7366">
        <ele>7.151919</ele>
        <time>2022-04-27T10:53:17.000Z</time>
      </trkpt>
      <trkpt lat="37.68766" lon="-0.73669">
        <ele>7.172633</ele>
        <time>2022-04-27T10:53:21.000Z</time>
      </trkpt>
      <trkpt lat="37.68772" lon="-0.73671">
        <ele>7.177841</ele>
        <time>2022-04-27T10:53:22.000Z</time>
      </trkpt>
      <trkpt lat="37.68788" lon="-0.73679">
        <ele>7.192472</ele>
        <time>2022-04-27T10:53:25.000Z</time>
      </trkpt>
      <trkpt lat="37.68794" lon="-0.73681">
        <ele>7.197559</ele>
        <time>2022-04-27T10:53:26.000Z</time>
      </trkpt>
      <trkpt lat="37.68839" lon="-0.73698">
        <ele>7.237768</ele>
        <time>2022-04-27T10:53:34.000Z</time>
      </trkpt>
      <trkpt lat="37.6885" lon="-0.73702">
        <ele>7.247297</ele>
        <time>2022-04-27T10:53:36.000Z</time>
      </trkpt>
      <trkpt lat="37.68867" lon="-0.73708">
        <ele>7.28759</ele>
        <time>2022-04-27T10:53:39.000Z</time>
      </trkpt>
      <trkpt lat="37.68915" lon="-0.73725">
        <ele>7.500462</ele>
        <time>2022-04-27T10:53:48.000Z</time>
      </trkpt>
      <trkpt lat="37.68935" lon="-0.73733">
        <ele>7.586934</ele>
        <time>2022-04-27T10:53:52.000Z</time>
      </trkpt>
      <trkpt lat="37.68949" lon="-0.73737">
        <ele>7.648767</ele>
        <time>2022-04-27T10:53:55.000Z</time>
      </trkpt>
      <trkpt lat="37.6898" lon="-0.73744">
        <ele>7.785413</ele>
        <time>2022-04-27T10:54:02.000Z</time>
      </trkpt>
      <trkpt lat="37.69003" lon="-0.73744">
        <ele>7.880782</ele>
        <time>2022-04-27T10:54:07.000Z</time>
      </trkpt>
      <trkpt lat="37.69027" lon="-0.73744">
        <ele>7.986393</ele>
        <time>2022-04-27T10:54:13.000Z</time>
      </trkpt>
      <trkpt lat="37.6904" lon="-0.73744">
        <ele>7.992256</ele>
        <time>2022-04-27T10:54:17.000Z</time>
      </trkpt>
      <trkpt lat="37.69053" lon="-0.73742">
        <ele>7.900655</ele>
        <time>2022-04-27T10:54:22.000Z</time>
      </trkpt>
      <trkpt lat="37.69053" lon="-0.73742">
        <ele>7.899971</ele>
        <time>2022-04-27T10:54:24.000Z</time>
      </trkpt>
      <trkpt lat="37.69051" lon="-0.73743">
        <ele>7.885624</ele>
        <time>2022-04-27T10:54:31.000Z</time>
      </trkpt>
      <trkpt lat="37.69051" lon="-0.73742">
        <ele>7.878076</ele>
        <time>2022-04-27T10:54:38.000Z</time>
      </trkpt>
      <trkpt lat="37.69051" lon="-0.73742">
        <ele>7.878076</ele>
        <time>2022-04-27T10:54:55.000Z</time>
      </trkpt>
      <trkpt lat="37.69051" lon="-0.73741">
        <ele>7.875953</ele>
        <time>2022-04-27T10:55:18.000Z</time>
      </trkpt>
      <trkpt lat="37.6905" lon="-0.73742">
        <ele>7.87072</ele>
        <time>2022-04-27T10:55:21.000Z</time>
      </trkpt>
      <trkpt lat="37.6905" lon="-0.73742">
        <ele>7.868598</ele>
        <time>2022-04-27T10:55:24.000Z</time>
      </trkpt>
      <trkpt lat="37.69048" lon="-0.73741">
        <ele>7.851866</ele>
        <time>2022-04-27T10:55:25.000Z</time>
      </trkpt>
      <trkpt lat="37.69033" lon="-0.73741">
        <ele>7.752606</ele>
        <time>2022-04-27T10:55:29.000Z</time>
      </trkpt>
      <trkpt lat="37.69029" lon="-0.73741">
        <ele>7.726415</ele>
        <time>2022-04-27T10:55:30.000Z</time>
      </trkpt>
      <trkpt lat="37.69" lon="-0.73743">
        <ele>7.52363</ele>
        <time>2022-04-27T10:55:36.000Z</time>
      </trkpt>
      <trkpt lat="37.6897" lon="-0.73741">
        <ele>7.319303</ele>
        <time>2022-04-27T10:55:42.000Z</time>
      </trkpt>
      <trkpt lat="37.68965" lon="-0.73739">
        <ele>7.282569</ele>
        <time>2022-04-27T10:55:43.000Z</time>
      </trkpt>
      <trkpt lat="37.68949" lon="-0.73734">
        <ele>7.171015</ele>
        <time>2022-04-27T10:55:46.000Z</time>
      </trkpt>
      <trkpt lat="37.68927" lon="-0.73727">
        <ele>7.01621</ele>
        <time>2022-04-27T10:55:50.000Z</time>
      </trkpt>
      <trkpt lat="37.68894" lon="-0.73716">
        <ele>6.787969</ele>
        <time>2022-04-27T10:55:56.000Z</time>
      </trkpt>
      <trkpt lat="37.68859" lon="-0.73703">
        <ele>6.680319</ele>
        <time>2022-04-27T10:56:03.000Z</time>
      </trkpt>
      <trkpt lat="37.68819" lon="-0.73688">
        <ele>6.559263</ele>
        <time>2022-04-27T10:56:11.000Z</time>
      </trkpt>
      <trkpt lat="37.68774" lon="-0.73671">
        <ele>6.421379</ele>
        <time>2022-04-27T10:56:20.000Z</time>
      </trkpt>
      <trkpt lat="37.68719" lon="-0.7365">
        <ele>6.259877</ele>
        <time>2022-04-27T10:56:31.000Z</time>
      </trkpt>
      <trkpt lat="37.68694" lon="-0.73638">
        <ele>6.232741</ele>
        <time>2022-04-27T10:56:36.000Z</time>
      </trkpt>
      <trkpt lat="37.68684" lon="-0.73632">
        <ele>6.221934</ele>
        <time>2022-04-27T10:56:38.000Z</time>
      </trkpt>
      <trkpt lat="37.68646" lon="-0.73597">
        <ele>6.175243</ele>
        <time>2022-04-27T10:56:47.000Z</time>
      </trkpt>
      <trkpt lat="37.68611" lon="-0.73565">
        <ele>6.132812</ele>
        <time>2022-04-27T10:56:56.000Z</time>
      </trkpt>
      <trkpt lat="37.68575" lon="-0.73541">
        <ele>6.092473</ele>
        <time>2022-04-27T10:57:04.000Z</time>
      </trkpt>
      <trkpt lat="37.68536" lon="-0.73524">
        <ele>6.032916</ele>
        <time>2022-04-27T10:57:12.000Z</time>
      </trkpt>
      <trkpt lat="37.68484" lon="-0.73505">
        <ele>5.950732</ele>
        <time>2022-04-27T10:57:22.000Z</time>
      </trkpt>
      <trkpt lat="37.68473" lon="-0.73501">
        <ele>5.934006</ele>
        <time>2022-04-27T10:57:24.000Z</time>
      </trkpt>
      <trkpt lat="37.6842" lon="-0.73482">
        <ele>5.850251</ele>
        <time>2022-04-27T10:57:34.000Z</time>
      </trkpt>
      <trkpt lat="37.68365" lon="-0.73463">
        <ele>5.747044</ele>
        <time>2022-04-27T10:57:44.000Z</time>
      </trkpt>
      <trkpt lat="37.68354" lon="-0.73459">
        <ele>5.724088</ele>
        <time>2022-04-27T10:57:46.000Z</time>
      </trkpt>
      <trkpt lat="37.68311" lon="-0.73443">
        <ele>5.631171</ele>
        <time>2022-04-27T10:57:54.000Z</time>
      </trkpt>
      <trkpt lat="37.68273" lon="-0.7343">
        <ele>5.551355</ele>
        <time>2022-04-27T10:58:01.000Z</time>
      </trkpt>
      <trkpt lat="37.68262" lon="-0.73429">
        <ele>5.527806</ele>
        <time>2022-04-27T10:58:03.000Z</time>
      </trkpt>
      <trkpt lat="37.68246" lon="-0.73428">
        <ele>5.494763</ele>
        <time>2022-04-27T10:58:06.000Z</time>
      </trkpt>
      <trkpt lat="37.68226" lon="-0.73431">
        <ele>5.453038</ele>
        <time>2022-04-27T10:58:10.000Z</time>
      </trkpt>
      <trkpt lat="37.6822" lon="-0.73432">
        <ele>5.442683</ele>
        <time>2022-04-27T10:58:11.000Z</time>
      </trkpt>
      <trkpt lat="37.68211" lon="-0.73433">
        <ele>5.426555</ele>
        <time>2022-04-27T10:58:13.000Z</time>
      </trkpt>
      <trkpt lat="37.68201" lon="-0.73436">
        <ele>5.410096</ele>
        <time>2022-04-27T10:58:15.000Z</time>
      </trkpt>
      <trkpt lat="37.68182" lon="-0.73445">
        <ele>5.375407</ele>
        <time>2022-04-27T10:58:19.000Z</time>
      </trkpt>
      <trkpt lat="37.68167" lon="-0.73451">
        <ele>5.350152</ele>
        <time>2022-04-27T10:58:22.000Z</time>
      </trkpt>
      <trkpt lat="37.68157" lon="-0.73455">
        <ele>5.331873</ele>
        <time>2022-04-27T10:58:24.000Z</time>
      </trkpt>
      <trkpt lat="37.68128" lon="-0.73463">
        <ele>5.282399</ele>
        <time>2022-04-27T10:58:29.000Z</time>
      </trkpt>
      <trkpt lat="37.68122" lon="-0.73463">
        <ele>5.272543</ele>
        <time>2022-04-27T10:58:30.000Z</time>
      </trkpt>
      <trkpt lat="37.68111" lon="-0.73461">
        <ele>5.253256</ele>
        <time>2022-04-27T10:58:32.000Z</time>
      </trkpt>
      <trkpt lat="37.68088" lon="-0.73454">
        <ele>5.214351</ele>
        <time>2022-04-27T10:58:36.000Z</time>
      </trkpt>
      <trkpt lat="37.68061" lon="-0.7344">
        <ele>5.165339</ele>
        <time>2022-04-27T10:58:41.000Z</time>
      </trkpt>
      <trkpt lat="37.68045" lon="-0.73431">
        <ele>5.125355</ele>
        <time>2022-04-27T10:58:44.000Z</time>
      </trkpt>
      <trkpt lat="37.68035" lon="-0.73426">
        <ele>5.072107</ele>
        <time>2022-04-27T10:58:46.000Z</time>
      </trkpt>
      <trkpt lat="37.68005" lon="-0.73412">
        <ele>4.921862</ele>
        <time>2022-04-27T10:58:52.000Z</time>
      </trkpt>
      <trkpt lat="37.67988" lon="-0.73402">
        <ele>4.833098</ele>
        <time>2022-04-27T10:58:56.000Z</time>
      </trkpt>
      <trkpt lat="37.6798" lon="-0.73398">
        <ele>4.793144</ele>
        <time>2022-04-27T10:58:58.000Z</time>
      </trkpt>
      <trkpt lat="37.67964" lon="-0.7339">
        <ele>4.712144</ele>
        <time>2022-04-27T10:59:03.000Z</time>
      </trkpt>
      <trkpt lat="37.67945" lon="-0.73376">
        <ele>4.608961</ele>
        <time>2022-04-27T10:59:09.000Z</time>
      </trkpt>
      <trkpt lat="37.67939" lon="-0.73372">
        <ele>4.576672</ele>
        <time>2022-04-27T10:59:11.000Z</time>
      </trkpt>
      <trkpt lat="37.67916" lon="-0.7336">
        <ele>4.458446</ele>
        <time>2022-04-27T10:59:18.000Z</time>
      </trkpt>
      <trkpt lat="37.67906" lon="-0.73352">
        <ele>4.400191</ele>
        <time>2022-04-27T10:59:22.000Z</time>
      </trkpt>
      <trkpt lat="37.67904" lon="-0.73352">
        <ele>4.390724</ele>
        <time>2022-04-27T10:59:23.000Z</time>
      </trkpt>
      <trkpt lat="37.67902" lon="-0.73352">
        <ele>4.382599</ele>
        <time>2022-04-27T10:59:24.000Z</time>
      </trkpt>
      <trkpt lat="37.67895" lon="-0.73348">
        <ele>4.348267</ele>
        <time>2022-04-27T10:59:27.000Z</time>
      </trkpt>
      <trkpt lat="37.67873" lon="-0.73337">
        <ele>4.311991</ele>
        <time>2022-04-27T10:59:34.000Z</time>
      </trkpt>
      <trkpt lat="37.67855" lon="-0.73333">
        <ele>4.343709</ele>
        <time>2022-04-27T10:59:39.000Z</time>
      </trkpt>
      <trkpt lat="37.67824" lon="-0.73315">
        <ele>4.401568</ele>
        <time>2022-04-27T10:59:47.000Z</time>
      </trkpt>
      <trkpt lat="37.67789" lon="-0.73299">
        <ele>4.465299</ele>
        <time>2022-04-27T10:59:55.000Z</time>
      </trkpt>
      <trkpt lat="37.67757" lon="-0.73274">
        <ele>4.528929</ele>
        <time>2022-04-27T11:00:03.000Z</time>
      </trkpt>
      <trkpt lat="37.67751" lon="-0.73267">
        <ele>4.544329</ele>
        <time>2022-04-27T11:00:05.000Z</time>
      </trkpt>
      <trkpt lat="37.67741" lon="-0.73256">
        <ele>4.566302</ele>
        <time>2022-04-27T11:00:08.000Z</time>
      </trkpt>
      <trkpt lat="37.67732" lon="-0.73242">
        <ele>4.590403</ele>
        <time>2022-04-27T11:00:11.000Z</time>
      </trkpt>
      <trkpt lat="37.67719" lon="-0.73224">
        <ele>4.593304</ele>
        <time>2022-04-27T11:00:15.000Z</time>
      </trkpt>
      <trkpt lat="37.67702" lon="-0.73199">
        <ele>4.582215</ele>
        <time>2022-04-27T11:00:20.000Z</time>
      </trkpt>
      <trkpt lat="37.67682" lon="-0.73178">
        <ele>4.57124</ele>
        <time>2022-04-27T11:00:25.000Z</time>
      </trkpt>
      <trkpt lat="37.67675" lon="-0.73168">
        <ele>4.566904</ele>
        <time>2022-04-27T11:00:27.000Z</time>
      </trkpt>
      <trkpt lat="37.67671" lon="-0.73164">
        <ele>4.564883</ele>
        <time>2022-04-27T11:00:28.000Z</time>
      </trkpt>
      <trkpt lat="37.67659" lon="-0.73157">
        <ele>4.559001</ele>
        <time>2022-04-27T11:00:31.000Z</time>
      </trkpt>
      <trkpt lat="37.67644" lon="-0.73152">
        <ele>4.552796</ele>
        <time>2022-04-27T11:00:34.000Z</time>
      </trkpt>
      <trkpt lat="37.67635" lon="-0.73149">
        <ele>4.548545</ele>
        <time>2022-04-27T11:00:36.000Z</time>
      </trkpt>
      <trkpt lat="37.67588" lon="-0.73123">
        <ele>4.526877</ele>
        <time>2022-04-27T11:00:46.000Z</time>
      </trkpt>
      <trkpt lat="37.67547" lon="-0.73102">
        <ele>4.595285</ele>
        <time>2022-04-27T11:00:55.000Z</time>
      </trkpt>
      <trkpt lat="37.67517" lon="-0.73087">
        <ele>4.659119</ele>
        <time>2022-04-27T11:01:02.000Z</time>
      </trkpt>
      <trkpt lat="37.67466" lon="-0.73061">
        <ele>4.767112</ele>
        <time>2022-04-27T11:01:13.000Z</time>
      </trkpt>
      <trkpt lat="37.67425" lon="-0.73041">
        <ele>4.855883</ele>
        <time>2022-04-27T11:01:22.000Z</time>
      </trkpt>
      <trkpt lat="37.67406" lon="-0.73036">
        <ele>4.875517</ele>
        <time>2022-04-27T11:01:26.000Z</time>
      </trkpt>
      <trkpt lat="37.67393" lon="-0.73032">
        <ele>4.862262</ele>
        <time>2022-04-27T11:01:29.000Z</time>
      </trkpt>
      <trkpt lat="37.67364" lon="-0.73034">
        <ele>4.833827</ele>
        <time>2022-04-27T11:01:35.000Z</time>
      </trkpt>
      <trkpt lat="37.67356" lon="-0.73036">
        <ele>4.82628</ele>
        <time>2022-04-27T11:01:37.000Z</time>
      </trkpt>
      <trkpt lat="37.67347" lon="-0.7304">
        <ele>4.817072</ele>
        <time>2022-04-27T11:01:39.000Z</time>
      </trkpt>
      <trkpt lat="37.67339" lon="-0.73044">
        <ele>4.808455</ele>
        <time>2022-04-27T11:01:42.000Z</time>
      </trkpt>
      <trkpt lat="37.67334" lon="-0.73045">
        <ele>4.803338</ele>
        <time>2022-04-27T11:01:44.000Z</time>
      </trkpt>
      <trkpt lat="37.67329" lon="-0.73044">
        <ele>4.798591</ele>
        <time>2022-04-27T11:01:46.000Z</time>
      </trkpt>
      <trkpt lat="37.67323" lon="-0.73042">
        <ele>4.792529</ele>
        <time>2022-04-27T11:01:48.000Z</time>
      </trkpt>
      <trkpt lat="37.67313" lon="-0.73046">
        <ele>4.782681</ele>
        <time>2022-04-27T11:01:51.000Z</time>
      </trkpt>
      <trkpt lat="37.67293" lon="-0.73057">
        <ele>4.761435</ele>
        <time>2022-04-27T11:01:57.000Z</time>
      </trkpt>
      <trkpt lat="37.67278" lon="-0.73064">
        <ele>4.745336</ele>
        <time>2022-04-27T11:02:02.000Z</time>
      </trkpt>
      <trkpt lat="37.6725" lon="-0.7306">
        <ele>4.718041</ele>
        <time>2022-04-27T11:02:09.000Z</time>
      </trkpt>
      <trkpt lat="37.67216" lon="-0.73046">
        <ele>4.707708</ele>
        <time>2022-04-27T11:02:17.000Z</time>
      </trkpt>
      <trkpt lat="37.67177" lon="-0.73025">
        <ele>4.710076</ele>
        <time>2022-04-27T11:02:26.000Z</time>
      </trkpt>
      <trkpt lat="37.67173" lon="-0.73024">
        <ele>4.710277</ele>
        <time>2022-04-27T11:02:27.000Z</time>
      </trkpt>
      <trkpt lat="37.67138" lon="-0.73008">
        <ele>4.712346</ele>
        <time>2022-04-27T11:02:35.000Z</time>
      </trkpt>
      <trkpt lat="37.67121" lon="-0.72999">
        <ele>4.713383</ele>
        <time>2022-04-27T11:02:39.000Z</time>
      </trkpt>
      <trkpt lat="37.67114" lon="-0.72994">
        <ele>4.713805</ele>
        <time>2022-04-27T11:02:41.000Z</time>
      </trkpt>
      <trkpt lat="37.6709" lon="-0.72982">
        <ele>4.715222</ele>
        <time>2022-04-27T11:02:47.000Z</time>
      </trkpt>
      <trkpt lat="37.67054" lon="-0.72965">
        <ele>4.865876</ele>
        <time>2022-04-27T11:02:55.000Z</time>
      </trkpt>
      <trkpt lat="37.67026" lon="-0.72953">
        <ele>5.113298</ele>
        <time>2022-04-27T11:03:01.000Z</time>
      </trkpt>
      <trkpt lat="37.66993" lon="-0.72939">
        <ele>5.404517</ele>
        <time>2022-04-27T11:03:08.000Z</time>
      </trkpt>
      <trkpt lat="37.66965" lon="-0.72926">
        <ele>5.653429</ele>
        <time>2022-04-27T11:03:14.000Z</time>
      </trkpt>
      <trkpt lat="37.66956" lon="-0.72922">
        <ele>5.729689</ele>
        <time>2022-04-27T11:03:16.000Z</time>
      </trkpt>
      <trkpt lat="37.66953" lon="-0.72921">
        <ele>5.75581</ele>
        <time>2022-04-27T11:03:17.000Z</time>
      </trkpt>
      <trkpt lat="37.66933" lon="-0.72915">
        <ele>5.926199</ele>
        <time>2022-04-27T11:03:22.000Z</time>
      </trkpt>
      <trkpt lat="37.6693" lon="-0.72913">
        <ele>5.958954</ele>
        <time>2022-04-27T11:03:23.000Z</time>
      </trkpt>
      <trkpt lat="37.66914" lon="-0.72905">
        <ele>6.10064</ele>
        <time>2022-04-27T11:03:27.000Z</time>
      </trkpt>
      <trkpt lat="37.66898" lon="-0.72897">
        <ele>6.278213</ele>
        <time>2022-04-27T11:03:31.000Z</time>
      </trkpt>
      <trkpt lat="37.66891" lon="-0.72892">
        <ele>6.426528</ele>
        <time>2022-04-27T11:03:33.000Z</time>
      </trkpt>
      <trkpt lat="37.66871" lon="-0.72881">
        <ele>6.839192</ele>
        <time>2022-04-27T11:03:39.000Z</time>
      </trkpt>
      <trkpt lat="37.66847" lon="-0.72874">
        <ele>7.289606</ele>
        <time>2022-04-27T11:03:45.000Z</time>
      </trkpt>
      <trkpt lat="37.66837" lon="-0.72871">
        <ele>7.483583</ele>
        <time>2022-04-27T11:03:48.000Z</time>
      </trkpt>
      <trkpt lat="37.66824" lon="-0.72864">
        <ele>7.75031</ele>
        <time>2022-04-27T11:03:53.000Z</time>
      </trkpt>
      <trkpt lat="37.66812" lon="-0.72859">
        <ele>7.991958</ele>
        <time>2022-04-27T11:03:57.000Z</time>
      </trkpt>
      <trkpt lat="37.66798" lon="-0.72851">
        <ele>8.281409</ele>
        <time>2022-04-27T11:04:01.000Z</time>
      </trkpt>
      <trkpt lat="37.66777" lon="-0.72836">
        <ele>8.72061</ele>
        <time>2022-04-27T11:04:07.000Z</time>
      </trkpt>
      <trkpt lat="37.66774" lon="-0.72833">
        <ele>8.801208</ele>
        <time>2022-04-27T11:04:08.000Z</time>
      </trkpt>
      <trkpt lat="37.66751" lon="-0.72806">
        <ele>9.379452</ele>
        <time>2022-04-27T11:04:15.000Z</time>
      </trkpt>
      <trkpt lat="37.66741" lon="-0.72794">
        <ele>9.715487</ele>
        <time>2022-04-27T11:04:18.000Z</time>
      </trkpt>
      <trkpt lat="37.66724" lon="-0.72771">
        <ele>10.632221</ele>
        <time>2022-04-27T11:04:24.000Z</time>
      </trkpt>
      <trkpt lat="37.66718" lon="-0.72763">
        <ele>10.934099</ele>
        <time>2022-04-27T11:04:26.000Z</time>
      </trkpt>
      <trkpt lat="37.66705" lon="-0.72746">
        <ele>11.651027</ele>
        <time>2022-04-27T11:04:31.000Z</time>
      </trkpt>
      <trkpt lat="37.66702" lon="-0.72743">
        <ele>11.787159</ele>
        <time>2022-04-27T11:04:32.000Z</time>
      </trkpt>
      <trkpt lat="37.66684" lon="-0.72718">
        <ele>12.750475</ele>
        <time>2022-04-27T11:04:39.000Z</time>
      </trkpt>
      <trkpt lat="37.66678" lon="-0.72711">
        <ele>13.046112</ele>
        <time>2022-04-27T11:04:41.000Z</time>
      </trkpt>
      <trkpt lat="37.66668" lon="-0.72698">
        <ele>13.582145</ele>
        <time>2022-04-27T11:04:45.000Z</time>
      </trkpt>
      <trkpt lat="37.66659" lon="-0.72685">
        <ele>14.08538</ele>
        <time>2022-04-27T11:04:49.000Z</time>
      </trkpt>
      <trkpt lat="37.66653" lon="-0.72676">
        <ele>14.430461</ele>
        <time>2022-04-27T11:04:52.000Z</time>
      </trkpt>
      <trkpt lat="37.66639" lon="-0.72656">
        <ele>15.19372</ele>
        <time>2022-04-27T11:04:58.000Z</time>
      </trkpt>
      <trkpt lat="37.66633" lon="-0.72645">
        <ele>15.578423</ele>
        <time>2022-04-27T11:05:01.000Z</time>
      </trkpt>
      <trkpt lat="37.66623" lon="-0.72623">
        <ele>16.086497</ele>
        <time>2022-04-27T11:05:07.000Z</time>
      </trkpt>
      <trkpt lat="37.66622" lon="-0.72619">
        <ele>16.011567</ele>
        <time>2022-04-27T11:05:08.000Z</time>
      </trkpt>
      <trkpt lat="37.66617" lon="-0.72609">
        <ele>15.778363</ele>
        <time>2022-04-27T11:05:11.000Z</time>
      </trkpt>
      <trkpt lat="37.66607" lon="-0.72583">
        <ele>15.218945</ele>
        <time>2022-04-27T11:05:18.000Z</time>
      </trkpt>
      <trkpt lat="37.66602" lon="-0.72571">
        <ele>14.975038</ele>
        <time>2022-04-27T11:05:21.000Z</time>
      </trkpt>
      <trkpt lat="37.66601" lon="-0.72566">
        <ele>14.878102</ele>
        <time>2022-04-27T11:05:24.000Z</time>
      </trkpt>
      <trkpt lat="37.66601" lon="-0.7256">
        <ele>14.76132</ele>
        <time>2022-04-27T11:05:31.000Z</time>
      </trkpt>
      <trkpt lat="37.66601" lon="-0.7256">
        <ele>14.746837</ele>
        <time>2022-04-27T11:05:35.000Z</time>
      </trkpt>
      <trkpt lat="37.666" lon="-0.7256">
        <ele>14.72578</ele>
        <time>2022-04-27T11:05:36.000Z</time>
      </trkpt>
      <trkpt lat="37.66595" lon="-0.7255">
        <ele>14.510968</ele>
        <time>2022-04-27T11:05:40.000Z</time>
      </trkpt>
      <trkpt lat="37.66584" lon="-0.72533">
        <ele>14.088353</ele>
        <time>2022-04-27T11:05:45.000Z</time>
      </trkpt>
      <trkpt lat="37.66581" lon="-0.7253">
        <ele>14.001557</ele>
        <time>2022-04-27T11:05:46.000Z</time>
      </trkpt>
      <trkpt lat="37.66562" lon="-0.72513">
        <ele>13.437047</ele>
        <time>2022-04-27T11:05:52.000Z</time>
      </trkpt>
      <trkpt lat="37.66547" lon="-0.72504">
        <ele>13.026067</ele>
        <time>2022-04-27T11:05:56.000Z</time>
      </trkpt>
      <trkpt lat="37.66529" lon="-0.72494">
        <ele>12.561854</ele>
        <time>2022-04-27T11:06:00.000Z</time>
      </trkpt>
      <trkpt lat="37.66525" lon="-0.72492">
        <ele>12.44838</ele>
        <time>2022-04-27T11:06:01.000Z</time>
      </trkpt>
      <trkpt lat="37.66511" lon="-0.72486">
        <ele>12.089642</ele>
        <time>2022-04-27T11:06:04.000Z</time>
      </trkpt>
      <trkpt lat="37.66497" lon="-0.72482">
        <ele>11.696511</ele>
        <time>2022-04-27T11:06:07.000Z</time>
      </trkpt>
      <trkpt lat="37.66485" lon="-0.7248">
        <ele>11.213203</ele>
        <time>2022-04-27T11:06:10.000Z</time>
      </trkpt>
      <trkpt lat="37.66476" lon="-0.72478">
        <ele>10.834587</ele>
        <time>2022-04-27T11:06:12.000Z</time>
      </trkpt>
      <trkpt lat="37.66458" lon="-0.72476">
        <ele>10.078874</ele>
        <time>2022-04-27T11:06:16.000Z</time>
      </trkpt>
      <trkpt lat="37.6644" lon="-0.72477">
        <ele>9.377195</ele>
        <time>2022-04-27T11:06:20.000Z</time>
      </trkpt>
      <trkpt lat="37.66437" lon="-0.72476">
        <ele>9.246421</ele>
        <time>2022-04-27T11:06:21.000Z</time>
      </trkpt>
      <trkpt lat="37.66432" lon="-0.72476">
        <ele>9.047041</ele>
        <time>2022-04-27T11:06:25.000Z</time>
      </trkpt>
      <trkpt lat="37.6643" lon="-0.72475">
        <ele>8.957295</ele>
        <time>2022-04-27T11:06:27.000Z</time>
      </trkpt>
      <trkpt lat="37.66424" lon="-0.72476">
        <ele>8.700794</ele>
        <time>2022-04-27T11:06:29.000Z</time>
      </trkpt>
      <trkpt lat="37.66397" lon="-0.72477">
        <ele>7.629486</ele>
        <time>2022-04-27T11:06:35.000Z</time>
      </trkpt>
      <trkpt lat="37.6638" lon="-0.72477">
        <ele>6.935762</ele>
        <time>2022-04-27T11:06:39.000Z</time>
      </trkpt>
      <trkpt lat="37.66364" lon="-0.72476">
        <ele>6.2746</ele>
        <time>2022-04-27T11:06:43.000Z</time>
      </trkpt>
      <trkpt lat="37.6635" lon="-0.72476">
        <ele>5.731116</ele>
        <time>2022-04-27T11:06:46.000Z</time>
      </trkpt>
      <trkpt lat="37.6634" lon="-0.72474">
        <ele>5.293775</ele>
        <time>2022-04-27T11:06:49.000Z</time>
      </trkpt>
      <trkpt lat="37.66317" lon="-0.72473">
        <ele>4.519013</ele>
        <time>2022-04-27T11:06:55.000Z</time>
      </trkpt>
      <trkpt lat="37.66308" lon="-0.72475">
        <ele>4.458501</ele>
        <time>2022-04-27T11:06:58.000Z</time>
      </trkpt>
      <trkpt lat="37.66306" lon="-0.72474">
        <ele>4.448081</ele>
        <time>2022-04-27T11:06:59.000Z</time>
      </trkpt>
      <trkpt lat="37.66304" lon="-0.72462">
        <ele>4.382301</ele>
        <time>2022-04-27T11:07:03.000Z</time>
      </trkpt>
      <trkpt lat="37.66303" lon="-0.72456">
        <ele>4.352694</ele>
        <time>2022-04-27T11:07:05.000Z</time>
      </trkpt>
      <trkpt lat="37.66301" lon="-0.72455">
        <ele>4.33807</ele>
        <time>2022-04-27T11:07:06.000Z</time>
      </trkpt>
      <trkpt lat="37.66298" lon="-0.72459">
        <ele>4.311109</ele>
        <time>2022-04-27T11:07:08.000Z</time>
      </trkpt>
      <trkpt lat="37.66295" lon="-0.72467">
        <ele>4.263488</ele>
        <time>2022-04-27T11:07:10.000Z</time>
      </trkpt>
      <trkpt lat="37.66292" lon="-0.7247">
        <ele>4.239991</ele>
        <time>2022-04-27T11:07:11.000Z</time>
      </trkpt>
      <trkpt lat="37.66286" lon="-0.72472">
        <ele>4.199841</ele>
        <time>2022-04-27T11:07:13.000Z</time>
      </trkpt>
      <trkpt lat="37.6626" lon="-0.72458">
        <ele>4.013052</ele>
        <time>2022-04-27T11:07:20.000Z</time>
      </trkpt>
      <trkpt lat="37.66229" lon="-0.72442">
        <ele>3.795451</ele>
        <time>2022-04-27T11:07:27.000Z</time>
      </trkpt>
      <trkpt lat="37.66206" lon="-0.72429">
        <ele>3.633586</ele>
        <time>2022-04-27T11:07:32.000Z</time>
      </trkpt>
      <trkpt lat="37.66198" lon="-0.72424">
        <ele>3.570712</ele>
        <time>2022-04-27T11:07:34.000Z</time>
      </trkpt>
      <trkpt lat="37.66153" lon="-0.72402">
        <ele>3.348262</ele>
        <time>2022-04-27T11:07:43.000Z</time>
      </trkpt>
      <trkpt lat="37.66115" lon="-0.72377">
        <ele>3.281309</ele>
        <time>2022-04-27T11:07:51.000Z</time>
      </trkpt>
      <trkpt lat="37.66078" lon="-0.72339">
        <ele>3.207865</ele>
        <time>2022-04-27T11:08:00.000Z</time>
      </trkpt>
      <trkpt lat="37.66069" lon="-0.72325">
        <ele>3.185262</ele>
        <time>2022-04-27T11:08:03.000Z</time>
      </trkpt>
      <trkpt lat="37.66058" lon="-0.72312">
        <ele>3.162696</ele>
        <time>2022-04-27T11:08:06.000Z</time>
      </trkpt>
      <trkpt lat="37.66045" lon="-0.72302">
        <ele>3.139363</ele>
        <time>2022-04-27T11:08:09.000Z</time>
      </trkpt>
      <trkpt lat="37.66038" lon="-0.72294">
        <ele>3.124033</ele>
        <time>2022-04-27T11:08:11.000Z</time>
      </trkpt>
      <trkpt lat="37.66011" lon="-0.72264">
        <ele>3.129774</ele>
        <time>2022-04-27T11:08:18.000Z</time>
      </trkpt>
      <trkpt lat="37.65981" lon="-0.72235">
        <ele>3.197429</ele>
        <time>2022-04-27T11:08:26.000Z</time>
      </trkpt>
      <trkpt lat="37.65974" lon="-0.72229">
        <ele>3.212684</ele>
        <time>2022-04-27T11:08:28.000Z</time>
      </trkpt>
      <trkpt lat="37.65958" lon="-0.7222">
        <ele>3.245672</ele>
        <time>2022-04-27T11:08:32.000Z</time>
      </trkpt>
      <trkpt lat="37.6594" lon="-0.72211">
        <ele>3.280328</ele>
        <time>2022-04-27T11:08:36.000Z</time>
      </trkpt>
      <trkpt lat="37.6593" lon="-0.72207">
        <ele>3.298896</ele>
        <time>2022-04-27T11:08:38.000Z</time>
      </trkpt>
      <trkpt lat="37.65921" lon="-0.72205">
        <ele>3.314578</ele>
        <time>2022-04-27T11:08:40.000Z</time>
      </trkpt>
      <trkpt lat="37.65911" lon="-0.72203">
        <ele>3.333632</ele>
        <time>2022-04-27T11:08:42.000Z</time>
      </trkpt>
      <trkpt lat="37.659" lon="-0.722">
        <ele>3.354593</ele>
        <time>2022-04-27T11:08:44.000Z</time>
      </trkpt>
      <trkpt lat="37.65891" lon="-0.72196">
        <ele>3.371811</ele>
        <time>2022-04-27T11:08:46.000Z</time>
      </trkpt>
      <trkpt lat="37.65853" lon="-0.72181">
        <ele>3.430322</ele>
        <time>2022-04-27T11:08:53.000Z</time>
      </trkpt>
      <trkpt lat="37.65803" lon="-0.72152">
        <ele>3.472787</ele>
        <time>2022-04-27T11:09:03.000Z</time>
      </trkpt>
      <trkpt lat="37.65797" lon="-0.7215">
        <ele>3.477134</ele>
        <time>2022-04-27T11:09:04.000Z</time>
      </trkpt>
      <trkpt lat="37.65782" lon="-0.72143">
        <ele>3.489821</ele>
        <time>2022-04-27T11:09:07.000Z</time>
      </trkpt>
      <trkpt lat="37.65768" lon="-0.72134">
        <ele>3.50147</ele>
        <time>2022-04-27T11:09:10.000Z</time>
      </trkpt>
      <trkpt lat="37.65764" lon="-0.72131">
        <ele>3.505049</ele>
        <time>2022-04-27T11:09:11.000Z</time>
      </trkpt>
      <trkpt lat="37.65761" lon="-0.72128">
        <ele>3.508206</ele>
        <time>2022-04-27T11:09:12.000Z</time>
      </trkpt>
      <trkpt lat="37.6575" lon="-0.72121">
        <ele>3.517409</ele>
        <time>2022-04-27T11:09:15.000Z</time>
      </trkpt>
      <trkpt lat="37.65721" lon="-0.72108">
        <ele>3.541604</ele>
        <time>2022-04-27T11:09:22.000Z</time>
      </trkpt>
      <trkpt lat="37.65711" lon="-0.72103">
        <ele>3.549526</ele>
        <time>2022-04-27T11:09:24.000Z</time>
      </trkpt>
      <trkpt lat="37.65687" lon="-0.7209">
        <ele>3.560153</ele>
        <time>2022-04-27T11:09:30.000Z</time>
      </trkpt>
      <trkpt lat="37.65673" lon="-0.72083">
        <ele>3.560863</ele>
        <time>2022-04-27T11:09:33.000Z</time>
      </trkpt>
      <trkpt lat="37.65669" lon="-0.72081">
        <ele>3.561073</ele>
        <time>2022-04-27T11:09:34.000Z</time>
      </trkpt>
      <trkpt lat="37.65653" lon="-0.72076">
        <ele>3.561895</ele>
        <time>2022-04-27T11:09:38.000Z</time>
      </trkpt>
      <trkpt lat="37.65646" lon="-0.72072">
        <ele>3.562244</ele>
        <time>2022-04-27T11:09:40.000Z</time>
      </trkpt>
      <trkpt lat="37.65638" lon="-0.7207">
        <ele>3.562655</ele>
        <time>2022-04-27T11:09:42.000Z</time>
      </trkpt>
      <trkpt lat="37.65629" lon="-0.72068">
        <ele>3.56309</ele>
        <time>2022-04-27T11:09:44.000Z</time>
      </trkpt>
      <trkpt lat="37.65624" lon="-0.72068">
        <ele>3.563299</ele>
        <time>2022-04-27T11:09:45.000Z</time>
      </trkpt>
      <trkpt lat="37.65614" lon="-0.72067">
        <ele>3.563825</ele>
        <time>2022-04-27T11:09:47.000Z</time>
      </trkpt>
      <trkpt lat="37.65597" lon="-0.72065">
        <ele>3.564636</ele>
        <time>2022-04-27T11:09:50.000Z</time>
      </trkpt>
      <trkpt lat="37.6557" lon="-0.72062">
        <ele>3.565946</ele>
        <time>2022-04-27T11:09:55.000Z</time>
      </trkpt>
      <trkpt lat="37.65554" lon="-0.7206">
        <ele>3.566741</ele>
        <time>2022-04-27T11:09:58.000Z</time>
      </trkpt>
      <trkpt lat="37.65549" lon="-0.72059">
        <ele>3.566991</ele>
        <time>2022-04-27T11:09:59.000Z</time>
      </trkpt>
      <trkpt lat="37.65544" lon="-0.72058">
        <ele>3.567227</ele>
        <time>2022-04-27T11:10:00.000Z</time>
      </trkpt>
      <trkpt lat="37.65534" lon="-0.72056">
        <ele>3.567716</ele>
        <time>2022-04-27T11:10:02.000Z</time>
      </trkpt>
      <trkpt lat="37.6553" lon="-0.72055">
        <ele>3.567935</ele>
        <time>2022-04-27T11:10:03.000Z</time>
      </trkpt>
      <trkpt lat="37.6552" lon="-0.72056">
        <ele>3.588769</ele>
        <time>2022-04-27T11:10:05.000Z</time>
      </trkpt>
      <trkpt lat="37.65486" lon="-0.72051">
        <ele>3.781147</ele>
        <time>2022-04-27T11:10:12.000Z</time>
      </trkpt>
      <trkpt lat="37.65482" lon="-0.7205">
        <ele>3.809126</ele>
        <time>2022-04-27T11:10:13.000Z</time>
      </trkpt>
      <trkpt lat="37.65458" lon="-0.72047">
        <ele>3.945747</ele>
        <time>2022-04-27T11:10:18.000Z</time>
      </trkpt>
      <trkpt lat="37.65449" lon="-0.72051">
        <ele>3.995742</ele>
        <time>2022-04-27T11:10:20.000Z</time>
      </trkpt>
      <trkpt lat="37.65444" lon="-0.72053">
        <ele>4.025311</ele>
        <time>2022-04-27T11:10:21.000Z</time>
      </trkpt>
      <trkpt lat="37.6543" lon="-0.72052">
        <ele>4.104638</ele>
        <time>2022-04-27T11:10:24.000Z</time>
      </trkpt>
      <trkpt lat="37.65395" lon="-0.72045">
        <ele>4.30888</ele>
        <time>2022-04-27T11:10:32.000Z</time>
      </trkpt>
      <trkpt lat="37.65382" lon="-0.7204">
        <ele>4.384622</ele>
        <time>2022-04-27T11:10:35.000Z</time>
      </trkpt>
      <trkpt lat="37.65369" lon="-0.72033">
        <ele>4.463639</ele>
        <time>2022-04-27T11:10:38.000Z</time>
      </trkpt>
      <trkpt lat="37.65366" lon="-0.7203">
        <ele>4.484243</ele>
        <time>2022-04-27T11:10:39.000Z</time>
      </trkpt>
      <trkpt lat="37.65362" lon="-0.72027">
        <ele>4.511336</ele>
        <time>2022-04-27T11:10:40.000Z</time>
      </trkpt>
      <trkpt lat="37.65332" lon="-0.72">
        <ele>4.541437</ele>
        <time>2022-04-27T11:10:48.000Z</time>
      </trkpt>
      <trkpt lat="37.65304" lon="-0.71975">
        <ele>4.478404</ele>
        <time>2022-04-27T11:10:55.000Z</time>
      </trkpt>
      <trkpt lat="37.65293" lon="-0.71966">
        <ele>4.453539</ele>
        <time>2022-04-27T11:10:58.000Z</time>
      </trkpt>
      <trkpt lat="37.6528" lon="-0.71955">
        <ele>4.424942</ele>
        <time>2022-04-27T11:11:03.000Z</time>
      </trkpt>
      <trkpt lat="37.65271" lon="-0.71947">
        <ele>4.403497</ele>
        <time>2022-04-27T11:11:07.000Z</time>
      </trkpt>
      <trkpt lat="37.65267" lon="-0.71945">
        <ele>4.395467</ele>
        <time>2022-04-27T11:11:10.000Z</time>
      </trkpt>
      <trkpt lat="37.65266" lon="-0.71943">
        <ele>4.390863</ele>
        <time>2022-04-27T11:11:14.000Z</time>
      </trkpt>
      <trkpt lat="37.65263" lon="-0.7194">
        <ele>4.383913</ele>
        <time>2022-04-27T11:11:17.000Z</time>
      </trkpt>
      <trkpt lat="37.65263" lon="-0.71939">
        <ele>4.383146</ele>
        <time>2022-04-27T11:11:22.000Z</time>
      </trkpt>
      <trkpt lat="37.65263" lon="-0.71939">
        <ele>4.383146</ele>
        <time>2022-04-27T11:11:28.000Z</time>
      </trkpt>
      <trkpt lat="37.65262" lon="-0.7194">
        <ele>4.380924</ele>
        <time>2022-04-27T11:11:30.000Z</time>
      </trkpt>
      <trkpt lat="37.65261" lon="-0.71942">
        <ele>4.378639</ele>
        <time>2022-04-27T11:11:31.000Z</time>
      </trkpt>
      <trkpt lat="37.65258" lon="-0.71947">
        <ele>4.369418</ele>
        <time>2022-04-27T11:11:33.000Z</time>
      </trkpt>
      <trkpt lat="37.65252" lon="-0.71957">
        <ele>4.350165</ele>
        <time>2022-04-27T11:11:37.000Z</time>
      </trkpt>
      <trkpt lat="37.6525" lon="-0.71957">
        <ele>4.346028</ele>
        <time>2022-04-27T11:11:38.000Z</time>
      </trkpt>
      <trkpt lat="37.65239" lon="-0.71948">
        <ele>4.322649</ele>
        <time>2022-04-27T11:11:42.000Z</time>
      </trkpt>
      <trkpt lat="37.65217" lon="-0.71929">
        <ele>4.27181</ele>
        <time>2022-04-27T11:11:48.000Z</time>
      </trkpt>
      <trkpt lat="37.65187" lon="-0.71904">
        <ele>4.197671</ele>
        <time>2022-04-27T11:11:55.000Z</time>
      </trkpt>
      <trkpt lat="37.65143" lon="-0.71864">
        <ele>4.078454</ele>
        <time>2022-04-27T11:12:05.000Z</time>
      </trkpt>
      <trkpt lat="37.65138" lon="-0.7186">
        <ele>4.066034</ele>
        <time>2022-04-27T11:12:06.000Z</time>
      </trkpt>
      <trkpt lat="37.6512" lon="-0.71844">
        <ele>4.017896</ele>
        <time>2022-04-27T11:12:10.000Z</time>
      </trkpt>
      <trkpt lat="37.65109" lon="-0.71833">
        <ele>3.985269</ele>
        <time>2022-04-27T11:12:13.000Z</time>
      </trkpt>
      <trkpt lat="37.65089" lon="-0.71818">
        <ele>3.934382</ele>
        <time>2022-04-27T11:12:18.000Z</time>
      </trkpt>
      <trkpt lat="37.65084" lon="-0.71815">
        <ele>3.924479</ele>
        <time>2022-04-27T11:12:19.000Z</time>
      </trkpt>
      <trkpt lat="37.65072" lon="-0.71809">
        <ele>3.895927</ele>
        <time>2022-04-27T11:12:22.000Z</time>
      </trkpt>
      <trkpt lat="37.65068" lon="-0.71807">
        <ele>3.886147</ele>
        <time>2022-04-27T11:12:23.000Z</time>
      </trkpt>
      <trkpt lat="37.65044" lon="-0.71788">
        <ele>3.82968</ele>
        <time>2022-04-27T11:12:29.000Z</time>
      </trkpt>
      <trkpt lat="37.65032" lon="-0.7178">
        <ele>3.805658</ele>
        <time>2022-04-27T11:12:32.000Z</time>
      </trkpt>
      <trkpt lat="37.65009" lon="-0.71765">
        <ele>3.759489</ele>
        <time>2022-04-27T11:12:37.000Z</time>
      </trkpt>
      <trkpt lat="37.64988" lon="-0.71748">
        <ele>3.715314</ele>
        <time>2022-04-27T11:12:42.000Z</time>
      </trkpt>
      <trkpt lat="37.64982" lon="-0.71743">
        <ele>3.701914</ele>
        <time>2022-04-27T11:12:44.000Z</time>
      </trkpt>
      <trkpt lat="37.64978" lon="-0.7174">
        <ele>3.693799</ele>
        <time>2022-04-27T11:12:45.000Z</time>
      </trkpt>
      <trkpt lat="37.64973" lon="-0.71735">
        <ele>3.683241</ele>
        <time>2022-04-27T11:12:47.000Z</time>
      </trkpt>
      <trkpt lat="37.64972" lon="-0.71732">
        <ele>3.678386</ele>
        <time>2022-04-27T11:12:49.000Z</time>
      </trkpt>
      <trkpt lat="37.64974" lon="-0.71728">
        <ele>3.672429</ele>
        <time>2022-04-27T11:12:53.000Z</time>
      </trkpt>
      <trkpt lat="37.64976" lon="-0.71726">
        <ele>3.668453</ele>
        <time>2022-04-27T11:12:54.000Z</time>
      </trkpt>
      <trkpt lat="37.6498" lon="-0.71714">
        <ele>3.649719</ele>
        <time>2022-04-27T11:12:58.000Z</time>
      </trkpt>
      <trkpt lat="37.64978" lon="-0.71708">
        <ele>3.640923</ele>
        <time>2022-04-27T11:13:00.000Z</time>
      </trkpt>
      <trkpt lat="37.64963" lon="-0.71698">
        <ele>3.60998</ele>
        <time>2022-04-27T11:13:05.000Z</time>
      </trkpt>
      <trkpt lat="37.64937" lon="-0.71678">
        <ele>3.557233</ele>
        <time>2022-04-27T11:13:12.000Z</time>
      </trkpt>
      <trkpt lat="37.64922" lon="-0.71666">
        <ele>3.537398</ele>
        <time>2022-04-27T11:13:16.000Z</time>
      </trkpt>
      <trkpt lat="37.64907" lon="-0.71654">
        <ele>3.54556</ele>
        <time>2022-04-27T11:13:20.000Z</time>
      </trkpt>
      <trkpt lat="37.64899" lon="-0.71648">
        <ele>3.549486</ele>
        <time>2022-04-27T11:13:22.000Z</time>
      </trkpt>
      <trkpt lat="37.64869" lon="-0.71625">
        <ele>3.564986</ele>
        <time>2022-04-27T11:13:30.000Z</time>
      </trkpt>
      <trkpt lat="37.64864" lon="-0.71618">
        <ele>3.568552</ele>
        <time>2022-04-27T11:13:32.000Z</time>
      </trkpt>
      <trkpt lat="37.64861" lon="-0.7161">
        <ele>3.571726</ele>
        <time>2022-04-27T11:13:34.000Z</time>
      </trkpt>
      <trkpt lat="37.64858" lon="-0.71607">
        <ele>3.573164</ele>
        <time>2022-04-27T11:13:35.000Z</time>
      </trkpt>
      <trkpt lat="37.64848" lon="-0.716">
        <ele>3.578307</ele>
        <time>2022-04-27T11:13:38.000Z</time>
      </trkpt>
      <trkpt lat="37.64827" lon="-0.71583">
        <ele>3.589453</ele>
        <time>2022-04-27T11:13:45.000Z</time>
      </trkpt>
      <trkpt lat="37.64813" lon="-0.71575">
        <ele>3.596242</ele>
        <time>2022-04-27T11:13:49.000Z</time>
      </trkpt>
      <trkpt lat="37.64801" lon="-0.71569">
        <ele>3.601675</ele>
        <time>2022-04-27T11:13:52.000Z</time>
      </trkpt>
      <trkpt lat="37.64798" lon="-0.71567">
        <ele>3.603465</ele>
        <time>2022-04-27T11:13:53.000Z</time>
      </trkpt>
      <trkpt lat="37.6479" lon="-0.71562">
        <ele>3.60734</ele>
        <time>2022-04-27T11:13:55.000Z</time>
      </trkpt>
      <trkpt lat="37.64782" lon="-0.71557">
        <ele>3.611253</ele>
        <time>2022-04-27T11:13:57.000Z</time>
      </trkpt>
      <trkpt lat="37.64767" lon="-0.71544">
        <ele>3.609497</ele>
        <time>2022-04-27T11:14:01.000Z</time>
      </trkpt>
      <trkpt lat="37.64764" lon="-0.71541">
        <ele>3.607353</ele>
        <time>2022-04-27T11:14:02.000Z</time>
      </trkpt>
      <trkpt lat="37.64731" lon="-0.71515">
        <ele>3.586259</ele>
        <time>2022-04-27T11:14:11.000Z</time>
      </trkpt>
      <trkpt lat="37.6472" lon="-0.71506">
        <ele>3.57899</ele>
        <time>2022-04-27T11:14:14.000Z</time>
      </trkpt>
      <trkpt lat="37.64708" lon="-0.71497">
        <ele>3.57146</ele>
        <time>2022-04-27T11:14:17.000Z</time>
      </trkpt>
      <trkpt lat="37.647" lon="-0.71492">
        <ele>3.566493</ele>
        <time>2022-04-27T11:14:19.000Z</time>
      </trkpt>
      <trkpt lat="37.64692" lon="-0.71487">
        <ele>3.561903</ele>
        <time>2022-04-27T11:14:21.000Z</time>
      </trkpt>
      <trkpt lat="37.64689" lon="-0.71487">
        <ele>3.559827</ele>
        <time>2022-04-27T11:14:22.000Z</time>
      </trkpt>
      <trkpt lat="37.6466" lon="-0.71488">
        <ele>3.544252</ele>
        <time>2022-04-27T11:14:28.000Z</time>
      </trkpt>
      <trkpt lat="37.64617" lon="-0.71492">
        <ele>3.521088</ele>
        <time>2022-04-27T11:14:36.000Z</time>
      </trkpt>
      <trkpt lat="37.64577" lon="-0.71497">
        <ele>3.491716</ele>
        <time>2022-04-27T11:14:44.000Z</time>
      </trkpt>
      <trkpt lat="37.64568" lon="-0.71497">
        <ele>3.484329</ele>
        <time>2022-04-27T11:14:46.000Z</time>
      </trkpt>
      <trkpt lat="37.64543" lon="-0.71501">
        <ele>3.465036</ele>
        <time>2022-04-27T11:14:51.000Z</time>
      </trkpt>
      <trkpt lat="37.64518" lon="-0.71504">
        <ele>3.445553</ele>
        <time>2022-04-27T11:14:56.000Z</time>
      </trkpt>
      <trkpt lat="37.64477" lon="-0.7151">
        <ele>3.413668</ele>
        <time>2022-04-27T11:15:04.000Z</time>
      </trkpt>
      <trkpt lat="37.64438" lon="-0.71505">
        <ele>3.383374</ele>
        <time>2022-04-27T11:15:12.000Z</time>
      </trkpt>
      <trkpt lat="37.64406" lon="-0.71491">
        <ele>3.369276</ele>
        <time>2022-04-27T11:15:19.000Z</time>
      </trkpt>
      <trkpt lat="37.64365" lon="-0.71465">
        <ele>3.354977</ele>
        <time>2022-04-27T11:15:29.000Z</time>
      </trkpt>
      <trkpt lat="37.64322" lon="-0.71438">
        <ele>3.340019</ele>
        <time>2022-04-27T11:15:39.000Z</time>
      </trkpt>
      <trkpt lat="37.64296" lon="-0.71422">
        <ele>3.330902</ele>
        <time>2022-04-27T11:15:45.000Z</time>
      </trkpt>
      <trkpt lat="37.64294" lon="-0.7142">
        <ele>3.329879</ele>
        <time>2022-04-27T11:15:46.000Z</time>
      </trkpt>
      <trkpt lat="37.64284" lon="-0.71405">
        <ele>3.32523</ele>
        <time>2022-04-27T11:15:50.000Z</time>
      </trkpt>
      <trkpt lat="37.6427" lon="-0.71399">
        <ele>3.323719</ele>
        <time>2022-04-27T11:15:54.000Z</time>
      </trkpt>
      <trkpt lat="37.64268" lon="-0.714">
        <ele>3.32604</ele>
        <time>2022-04-27T11:15:55.000Z</time>
      </trkpt>
      <trkpt lat="37.64255" lon="-0.71396">
        <ele>3.33722</ele>
        <time>2022-04-27T11:15:59.000Z</time>
      </trkpt>
      <trkpt lat="37.64225" lon="-0.71375">
        <ele>3.366494</ele>
        <time>2022-04-27T11:16:07.000Z</time>
      </trkpt>
      <trkpt lat="37.64215" lon="-0.71366">
        <ele>3.377537</ele>
        <time>2022-04-27T11:16:10.000Z</time>
      </trkpt>
      <trkpt lat="37.64205" lon="-0.7136">
        <ele>3.386366</ele>
        <time>2022-04-27T11:16:12.000Z</time>
      </trkpt>
      <trkpt lat="37.64183" lon="-0.71347">
        <ele>3.407247</ele>
        <time>2022-04-27T11:16:17.000Z</time>
      </trkpt>
      <trkpt lat="37.6418" lon="-0.71345">
        <ele>3.410291</ele>
        <time>2022-04-27T11:16:19.000Z</time>
      </trkpt>
      <trkpt lat="37.6418" lon="-0.71345">
        <ele>3.410688</ele>
        <time>2022-04-27T11:16:23.000Z</time>
      </trkpt>
      <trkpt lat="37.64179" lon="-0.71345">
        <ele>3.41146</ele>
        <time>2022-04-27T11:16:28.000Z</time>
      </trkpt>
      <trkpt lat="37.64175" lon="-0.71342">
        <ele>3.414989</ele>
        <time>2022-04-27T11:16:31.000Z</time>
      </trkpt>
      <trkpt lat="37.64163" lon="-0.71333">
        <ele>3.42674</ele>
        <time>2022-04-27T11:16:36.000Z</time>
      </trkpt>
      <trkpt lat="37.64161" lon="-0.71329">
        <ele>3.430082</ele>
        <time>2022-04-27T11:16:38.000Z</time>
      </trkpt>
      <trkpt lat="37.64161" lon="-0.71326">
        <ele>3.431993</ele>
        <time>2022-04-27T11:16:39.000Z</time>
      </trkpt>
      <trkpt lat="37.64168" lon="-0.71313">
        <ele>3.442766</ele>
        <time>2022-04-27T11:16:44.000Z</time>
      </trkpt>
      <trkpt lat="37.64173" lon="-0.71301">
        <ele>3.452187</ele>
        <time>2022-04-27T11:16:48.000Z</time>
      </trkpt>
      <trkpt lat="37.64176" lon="-0.71294">
        <ele>3.456854</ele>
        <time>2022-04-27T11:16:50.000Z</time>
      </trkpt>
      <trkpt lat="37.6418" lon="-0.71282">
        <ele>3.465789</ele>
        <time>2022-04-27T11:16:54.000Z</time>
      </trkpt>
      <trkpt lat="37.64179" lon="-0.7128">
        <ele>3.467633</ele>
        <time>2022-04-27T11:16:58.000Z</time>
      </trkpt>
      <trkpt lat="37.64181" lon="-0.71277">
        <ele>3.469966</ele>
        <time>2022-04-27T11:17:02.000Z</time>
      </trkpt>
      <trkpt lat="37.64182" lon="-0.71274">
        <ele>3.472342</ele>
        <time>2022-04-27T11:17:05.000Z</time>
      </trkpt>
      <trkpt lat="37.6418" lon="-0.71269">
        <ele>3.474322</ele>
        <time>2022-04-27T11:17:13.000Z</time>
      </trkpt>
      <trkpt lat="37.64178" lon="-0.71272">
        <ele>3.470574</ele>
        <time>2022-04-27T11:17:20.000Z</time>
      </trkpt>
      <trkpt lat="37.64178" lon="-0.71272">
        <ele>3.470574</ele>
        <time>2022-04-27T11:17:28.000Z</time>
      </trkpt>
      <trkpt lat="37.64178" lon="-0.71272">
        <ele>3.470574</ele>
        <time>2022-04-27T11:17:33.000Z</time>
      </trkpt>
      <trkpt lat="37.64196" lon="-0.71254">
        <ele>3.437215</ele>
        <time>2022-04-27T12:25:05.000Z</time>
      </trkpt>
      <trkpt lat="37.64186" lon="-0.71261">
        <ele>3.420682</ele>
        <time>2022-04-27T12:25:09.000Z</time>
      </trkpt>
      <trkpt lat="37.64182" lon="-0.71264">
        <ele>3.413964</ele>
        <time>2022-04-27T12:25:10.000Z</time>
      </trkpt>
      <trkpt lat="37.64182" lon="-0.71264">
        <ele>3.413413</ele>
        <time>2022-04-27T12:25:11.000Z</time>
      </trkpt>
      <trkpt lat="37.64182" lon="-0.71264">
        <ele>3.413299</ele>
        <time>2022-04-27T12:25:12.000Z</time>
      </trkpt>
      <trkpt lat="37.64182" lon="-0.71266">
        <ele>3.411311</ele>
        <time>2022-04-27T12:25:18.000Z</time>
      </trkpt>
      <trkpt lat="37.6418" lon="-0.71267">
        <ele>3.408558</ele>
        <time>2022-04-27T12:25:25.000Z</time>
      </trkpt>
      <trkpt lat="37.6418" lon="-0.71269">
        <ele>3.406236</ele>
        <time>2022-04-27T12:25:35.000Z</time>
      </trkpt>
      <trkpt lat="37.6418" lon="-0.71269">
        <ele>3.406236</ele>
        <time>2022-04-27T12:25:36.000Z</time>
      </trkpt>
      <trkpt lat="37.6418" lon="-0.71269">
        <ele>3.406236</ele>
        <time>2022-04-27T12:25:38.000Z</time>
      </trkpt>
      <trkpt lat="37.6418" lon="-0.71269">
        <ele>3.406236</ele>
        <time>2022-04-27T12:25:41.000Z</time>
      </trkpt>
      <trkpt lat="37.6418" lon="-0.71269">
        <ele>3.405788</ele>
        <time>2022-04-27T12:25:42.000Z</time>
      </trkpt>
      <trkpt lat="37.64179" lon="-0.71269">
        <ele>3.405478</ele>
        <time>2022-04-27T12:25:43.000Z</time>
      </trkpt>
      <trkpt lat="37.6418" lon="-0.71269">
        <ele>3.404858</ele>
        <time>2022-04-27T12:25:44.000Z</time>
      </trkpt>
      <trkpt lat="37.64183" lon="-0.71275">
        <ele>3.397516</ele>
        <time>2022-04-27T12:25:51.000Z</time>
      </trkpt>
      <trkpt lat="37.64183" lon="-0.71277">
        <ele>3.394861</ele>
        <time>2022-04-27T12:25:53.000Z</time>
      </trkpt>
      <trkpt lat="37.64183" lon="-0.71282">
        <ele>3.388543</ele>
        <time>2022-04-27T12:25:55.000Z</time>
      </trkpt>
      <trkpt lat="37.64176" lon="-0.71299">
        <ele>3.366771</ele>
        <time>2022-04-27T12:26:00.000Z</time>
      </trkpt>
      <trkpt lat="37.64175" lon="-0.71303">
        <ele>3.362723</ele>
        <time>2022-04-27T12:26:01.000Z</time>
      </trkpt>
      <trkpt lat="37.64167" lon="-0.7132">
        <ele>3.339316</ele>
        <time>2022-04-27T12:26:07.000Z</time>
      </trkpt>
      <trkpt lat="37.64156" lon="-0.71332">
        <ele>3.31892</ele>
        <time>2022-04-27T12:26:13.000Z</time>
      </trkpt>
      <trkpt lat="37.64141" lon="-0.71324">
        <ele>3.295804</ele>
        <time>2022-04-27T12:26:18.000Z</time>
      </trkpt>
      <trkpt lat="37.64117" lon="-0.71308">
        <ele>3.256023</ele>
        <time>2022-04-27T12:26:25.000Z</time>
      </trkpt>
      <trkpt lat="37.64084" lon="-0.71285">
        <ele>3.202393</ele>
        <time>2022-04-27T12:26:35.000Z</time>
      </trkpt>
      <trkpt lat="37.64058" lon="-0.71264">
        <ele>3.156209</ele>
        <time>2022-04-27T12:26:41.000Z</time>
      </trkpt>
      <trkpt lat="37.64053" lon="-0.71259">
        <ele>3.147255</ele>
        <time>2022-04-27T12:26:42.000Z</time>
      </trkpt>
      <trkpt lat="37.64035" lon="-0.71241">
        <ele>3.112467</ele>
        <time>2022-04-27T12:26:46.000Z</time>
      </trkpt>
      <trkpt lat="37.64026" lon="-0.71231">
        <ele>3.095688</ele>
        <time>2022-04-27T12:26:48.000Z</time>
      </trkpt>
      <trkpt lat="37.64014" lon="-0.71215">
        <ele>3.069838</ele>
        <time>2022-04-27T12:26:51.000Z</time>
      </trkpt>
      <trkpt lat="37.64009" lon="-0.7121">
        <ele>3.060924</ele>
        <time>2022-04-27T12:26:52.000Z</time>
      </trkpt>
      <trkpt lat="37.64" lon="-0.712">
        <ele>3.043315</ele>
        <time>2022-04-27T12:26:54.000Z</time>
      </trkpt>
      <trkpt lat="37.63991" lon="-0.71189">
        <ele>3.025062</ele>
        <time>2022-04-27T12:26:56.000Z</time>
      </trkpt>
      <trkpt lat="37.63971" lon="-0.71159">
        <ele>2.978924</ele>
        <time>2022-04-27T12:27:01.000Z</time>
      </trkpt>
      <trkpt lat="37.6394" lon="-0.71108">
        <ele>3.284128</ele>
        <time>2022-04-27T12:27:09.000Z</time>
      </trkpt>
      <trkpt lat="37.63926" lon="-0.71086">
        <ele>3.525139</ele>
        <time>2022-04-27T12:27:13.000Z</time>
      </trkpt>
      <trkpt lat="37.63914" lon="-0.71066">
        <ele>3.737181</ele>
        <time>2022-04-27T12:27:17.000Z</time>
      </trkpt>
      <trkpt lat="37.63911" lon="-0.71062">
        <ele>3.786569</ele>
        <time>2022-04-27T12:27:18.000Z</time>
      </trkpt>
      <trkpt lat="37.63902" lon="-0.71047">
        <ele>3.940029</ele>
        <time>2022-04-27T12:27:21.000Z</time>
      </trkpt>
      <trkpt lat="37.63887" lon="-0.71025">
        <ele>4.183029</ele>
        <time>2022-04-27T12:27:26.000Z</time>
      </trkpt>
      <trkpt lat="37.63884" lon="-0.71021">
        <ele>4.230645</ele>
        <time>2022-04-27T12:27:27.000Z</time>
      </trkpt>
      <trkpt lat="37.63873" lon="-0.71004">
        <ele>4.41049</ele>
        <time>2022-04-27T12:27:31.000Z</time>
      </trkpt>
      <trkpt lat="37.6387" lon="-0.71001">
        <ele>4.455163</ele>
        <time>2022-04-27T12:27:32.000Z</time>
      </trkpt>
      <trkpt lat="37.63861" lon="-0.7099">
        <ele>4.590681</ele>
        <time>2022-04-27T12:27:35.000Z</time>
      </trkpt>
      <trkpt lat="37.63839" lon="-0.70969">
        <ele>4.868464</ele>
        <time>2022-04-27T12:27:41.000Z</time>
      </trkpt>
      <trkpt lat="37.63828" lon="-0.70959">
        <ele>4.93676</ele>
        <time>2022-04-27T12:27:44.000Z</time>
      </trkpt>
      <trkpt lat="37.63799" lon="-0.70937">
        <ele>5.0989</ele>
        <time>2022-04-27T12:27:50.000Z</time>
      </trkpt>
      <trkpt lat="37.63769" lon="-0.70916">
        <ele>5.265699</ele>
        <time>2022-04-27T12:27:56.000Z</time>
      </trkpt>
      <trkpt lat="37.63755" lon="-0.70907">
        <ele>5.339873</ele>
        <time>2022-04-27T12:27:59.000Z</time>
      </trkpt>
      <trkpt lat="37.63713" lon="-0.70879">
        <ele>5.572225</ele>
        <time>2022-04-27T12:28:08.000Z</time>
      </trkpt>
      <trkpt lat="37.63699" lon="-0.7087">
        <ele>5.649688</ele>
        <time>2022-04-27T12:28:11.000Z</time>
      </trkpt>
      <trkpt lat="37.63685" lon="-0.70861">
        <ele>5.725403</ele>
        <time>2022-04-27T12:28:14.000Z</time>
      </trkpt>
      <trkpt lat="37.63663" lon="-0.70848">
        <ele>5.730449</ele>
        <time>2022-04-27T12:28:19.000Z</time>
      </trkpt>
      <trkpt lat="37.63655" lon="-0.70845">
        <ele>5.730449</ele>
        <time>2022-04-27T12:28:21.000Z</time>
      </trkpt>
      <trkpt lat="37.6365" lon="-0.70841">
        <ele>5.730449</ele>
        <time>2022-04-27T12:28:23.000Z</time>
      </trkpt>
      <trkpt lat="37.63639" lon="-0.70835">
        <ele>5.730449</ele>
        <time>2022-04-27T12:28:28.000Z</time>
      </trkpt>
      <trkpt lat="37.63635" lon="-0.7083">
        <ele>5.730449</ele>
        <time>2022-04-27T12:28:32.000Z</time>
      </trkpt>
      <trkpt lat="37.63635" lon="-0.70827">
        <ele>5.730449</ele>
        <time>2022-04-27T12:28:34.000Z</time>
      </trkpt>
      <trkpt lat="37.63636" lon="-0.70826">
        <ele>5.730449</ele>
        <time>2022-04-27T12:28:37.000Z</time>
      </trkpt>
      <trkpt lat="37.63636" lon="-0.70826">
        <ele>5.730449</ele>
        <time>2022-04-27T12:28:40.000Z</time>
      </trkpt>
      <trkpt lat="37.63634" lon="-0.70824">
        <ele>5.730449</ele>
        <time>2022-04-27T12:28:43.000Z</time>
      </trkpt>
      <trkpt lat="37.63631" lon="-0.70822">
        <ele>5.730449</ele>
        <time>2022-04-27T12:28:45.000Z</time>
      </trkpt>
      <trkpt lat="37.63629" lon="-0.70823">
        <ele>5.730449</ele>
        <time>2022-04-27T12:28:47.000Z</time>
      </trkpt>
      <trkpt lat="37.63624" lon="-0.70823">
        <ele>5.730449</ele>
        <time>2022-04-27T12:28:50.000Z</time>
      </trkpt>
      <trkpt lat="37.63616" lon="-0.70811">
        <ele>5.730449</ele>
        <time>2022-04-27T12:28:57.000Z</time>
      </trkpt>
      <trkpt lat="37.63612" lon="-0.70813">
        <ele>5.730449</ele>
        <time>2022-04-27T12:29:02.000Z</time>
      </trkpt>
      <trkpt lat="37.63611" lon="-0.70813">
        <ele>5.730449</ele>
        <time>2022-04-27T12:29:13.000Z</time>
      </trkpt>
      <trkpt lat="37.63608" lon="-0.70813">
        <ele>5.730449</ele>
        <time>2022-04-27T12:29:15.000Z</time>
      </trkpt>
      <trkpt lat="37.63602" lon="-0.7081">
        <ele>5.730449</ele>
        <time>2022-04-27T12:29:18.000Z</time>
      </trkpt>
      <trkpt lat="37.63582" lon="-0.70796">
        <ele>5.730449</ele>
        <time>2022-04-27T12:29:26.000Z</time>
      </trkpt>
      <trkpt lat="37.63569" lon="-0.70785">
        <ele>5.730449</ele>
        <time>2022-04-27T12:29:33.000Z</time>
      </trkpt>
      <trkpt lat="37.63569" lon="-0.70784">
        <ele>5.730449</ele>
        <time>2022-04-27T12:29:37.000Z</time>
      </trkpt>
      <trkpt lat="37.63569" lon="-0.70784">
        <ele>5.730449</ele>
        <time>2022-04-27T12:29:38.000Z</time>
      </trkpt>
      <trkpt lat="37.6357" lon="-0.70784">
        <ele>5.730449</ele>
        <time>2022-04-27T12:29:40.000Z</time>
      </trkpt>
    </trkseg>
  </trk>
</gpx>